Provisional Data: Chemung River at West Elmira, NY


Please select a monitoring station.
Please select start date.
Please select start date.

Toggle Unit: C/F Toggle Unit: C/F
Sample Time Temperature (C) Temperature (F) Specific Conductivity (mS/cm) pH   Turbidity (NTU+) DO (mg/L)
8/11/2023 12:00:00 AM 21.89 71.402 0.333 7.75 5.35 7.55
8/11/2023 12:15:00 AM 21.84 71.312 0.334 7.75 5.78 7.54
8/11/2023 12:30:00 AM 21.79 71.222 0.334 7.74 6.28 7.53
8/11/2023 12:45:00 AM 21.74 71.132 0.334 7.74 5.67 7.51
8/11/2023 1:00:00 AM 21.69 71.042 0.335 7.65 6.39 7.5
8/11/2023 1:15:00 AM 21.65 70.97 0.335 7.72 6.45 7.5
8/11/2023 1:30:00 AM 21.61 70.898 0.336 7.72 6.33 7.49
8/11/2023 1:45:00 AM 21.57 70.826 0.336 7.72 7.92 7.48
8/11/2023 2:00:00 AM 21.53 70.754 0.337 7.72 10.83 7.49
8/11/2023 2:15:00 AM 21.49 70.682 0.338 7.71 9.9 7.48
8/11/2023 2:30:00 AM 21.45 70.61 0.338 7.68 8.44 7.47
8/11/2023 2:45:00 AM 21.42 70.556 0.339 7.7 8.66 7.47
8/11/2023 3:00:00 AM 21.39 70.502 0.339 7.7 9.38 7.46
8/11/2023 3:15:00 AM 21.35 70.43 0.34 7.7 9.69 7.46
8/11/2023 3:30:00 AM 21.31 70.358 0.34 7.7 9.49 7.45
8/11/2023 3:45:00 AM 21.27 70.286 0.34 7.69 9.68 7.45
8/11/2023 4:00:00 AM 21.23 70.214 0.34 7.7 11.25 7.44
8/11/2023 4:15:00 AM 21.18 70.124 0.34 7.69 10.74 7.44
8/11/2023 4:30:00 AM 21.13 70.034 0.339 7.69 10.66 7.44
8/11/2023 4:45:00 AM 21.09 69.962 0.338 7.69 11 7.44
8/11/2023 5:00:00 AM 21.05 69.89 0.337 7.69 11.09 7.43
8/11/2023 5:15:00 AM 21.01 69.818 0.336 7.68 11.58 7.42
8/11/2023 5:30:00 AM 20.97 69.746 0.334 7.67 11.88 7.41
8/11/2023 5:45:00 AM 20.94 69.692 0.332 7.42 11.95 7.39
8/11/2023 6:00:00 AM 20.9 69.62 0.329 7.67 12.36 7.4
8/11/2023 6:15:00 AM 20.87 69.566 0.328 7.66 11.78 7.39
8/11/2023 6:30:00 AM 20.83 69.494 0.326 7.66 13.24 7.37
8/11/2023 6:45:00 AM 20.8 69.44 0.324 7.65 13.29 7.36
8/11/2023 7:00:00 AM 20.77 69.386 0.322 7.65 11.76 7.36
8/11/2023 7:15:00 AM 20.74 69.332 0.321 7.65 11.05 7.37
8/11/2023 7:30:00 AM 20.73 69.314 0.319 7.59 10.57 7.39
8/11/2023 7:45:00 AM 20.7 69.26 0.317 7.65 10.98 7.41
8/11/2023 8:00:00 AM 20.7 69.26 0.315 7.65 10.21 7.44
8/11/2023 8:15:00 AM 20.71 69.278 0.313 7.65 10.76 7.49
8/11/2023 8:30:00 AM 20.74 69.332 0.311 7.66 10.94 7.53
8/11/2023 8:45:00 AM 20.77 69.386 0.31 7.67 10.53 7.59
8/11/2023 9:00:00 AM 20.81 69.458 0.308 7.68 9.84 7.65
8/11/2023 9:15:00 AM 20.86 69.548 0.307 7.69 9.81 7.72
8/11/2023 9:30:00 AM 20.93 69.674 0.305 7.7 10.06 7.82
8/11/2023 9:45:00 AM 21.01 69.818 0.304 7.71 9.45 7.91
8/11/2023 10:00:00 AM 21.09 69.962 0.302 7.72 9.66 7.97
8/11/2023 10:15:00 AM 21.18 70.124 0.301 7.75 9.22 8.08
8/11/2023 10:30:00 AM 21.29 70.32201 0.299 7.72 9.1 8.17
8/11/2023 10:45:00 AM 21.38 70.484 0.298 7.78 9.26 8.26
8/11/2023 11:00:00 AM 21.48 70.664 0.296 7.79 8.93 8.34
8/11/2023 11:15:00 AM 21.56 70.808 0.295 7.8 9.35 8.4
8/11/2023 11:30:00 AM 21.65 70.97 0.293 7.82 8.64 8.45
8/11/2023 11:45:00 AM 21.71 71.078 0.292 7.84 8.91 8.5
8/11/2023 12:00:00 PM 21.8 71.24 0.29 7.84 8.51 8.57
8/11/2023 12:15:00 PM 21.91 71.438 0.288 7.87 8.61 8.63
8/11/2023 12:30:00 PM 22.02 71.636 0.287 7.89 8.78 8.72
8/11/2023 12:45:00 PM 22.13 71.834 0.285 7.9 9.08 8.79
8/11/2023 1:00:00 PM 22.23 72.014 0.284 7.93 8.68 8.85
8/11/2023 1:15:00 PM 22.34 72.212 0.282 7.94 9.08 8.93
8/11/2023 1:30:00 PM 22.43 72.374 0.28 7.96 9.09 9
8/11/2023 1:45:00 PM 22.51 72.518 0.279 7.98 9.26 9.05
8/11/2023 2:00:00 PM 22.57 72.626 0.277 7.99 8.79 9.08
8/11/2023 2:15:00 PM 22.63 72.734 0.276 7.99 9.36 9.08
8/11/2023 2:30:00 PM 22.67 72.806 0.274 8 9.44 9.08
8/11/2023 2:45:00 PM 22.7 72.86 0.273 8 9.17 9.07
8/11/2023 3:00:00 PM 22.77 72.986 0.272 8.01 9.06 9.09
8/11/2023 3:15:00 PM 22.84 73.112 0.271 8.01 9.22 9.13
8/11/2023 3:30:00 PM 22.91 73.238 0.27 8.03 8.96 9.16
8/11/2023 3:45:00 PM 22.96 73.328 0.269 8.03 9.14 9.16
8/11/2023 4:00:00 PM 23 73.4 0.268 8.04 9.22 9.18
8/11/2023 4:15:00 PM 23.02 73.436 0.267 8.04 9.86 9.16
8/11/2023 4:30:00 PM 23.02 73.436 0.267 8.04 9.19 9.14
8/11/2023 4:45:00 PM 23.02 73.436 0.266 8.03 9.05 9.1
8/11/2023 5:00:00 PM 23.03 73.454 0.266 8.02 9.37 9.07
8/11/2023 5:15:00 PM 23.01 73.418 0.266 8 9.39 9.01
8/11/2023 5:30:00 PM 23.02 73.436 0.265 8 9.36 8.99
8/11/2023 5:45:00 PM 23.01 73.418 0.265 7.99 9.4 8.96
8/11/2023 6:00:00 PM 22.99 73.382 0.265 7.97 9.48 8.91
8/11/2023 6:15:00 PM 22.96 73.328 0.265 7.96 9.21 8.84
8/11/2023 6:30:00 PM 22.94 73.292 0.266 7.95 9.02 8.8
8/11/2023 6:45:00 PM 22.9 73.22 0.266 7.93 9.26 8.73
8/11/2023 7:00:00 PM 22.85 73.13 0.266 7.91 8.54 8.66
8/11/2023 7:15:00 PM 22.8 73.04 0.267 7.89 8.84 8.59
8/11/2023 7:30:00 PM 22.74 72.932 0.268 7.86 8.94 8.52
8/11/2023 7:45:00 PM 22.68 72.824 0.268 7.85 9 8.43
8/11/2023 8:00:00 PM 22.63 72.734 0.269 7.82 8.98 8.36
8/11/2023 8:15:00 PM 22.57 72.626 0.27 7.8 8.82 8.29
8/11/2023 8:30:00 PM 22.52 72.536 0.27 7.78 10.21 8.21
8/11/2023 8:45:00 PM 22.46 72.42799 0.271 7.76 8.66 8.15
8/11/2023 9:00:00 PM 22.41 72.338 0.272 7.75 8.59 8.09
8/11/2023 9:15:00 PM 22.36 72.248 0.273 7.74 8.91 8.05
8/11/2023 9:30:00 PM 22.32 72.176 0.274 7.73 9.02 8.01
8/11/2023 9:45:00 PM 22.27 72.086 0.275 7.72 8.39 7.97
8/11/2023 10:00:00 PM 22.23 72.014 0.276 7.71 8.51 7.92
8/11/2023 10:15:00 PM 22.18 71.924 0.277 7.71 8.24 7.88
8/11/2023 10:30:00 PM 22.13 71.834 0.278 7.7 8.46 7.85
8/11/2023 10:45:00 PM 22.08 71.744 0.279 7.7 8.23 7.81
8/11/2023 11:00:00 PM 22.03 71.654 0.28 7.69 8.01 7.78
8/11/2023 11:15:00 PM 21.98 71.564 0.281 7.68 7.94 7.74
8/11/2023 11:30:00 PM 21.93 71.474 0.282 7.67 7.42 7.71
8/11/2023 11:45:00 PM 21.88 71.384 0.283 7.66 7.32 7.67
8/12/2023 12:00:00 AM 21.84 71.312 0.284 7.66 7.71 7.64
8/12/2023 12:15:00 AM 21.79 71.222 0.285 7.65 7.18 7.61
8/12/2023 12:30:00 AM 21.75 71.15 0.286 7.64 6.87 7.59
8/12/2023 12:45:00 AM 21.71 71.078 0.287 7.64 7.01 7.57
8/12/2023 1:00:00 AM 21.67 71.006 0.288 7.63 6.94 7.54
8/12/2023 1:15:00 AM 21.63 70.934 0.289 7.63 6.48 7.52
8/12/2023 1:30:00 AM 21.6 70.88 0.29 7.62 6.74 7.5
8/12/2023 1:45:00 AM 21.56 70.808 0.291 7.62 6.69 7.46
8/12/2023 2:00:00 AM 21.53 70.754 0.292 7.61 6.78 7.43
8/12/2023 2:15:00 AM 21.5 70.7 0.293 7.61 6.42 7.41
8/12/2023 2:30:00 AM 21.47 70.646 0.294 7.6 6.32 7.39
8/12/2023 2:45:00 AM 21.45 70.61 0.294 7.6 6.41 7.37
8/12/2023 3:00:00 AM 21.42 70.556 0.295 7.59 6 7.35
8/12/2023 3:15:00 AM 21.39 70.502 0.296 7.59 6.35 7.3
8/12/2023 3:30:00 AM 21.36 70.448 0.297 7.59 6.06 7.3
8/12/2023 3:45:00 AM 21.34 70.412 0.297 7.58 5.92 7.29
8/12/2023 4:00:00 AM 21.31 70.358 0.298 7.58 6.79 7.26
8/12/2023 4:15:00 AM 21.28 70.304 0.298 7.58 5.91 7.26
8/12/2023 4:30:00 AM 21.26 70.268 0.299 7.57 6.03 7.23
8/12/2023 4:45:00 AM 21.23 70.214 0.299 7.58 6.43 7.21
8/12/2023 5:00:00 AM 21.21 70.17799 0.3 7.57 6.54 7.19
8/12/2023 5:15:00 AM 21.19 70.142 0.3 7.57 6.02 7.18
8/12/2023 5:30:00 AM 21.18 70.124 0.301 7.57 5.98 7.17
8/12/2023 5:45:00 AM 21.16 70.088 0.301 7.57 5.76 7.12
8/12/2023 6:00:00 AM 21.15 70.07 0.302 7.56 6.87 7.13
8/12/2023 6:15:00 AM 21.14 70.052 0.302 7.56 6.29 7.11
8/12/2023 6:30:00 AM 21.13 70.034 0.302 7.56 6.17 7.11
8/12/2023 6:45:00 AM 21.12 70.016 0.302 7.56 6.17 7.1
8/12/2023 7:00:00 AM 21.11 69.998 0.303 7.56 5.95 7.08
8/12/2023 7:15:00 AM 21.1 69.98 0.303 7.56 6.1 7.09
8/12/2023 7:30:00 AM 21.1 69.98 0.303 7.56 5.83 7.12
8/12/2023 7:45:00 AM 21.14 70.052 0.303 7.58 5.94 7.19
8/12/2023 8:00:00 AM 21.17 70.106 0.303 7.59 6.94 7.26
8/12/2023 8:15:00 AM 21.18 70.124 0.303 7.61 5.84 7.32
8/12/2023 8:30:00 AM 21.2 70.16 0.303 7.62 6.03 7.39
8/12/2023 8:45:00 AM 21.22 70.196 0.303 7.63 5.49 7.44
8/12/2023 9:00:00 AM 21.26 70.268 0.303 7.64 5.84 7.51
8/12/2023 9:15:00 AM 21.29 70.32201 0.303 7.65 5.93 7.57
8/12/2023 9:30:00 AM 21.32 70.376 0.303 7.65 6.09 7.64
8/12/2023 9:45:00 AM 21.35 70.43 0.303 7.67 5.71 7.7
8/12/2023 10:00:00 AM 21.4 70.52 0.303 7.69 5.67 7.75
8/12/2023 10:15:00 AM 21.45 70.61 0.303 7.71 5.05 7.85
8/12/2023 10:30:00 AM 21.49 70.682 0.303 7.74 6.02 7.94
8/12/2023 10:45:00 AM 21.51 70.718 0.303 7.73 5.35 7.96
8/12/2023 11:00:00 AM 21.54 70.772 0.303 7.73 5.16 8.05
8/12/2023 11:15:00 AM 21.61 70.898 0.303 7.76 5.09 8.14
8/12/2023 11:30:00 AM 21.73 71.114 0.303 7.78 5.73 8.27
8/12/2023 11:45:00 AM 21.78 71.204 0.302 7.8 5.55 8.35
8/12/2023 12:00:00 PM 21.84 71.312 0.302 7.83 5.5 8.44
8/12/2023 12:15:00 PM 21.89 71.402 0.302 7.85 5.69 8.54
8/12/2023 12:30:00 PM 21.97 71.546 0.302 7.79 5.11 8.62
8/12/2023 12:45:00 PM 22.05 71.69 0.302 7.88 5.07 8.69
8/12/2023 1:00:00 PM 22.17 71.906 0.302 7.92 4.98 8.85
8/12/2023 1:15:00 PM 22.27 72.086 0.302 7.96 4.85 8.94
8/12/2023 1:30:00 PM 22.42 72.356 0.302 7.96 5.01 9.08
8/12/2023 1:45:00 PM 22.57 72.626 0.303 8.04 4.78 9.26
8/12/2023 2:00:00 PM 22.74 72.932 0.303 8.01 4.35 9.41
8/12/2023 2:15:00 PM 22.89 73.202 0.303 8.13 4.7 9.55
8/12/2023 2:30:00 PM 23.05 73.49 0.303 8.18 4.68 9.66
8/12/2023 2:45:00 PM 23.2 73.76 0.303 8.2 4.56 9.77
8/12/2023 3:00:00 PM 23.37 74.066 0.303 8.24 4.61 9.88
8/12/2023 3:15:00 PM 23.51 74.318 0.303 8.27 4.49 9.95
8/12/2023 3:30:00 PM 23.62 74.516 0.303 8.29 4.53 10.02
8/12/2023 3:45:00 PM 23.72 74.696 0.303 8.32 4.23 10.08
8/12/2023 4:00:00 PM 23.82 74.876 0.304 8.33 4.64 10.14
8/12/2023 4:15:00 PM 23.87 74.966 0.304 8.34 4.34 10.13
8/12/2023 4:30:00 PM 23.92 75.056 0.304 8.35 4.78 10.12
8/12/2023 4:45:00 PM 23.93 75.074 0.304 8.33 4.54 10.02
8/12/2023 5:00:00 PM 23.92 75.056 0.305 8.27 4.28 9.89
8/12/2023 5:15:00 PM 23.88 74.984 0.305 8.29 4.43 9.76
8/12/2023 5:30:00 PM 23.54 74.372 0.289 8.24 12.62 9.36
8/12/2023 5:45:00 PM 22.98 73.364 0.283 8.18 11.92 9.13
8/12/2023 6:00:00 PM 22.92 73.256 0.286 8.1 278.42 8.98
8/12/2023 6:15:00 PM 22.21 71.978 0.262 7.9 907.04 8.87
8/12/2023 6:30:00 PM 21.7 71.06 0.248 7.82 844.81 8.78
8/12/2023 6:45:00 PM 21.45 70.61 0.239 7.77 646.27 8.7
8/12/2023 7:00:00 PM 21.16 70.088 0.229 7.71 594.48 8.63
8/12/2023 7:15:00 PM 20.99 69.782 0.225 7.66 490.83 8.54
8/12/2023 7:30:00 PM 21.05 69.89 0.23 7.64 432.6 8.47
8/12/2023 7:45:00 PM 21.22 70.196 0.242 7.64 283 8.39
8/12/2023 8:00:00 PM 21.28 70.304 0.247 7.63 196.63 8.29
8/12/2023 8:15:00 PM 21.33 70.394 0.252 7.6 169.77 8.2
8/12/2023 8:30:00 PM 21.33 70.394 0.257 7.57 145.14 8.12
8/12/2023 8:45:00 PM 21.3 70.34 0.26 7.54 109 8.04
8/12/2023 9:00:00 PM 21.25 70.25 0.261 7.52 110.3 7.95
8/12/2023 9:15:00 PM 21.21 70.17799 0.263 7.51 91.16 7.92
8/12/2023 9:30:00 PM 21.16 70.088 0.265 7.5 101.16 7.87
8/12/2023 9:45:00 PM 21.1 69.98 0.266 7.49 89.69 7.83
8/12/2023 10:00:00 PM 21.06 69.908 0.267 7.49 85.34 7.78
8/12/2023 10:15:00 PM 21.02 69.836 0.268 7.48 68.67 7.74
8/12/2023 10:30:00 PM 21.01 69.818 0.27 7.48 67.22 7.7
8/12/2023 10:45:00 PM 20.99 69.782 0.273 7.49 58.83 7.69
8/12/2023 11:00:00 PM 20.99 69.782 0.275 7.49 51.84 7.65
8/12/2023 11:15:00 PM 20.97 69.746 0.277 7.5 47.24 7.63
8/12/2023 11:30:00 PM 20.95 69.71 0.28 7.5 41.3 7.64
8/12/2023 11:45:00 PM 20.94 69.692 0.282 7.5 39.74 7.61
8/13/2023 12:00:00 AM 20.93 69.674 0.285 7.5 34.34 7.58
8/13/2023 12:15:00 AM 20.93 69.674 0.288 7.5 29.24 7.56
8/13/2023 12:30:00 AM 20.94 69.692 0.291 7.51 30.01 7.53
8/13/2023 12:45:00 AM 20.95 69.71 0.294 7.51 24.79 7.52
8/13/2023 1:00:00 AM 20.97 69.746 0.297 7.51 25.94 7.49
8/13/2023 1:15:00 AM 20.98 69.764 0.299 7.5 20.85 7.46
8/13/2023 1:30:00 AM 21 69.8 0.301 7.5 19.52 7.44
8/13/2023 1:45:00 AM 21.01 69.818 0.303 7.45 17.03 7.4
8/13/2023 2:00:00 AM 21.03 69.854 0.305 7.5 16.31 7.37
8/13/2023 2:15:00 AM 21.04 69.872 0.307 7.49 16.89 7.34
8/13/2023 2:30:00 AM 21.05 69.89 0.308 7.49 15.37 7.3
8/13/2023 2:45:00 AM 21.05 69.89 0.309 7.49 15.17 7.28
8/13/2023 3:00:00 AM 21.05 69.89 0.31 7.48 15.74 7.26
8/13/2023 3:15:00 AM 21.04 69.872 0.311 7.48 13 7.23
8/13/2023 3:30:00 AM 21.04 69.872 0.311 7.47 14.48 7.2
8/13/2023 3:45:00 AM 21.03 69.854 0.312 7.47 14.69 7.18
8/13/2023 4:00:00 AM 21.03 69.854 0.312 7.47 13.2 7.17
8/13/2023 4:15:00 AM 21.02 69.836 0.313 7.46 14.71 7.15
8/13/2023 4:30:00 AM 21 69.8 0.313 7.46 14.54 7.11
8/13/2023 4:45:00 AM 20.99 69.782 0.313 7.46 14.24 7.11
8/13/2023 5:00:00 AM 20.96 69.728 0.313 7.45 14.01 7.08
8/13/2023 5:15:00 AM 20.93 69.674 0.313 7.45 14.6 7.08
8/13/2023 5:30:00 AM 20.9 69.62 0.313 7.44 14.16 7.06
8/13/2023 5:45:00 AM 20.88 69.584 0.313 7.44 16.35 7.04
8/13/2023 6:00:00 AM 20.85 69.53 0.312 7.44 18.01 7.02
8/13/2023 6:15:00 AM 20.82 69.476 0.312 7.43 17.04 7.01
8/13/2023 6:30:00 AM 20.79 69.422 0.311 7.43 17.66 7.02
8/13/2023 6:45:00 AM 20.76 69.368 0.311 7.42 16.31 7.01
8/13/2023 7:00:00 AM 20.75 69.35 0.31 7.42 17.06 7
8/13/2023 7:15:00 AM 20.75 69.35 0.31 7.42 17.34 7
8/13/2023 7:30:00 AM 20.76 69.368 0.309 7.42 18.11 7.04
8/13/2023 7:45:00 AM 20.76 69.368 0.309 7.42 16.53 7.05
8/13/2023 8:00:00 AM 20.78 69.404 0.309 7.42 17.29 7.08
8/13/2023 8:15:00 AM 20.79 69.422 0.308 7.43 15.37 7.13
8/13/2023 8:30:00 AM 20.83 69.494 0.308 7.43 15.85 7.18
8/13/2023 8:45:00 AM 20.9 69.62 0.308 7.44 15.33 7.24
8/13/2023 9:00:00 AM 20.98 69.764 0.308 7.45 13.79 7.32
8/13/2023 9:15:00 AM 21.06 69.908 0.308 7.47 14.56 7.41
8/13/2023 9:30:00 AM 21.15 70.07 0.308 7.49 14.05 7.52
8/13/2023 9:45:00 AM 21.2 70.16 0.308 7.49 14.42 7.57
8/13/2023 10:00:00 AM 21.25 70.25 0.308 7.5 13.76 7.62
8/13/2023 10:15:00 AM 21.31 70.358 0.308 7.51 12 7.68
8/13/2023 10:30:00 AM 21.36 70.448 0.309 7.52 12.73 7.74
8/13/2023 10:45:00 AM 21.4 70.52 0.309 7.53 12.14 7.8
8/13/2023 11:00:00 AM 21.49 70.682 0.309 7.55 11.11 7.85
8/13/2023 11:15:00 AM 21.62 70.916 0.31 7.57 11.01 7.98
8/13/2023 11:30:00 AM 21.69 71.042 0.31 7.59 11 8.04
8/13/2023 11:45:00 AM 21.76 71.168 0.311 7.61 10.19 8.13
8/13/2023 12:00:00 PM 21.88 71.384 0.311 7.63 10.38 8.22
8/13/2023 12:15:00 PM 21.98 71.564 0.312 7.65 9.82 8.3
8/13/2023 12:30:00 PM 22.08 71.744 0.312 7.67 10.15 8.39
8/13/2023 12:45:00 PM 22.22 71.996 0.312 7.69 8.22 8.49
8/13/2023 1:00:00 PM 22.34 72.212 0.313 7.71 9.42 8.56
8/13/2023 1:15:00 PM 22.52 72.536 0.313 7.75 10 8.72
8/13/2023 1:30:00 PM 22.68 72.824 0.313 7.78 8.94 8.82
8/13/2023 1:45:00 PM 22.84 73.112 0.314 7.81 8.61 8.98
8/13/2023 2:00:00 PM 22.96 73.328 0.314 7.84 7.82 9.07
8/13/2023 2:15:00 PM 23.07 73.526 0.314 7.86 7.89 9.08
8/13/2023 2:30:00 PM 23.16 73.688 0.314 7.88 8.63 9.17
8/13/2023 2:45:00 PM 23.21 73.778 0.315 7.9 8.1 9.21
8/13/2023 3:00:00 PM 23.25 73.85 0.315 7.9 15.09 9.22
8/13/2023 3:15:00 PM 23.29 73.922 0.315 7.92 8.31 9.23
8/13/2023 3:30:00 PM 23.31 73.958 0.316 7.93 7.34 9.25
8/13/2023 3:45:00 PM 23.33 73.994 0.317 7.94 7.08 9.26
8/13/2023 4:00:00 PM 23.33 73.994 0.317 7.94 6.8 9.24
8/13/2023 4:15:00 PM 23.36 74.048 0.317 7.95 6.8 9.28
8/13/2023 4:30:00 PM 23.35 74.03 0.317 7.95 6.44 9.22
8/13/2023 4:45:00 PM 23.35 74.03 0.317 7.95 6.85 9.21
8/13/2023 5:00:00 PM 23.35 74.03 0.317 7.95 6.12 9.22
8/13/2023 5:15:00 PM 23.36 74.048 0.317 7.95 6.8 9.18
8/13/2023 5:30:00 PM 23.36 74.048 0.317 7.91 6.21 9.17
8/13/2023 5:45:00 PM 23.35 74.03 0.318 7.95 6.4 9.19
8/13/2023 6:00:00 PM 23.32 73.976 0.318 7.95 11.16 9.13
8/13/2023 6:15:00 PM 23.29 73.922 0.318 7.95 6.84 9.11
8/13/2023 6:30:00 PM 23.25 73.85 0.318 7.93 6.53 9.05
8/13/2023 6:45:00 PM 23.2 73.76 0.318 7.92 6.34 8.99
8/13/2023 7:00:00 PM 23.15 73.67 0.318 7.9 6.41 8.91
8/13/2023 7:15:00 PM 23.09 73.562 0.318 7.88 6.45 8.82
8/13/2023 7:30:00 PM 23.04 73.472 0.318 7.86 6.38 8.75
8/13/2023 7:45:00 PM 23 73.4 0.318 7.84 6.03 8.67
8/13/2023 8:00:00 PM 22.95 73.31 0.317 7.82 6.63 8.57
8/13/2023 8:15:00 PM 22.92 73.256 0.317 7.8 6.71 8.49
8/13/2023 8:30:00 PM 22.88 73.184 0.317 7.79 6.88 8.4
8/13/2023 8:45:00 PM 22.84 73.112 0.317 7.76 6.12 8.31
8/13/2023 9:00:00 PM 22.8 73.04 0.317 7.75 6.48 8.24
8/13/2023 9:15:00 PM 22.76 72.968 0.318 7.73 6.54 8.16
8/13/2023 9:30:00 PM 22.72 72.896 0.319 7.71 6.59 8.08
8/13/2023 9:45:00 PM 22.68 72.824 0.318 7.69 6.74 8
8/13/2023 10:00:00 PM 22.64 72.752 0.318 7.68 6.14 7.93
8/13/2023 10:15:00 PM 22.6 72.68 0.318 7.67 6.28 7.88
8/13/2023 10:30:00 PM 22.55 72.59 0.318 7.65 6.8 7.81
8/13/2023 10:45:00 PM 22.5 72.5 0.319 7.64 6.62 7.75
8/13/2023 11:00:00 PM 22.46 72.42799 0.319 7.62 6.55 7.69
8/13/2023 11:15:00 PM 22.42 72.356 0.319 7.61 6.44 7.63
8/13/2023 11:30:00 PM 22.37 72.266 0.319 7.6 6.44 7.58
8/13/2023 11:45:00 PM 22.31 72.158 0.319 7.59 6.63 7.53
8/14/2023 12:00:00 AM 22.25 72.05 0.32 7.57 6.35 7.46
8/14/2023 12:15:00 AM 22.19 71.942 0.32 7.56 6.47 7.42
8/14/2023 12:30:00 AM 22.15 71.87 0.32 7.55 8.52 7.37
8/14/2023 12:45:00 AM 22.09 71.762 0.321 7.54 6.48 7.33
8/14/2023 1:00:00 AM 22.05 71.69 0.321 7.54 6.57 7.31
8/14/2023 1:15:00 AM 22 71.6 0.321 7.53 6.59 7.27
8/14/2023 1:30:00 AM 21.95 71.51 0.322 7.52 6.39 7.21
8/14/2023 1:45:00 AM 21.9 71.42 0.322 7.52 6.27 7.2
8/14/2023 2:00:00 AM 21.86 71.348 0.323 7.51 5.8 7.17
8/14/2023 2:15:00 AM 21.82 71.276 0.323 7.5 6.1 7.13
8/14/2023 2:30:00 AM 21.78 71.204 0.323 7.5 6.05 7.11
8/14/2023 2:45:00 AM 21.74 71.132 0.324 7.5 5.92 7.1
8/14/2023 3:00:00 AM 21.69 71.042 0.325 7.49 6.05 7.06
8/14/2023 3:15:00 AM 21.65 70.97 0.325 7.49 6.3 7.04
8/14/2023 3:30:00 AM 21.62 70.916 0.327 7.49 7.16 7.02
8/14/2023 3:45:00 AM 21.59 70.862 0.326 7.47 6.36 7
8/14/2023 4:00:00 AM 21.56 70.808 0.328 7.48 6.3 6.98
8/14/2023 4:15:00 AM 21.53 70.754 0.328 7.48 6.77 6.95
8/14/2023 4:30:00 AM 21.5 70.7 0.329 7.47 5.96 6.93
8/14/2023 4:45:00 AM 21.47 70.646 0.33 7.47 6.45 6.91
8/14/2023 5:00:00 AM 21.44 70.592 0.33 7.46 6.59 6.89
8/14/2023 5:15:00 AM 21.41 70.538 0.331 7.46 6.83 6.86
8/14/2023 5:30:00 AM 21.39 70.502 0.331 7.46 6.72 6.84
8/14/2023 5:45:00 AM 21.36 70.448 0.332 7.46 6.5 6.8
8/14/2023 6:00:00 AM 21.34 70.412 0.333 7.46 6.83 6.81
8/14/2023 6:15:00 AM 21.31 70.358 0.333 7.46 6.72 6.77
8/14/2023 6:30:00 AM 21.29 70.32201 0.334 7.45 6.27 6.77
8/14/2023 6:45:00 AM 21.27 70.286 0.335 7.45 6.34 6.74
8/14/2023 7:00:00 AM 21.25 70.25 0.335 7.45 5.79 6.74
8/14/2023 7:15:00 AM 21.26 70.268 0.336 7.45 6.21 6.8
8/14/2023 7:30:00 AM 21.27 70.286 0.336 7.45 5.65 6.84
8/14/2023 7:45:00 AM 21.26 70.268 0.337 7.47 5.7 6.87
8/14/2023 8:00:00 AM 21.26 70.268 0.337 7.47 5.65 6.91
8/14/2023 8:15:00 AM 21.26 70.268 0.338 7.42 5.72 6.95
8/14/2023 8:30:00 AM 21.26 70.268 0.338 7.49 5.6 7.01
8/14/2023 8:45:00 AM 21.27 70.286 0.339 7.5 5.71 7.09
8/14/2023 9:00:00 AM 21.32 70.376 0.339 7.51 5.54 7.16
8/14/2023 9:15:00 AM 21.4 70.52 0.34 7.54 5.57 7.33
8/14/2023 9:30:00 AM 21.47 70.646 0.34 7.56 5.64 7.49
8/14/2023 9:45:00 AM 21.56 70.808 0.341 7.58 5.56 7.64
8/14/2023 10:00:00 AM 21.66 70.988 0.341 7.61 5.36 7.83
8/14/2023 10:15:00 AM 21.76 71.168 0.341 7.64 5.08 7.98
8/14/2023 10:30:00 AM 21.87 71.366 0.341 7.63 5.09 8.16
8/14/2023 10:45:00 AM 22.02 71.636 0.342 7.71 5.28 8.37
8/14/2023 11:00:00 AM 22.15 71.87 0.342 7.73 5.31 8.53
8/14/2023 11:15:00 AM 22.29 72.122 0.342 7.77 5.39 8.7
8/14/2023 11:30:00 AM 22.44 72.392 0.342 7.8 5.14 8.84
8/14/2023 11:45:00 AM 22.58 72.644 0.342 7.84 4.91 9.03
8/14/2023 12:00:00 PM 22.7 72.86 0.343 7.88 5.23 9.16
8/14/2023 12:15:00 PM 22.79 73.022 0.343 7.91 4.71 9.26
8/14/2023 12:30:00 PM 22.84 73.112 0.343 7.93 4.8 9.36
8/14/2023 12:45:00 PM 22.92 73.256 0.343 7.95 4.84 9.42
8/14/2023 1:00:00 PM 22.99 73.382 0.343 7.97 4.9 9.5
8/14/2023 1:15:00 PM 23.09 73.562 0.343 7.99 5.06 9.59
8/14/2023 1:30:00 PM 23.26 73.868 0.343 8.03 4.96 9.72
8/14/2023 1:45:00 PM 23.39 74.102 0.343 8.06 4.67 9.79
8/14/2023 2:00:00 PM 23.55 74.39 0.342 8.1 4.46 9.92
8/14/2023 2:15:00 PM 23.69 74.642 0.342 8.13 4.67 10.04
8/14/2023 2:30:00 PM 23.79 74.82201 0.342 8.15 4.69 10.09
8/14/2023 2:45:00 PM 23.93 75.074 0.342 8.18 4.25 10.2
8/14/2023 3:00:00 PM 24.03 75.254 0.342 8.21 4.29 10.24
8/14/2023 3:15:00 PM 24.13 75.434 0.342 8.22 4.67 10.26
8/14/2023 3:30:00 PM 24.24 75.632 0.342 8.25 4.55 10.34
8/14/2023 3:45:00 PM 24.35 75.83 0.342 8.27 4.4 10.41
8/14/2023 4:00:00 PM 24.42 75.956 0.341 8.29 4.66 10.45
8/14/2023 4:15:00 PM 24.45 76.01 0.341 8.3 4.32 10.46
8/14/2023 4:30:00 PM 24.47 76.046 0.341 8.3 4.71 10.45
8/14/2023 4:45:00 PM 24.47 76.046 0.341 8.28 5.36 10.31
8/14/2023 5:00:00 PM 24.49 76.082 0.341 8.29 4.58 10.26
8/14/2023 5:15:00 PM 24.49 76.082 0.341 8.27 4.55 10.15
8/14/2023 5:30:00 PM 24.49 76.082 0.341 8.27 4.6 10.06
8/14/2023 5:45:00 PM 24.47 76.046 0.341 8.25 4.57 9.95
8/14/2023 6:00:00 PM 24.44 75.992 0.34 8.24 4.82 9.85
8/14/2023 6:15:00 PM 24.4 75.92 0.34 8.22 4.88 9.73
8/14/2023 6:30:00 PM 24.36 75.848 0.34 8.2 4.59 9.61
8/14/2023 6:45:00 PM 24.32 75.776 0.34 8.18 4.55 9.51
8/14/2023 7:00:00 PM 24.27 75.686 0.34 8.15 4.98 9.39
8/14/2023 7:15:00 PM 24.22 75.596 0.34 8.14 4.66 9.27
8/14/2023 7:30:00 PM 24.16 75.488 0.34 8.09 4.79 9.14
8/14/2023 7:45:00 PM 24.11 75.398 0.339 8.08 4.91 9.02
8/14/2023 8:00:00 PM 24.05 75.29 0.339 8.05 4.74 8.89
8/14/2023 8:15:00 PM 23.99 75.182 0.339 8.02 4.73 8.75
8/14/2023 8:30:00 PM 23.93 75.074 0.339 7.99 6.94 8.6
8/14/2023 8:45:00 PM 23.88 74.984 0.338 7.96 5.43 8.48
8/14/2023 9:00:00 PM 23.82 74.876 0.338 7.93 5.26 8.36
8/14/2023 9:15:00 PM 23.77 74.786 0.338 7.9 5.34 8.21
8/14/2023 9:30:00 PM 23.72 74.696 0.337 7.88 5.77 8.14
8/14/2023 9:45:00 PM 23.67 74.606 0.337 7.85 5.35 8.01
8/14/2023 10:00:00 PM 23.62 74.516 0.336 7.82 5.61 7.9
8/14/2023 10:15:00 PM 23.58 74.444 0.336 7.81 5.26 7.81
8/14/2023 10:30:00 PM 23.54 74.372 0.336 7.76 4.84 7.74
8/14/2023 10:45:00 PM 23.49 74.282 0.335 7.77 5.18 7.64
8/14/2023 11:00:00 PM 23.44 74.192 0.335 7.75 5.54 7.57
8/14/2023 11:15:00 PM 23.38 74.084 0.334 7.73 5.84 7.52
8/14/2023 11:30:00 PM 23.32 73.976 0.333 7.71 6.11 7.46
8/14/2023 11:45:00 PM 23.25 73.85 0.332 7.7 6.75 7.43
8/15/2023 12:00:00 AM 23.19 73.742 0.332 7.68 5.89 7.37
8/15/2023 12:15:00 AM 23.12 73.616 0.331 7.67 7.11 7.33
8/15/2023 12:30:00 AM 23.03 73.454 0.331 7.66 12.02 7.3
8/15/2023 12:45:00 AM 22.94 73.292 0.33 7.65 24.23 7.27
8/15/2023 1:00:00 AM 22.78 73.004 0.329 7.63 44.83 7.23
8/15/2023 1:15:00 AM 22.55 72.59 0.326 7.61 49.29 7.23
8/15/2023 1:30:00 AM 22.29 72.122 0.322 7.59 42.53 7.26
8/15/2023 1:45:00 AM 22.03 71.654 0.318 7.58 48.08 7.29
8/15/2023 2:00:00 AM 21.87 71.366 0.314 7.57 56.38 7.36
8/15/2023 2:15:00 AM 21.74 71.132 0.311 7.55 65.27 7.33
8/15/2023 2:30:00 AM 21.68 71.024 0.309 7.54 75.31 7.33
8/15/2023 2:45:00 AM 21.62 70.916 0.306 7.53 69.77 7.3
8/15/2023 3:00:00 AM 21.51 70.718 0.303 7.52 81.38 7.35
8/15/2023 3:15:00 AM 21.42 70.556 0.301 7.51 78.35 7.33
8/15/2023 3:30:00 AM 21.38 70.484 0.3 7.5 70.14 7.32
8/15/2023 3:45:00 AM 21.38 70.484 0.3 7.49 61.12 7.28
8/15/2023 4:00:00 AM 21.38 70.484 0.301 7.43 50.82 7.26
8/15/2023 4:15:00 AM 21.37 70.466 0.301 7.48 56.08 7.21
8/15/2023 4:30:00 AM 21.34 70.412 0.302 7.47 60.59 7.2
8/15/2023 4:45:00 AM 21.27 70.286 0.302 7.46 70.3 7.2
8/15/2023 5:00:00 AM 21.17 70.106 0.3 7.45 94.09 7.22
8/15/2023 5:15:00 AM 21.06 69.908 0.297 7.46 120.53 7.27
8/15/2023 5:30:00 AM 20.94 69.692 0.294 7.45 79.82 7.29
8/15/2023 5:45:00 AM 20.82 69.476 0.29 7.44 104.06 7.32
8/15/2023 6:00:00 AM 20.76 69.368 0.288 7.44 103.68 7.32
8/15/2023 6:15:00 AM 20.73 69.314 0.288 7.43 117.4 7.3
8/15/2023 6:30:00 AM 20.69 69.242 0.288 7.43 88.54 7.3
8/15/2023 6:45:00 AM 20.66 69.188 0.289 7.43 73.69 7.33
8/15/2023 7:00:00 AM 20.65 69.17 0.29 7.43 57.08 7.29
8/15/2023 7:15:00 AM 20.63 69.134 0.291 7.43 54.1 7.3
8/15/2023 7:30:00 AM 20.59 69.062 0.291 7.44 45.57 7.3
8/15/2023 7:45:00 AM 20.57 69.026 0.291 7.44 44.55 7.3
8/15/2023 8:00:00 AM 20.6 69.08 0.292 7.44 42.65 7.29
8/15/2023 8:15:00 AM 20.62 69.116 0.293 7.45 35.31 7.33
8/15/2023 8:30:00 AM 20.64 69.152 0.293 7.47 29.89 7.36
8/15/2023 8:45:00 AM 20.7 69.26 0.294 7.48 27.5 7.39
8/15/2023 9:00:00 AM 20.77 69.386 0.296 7.5 28.25 7.44
8/15/2023 9:15:00 AM 20.87 69.566 0.299 7.52 28.08 7.48
8/15/2023 9:30:00 AM 20.97 69.746 0.303 7.54 28.81 7.52
8/15/2023 9:45:00 AM 21.09 69.962 0.308 7.56 28.43 7.52
8/15/2023 10:00:00 AM 21.23 70.214 0.313 7.57 21.76 7.47
8/15/2023 10:15:00 AM 21.35 70.43 0.317 7.6 25.49 7.46
8/15/2023 10:30:00 AM 21.44 70.592 0.32 7.61 20.15 7.44
8/15/2023 10:45:00 AM 21.49 70.682 0.321 7.62 25.16 7.44
8/15/2023 11:00:00 AM 21.5 70.7 0.32 7.62 24.11 7.42
8/15/2023 11:15:00 AM 21.49 70.682 0.318 7.62 23.14 7.42
8/15/2023 11:30:00 AM 21.46 70.628 0.316 7.61 23.7 7.39
8/15/2023 11:45:00 AM 21.42 70.556 0.312 7.61 24.72 7.38
8/15/2023 12:00:00 PM 21.37 70.466 0.309 7.59 26.53 7.38
8/15/2023 12:15:00 PM 21.31 70.358 0.304 7.58 33.28 7.36
8/15/2023 12:30:00 PM 21.26 70.268 0.3 7.57 28.34 7.36
8/15/2023 12:45:00 PM 21.21 70.17799 0.296 7.56 37.49 7.39
8/15/2023 1:00:00 PM 21.16 70.088 0.293 7.55 28.39 7.39
8/15/2023 1:15:00 PM 21.12 70.016 0.29 7.54 35.74 7.39
8/15/2023 1:30:00 PM 21.06 69.908 0.287 7.53 37 7.4
8/15/2023 1:45:00 PM 21 69.8 0.284 7.52 35.78 7.4
8/15/2023 2:00:00 PM 20.95 69.71 0.282 7.51 36.27 7.41
8/15/2023 2:15:00 PM 20.88 69.584 0.28 7.51 32.25 7.41
8/15/2023 2:30:00 PM 20.82 69.476 0.278 7.49 38.83 7.42
8/15/2023 2:45:00 PM 20.76 69.368 0.276 7.49 38.87 7.44
8/15/2023 3:00:00 PM 20.71 69.278 0.274 7.48 35.53 7.46
8/15/2023 3:15:00 PM 20.65 69.17 0.271 7.48 38.62 7.46
8/15/2023 3:30:00 PM 20.6 69.08 0.268 7.47 38.04 7.47
8/15/2023 3:45:00 PM 20.56 69.008 0.265 7.46 41.82 7.48
8/15/2023 4:00:00 PM 20.52 68.936 0.261 7.46 43.1 7.5
8/15/2023 4:15:00 PM 20.47 68.846 0.256 7.45 41.76 7.51
8/15/2023 4:30:00 PM 20.43 68.774 0.252 7.45 42.7 7.53
8/15/2023 4:45:00 PM 20.38 68.684 0.248 7.44 44.87 7.53
8/15/2023 5:00:00 PM 20.34 68.612 0.244 7.44 43.88 7.54
8/15/2023 5:15:00 PM 20.32 68.576 0.24 7.43 44.5 7.55
8/15/2023 5:30:00 PM 20.32 68.576 0.236 7.43 48.15 7.57
8/15/2023 5:45:00 PM 20.29 68.522 0.233 7.43 49.51 7.58
8/15/2023 6:00:00 PM 20.27 68.486 0.231 7.43 48.39 7.59
8/15/2023 6:15:00 PM 20.25 68.45 0.229 7.43 46.97 7.59
8/15/2023 6:30:00 PM 20.25 68.45 0.227 7.43 46.69 7.6
8/15/2023 6:45:00 PM 20.25 68.45 0.227 7.43 47.27 7.6
8/15/2023 7:00:00 PM 20.26 68.468 0.226 7.44 49.47 7.61
8/15/2023 7:15:00 PM 20.26 68.468 0.227 7.44 45.76 7.61
8/15/2023 7:30:00 PM 20.26 68.468 0.228 7.44 55.85 7.61
8/15/2023 7:45:00 PM 20.25 68.45 0.229 7.45 45.21 7.6
8/15/2023 8:00:00 PM 20.24 68.432 0.231 7.44 46.93 7.6
8/15/2023 8:15:00 PM 20.23 68.414 0.232 7.45 44.63 7.59
8/15/2023 8:30:00 PM 20.22 68.396 0.234 7.45 45.59 7.58
8/15/2023 8:45:00 PM 20.21 68.378 0.235 7.45 45.32 7.58
8/15/2023 9:00:00 PM 20.2 68.36 0.236 7.45 45.46 7.58
8/15/2023 9:15:00 PM 20.19 68.342 0.236 7.45 44.87 7.57
8/15/2023 9:30:00 PM 20.19 68.342 0.235 7.45 51.57 7.58
8/15/2023 9:45:00 PM 20.19 68.342 0.235 7.46 48.05 7.58
8/15/2023 10:00:00 PM 20.18 68.324 0.234 7.46 50.09 7.58
8/15/2023 10:15:00 PM 20.17 68.306 0.232 7.46 51.17 7.59
8/15/2023 10:30:00 PM 20.16 68.288 0.231 7.45 50.52 7.59
8/15/2023 10:45:00 PM 20.13 68.234 0.23 7.45 53.04 7.6
8/15/2023 11:00:00 PM 20.11 68.198 0.229 7.46 55.87 7.62
8/15/2023 11:15:00 PM 20.09 68.162 0.228 7.46 56.85 7.62
8/15/2023 11:30:00 PM 20.06 68.108 0.227 7.46 54.92 7.62
8/15/2023 11:45:00 PM 20.04 68.07201 0.226 7.46 57.89 7.63
8/16/2023 12:00:00 AM 20.02 68.036 0.225 7.45 56.76 7.64
8/16/2023 12:15:00 AM 20.01 68.018 0.224 7.45 57.34 7.64
8/16/2023 12:30:00 AM 20 68 0.224 7.45 56.36 7.66
8/16/2023 12:45:00 AM 19.99 67.982 0.223 7.45 58.33 7.68
8/16/2023 1:00:00 AM 19.98 67.964 0.222 7.45 57.28 7.68
8/16/2023 1:15:00 AM 19.98 67.964 0.221 7.46 58.02 7.69
8/16/2023 1:30:00 AM 19.99 67.982 0.221 7.45 58.89 7.7
8/16/2023 1:45:00 AM 20 68 0.221 7.45 59.16 7.7
8/16/2023 2:00:00 AM 20.03 68.054 0.22 7.46 57.16 7.7
8/16/2023 2:15:00 AM 20.05 68.09 0.219 7.46 61.71 7.7
8/16/2023 2:30:00 AM 20.06 68.108 0.219 7.46 56.39 7.69
8/16/2023 2:45:00 AM 20.08 68.144 0.218 7.46 58.02 7.7
8/16/2023 3:00:00 AM 20.09 68.162 0.218 7.46 57.62 7.69
8/16/2023 3:15:00 AM 20.11 68.198 0.218 7.46 55.77 7.69
8/16/2023 3:30:00 AM 20.12 68.216 0.217 7.46 65.73 7.69
8/16/2023 3:45:00 AM 20.13 68.234 0.216 7.46 70.93 7.69
8/16/2023 4:00:00 AM 20.12 68.216 0.214 7.45 90.49 7.69
8/16/2023 4:15:00 AM 20.1 68.18 0.212 7.45 111.81 7.68
8/16/2023 4:30:00 AM 20.09 68.162 0.211 7.44 137.28 7.69
8/16/2023 4:45:00 AM 20.07 68.126 0.21 7.42 143.76 7.68
8/16/2023 5:00:00 AM 20.05 68.09 0.209 7.42 147.78 7.68
8/16/2023 5:15:00 AM 20.04 68.07201 0.21 7.42 138.04 7.69
8/16/2023 5:30:00 AM 20.03 68.054 0.21 7.42 128.14 7.69
8/16/2023 5:45:00 AM 20.02 68.036 0.211 7.41 114.62 7.68
8/16/2023 6:00:00 AM 20.02 68.036 0.212 7.42 106.27 7.68
8/16/2023 6:15:00 AM 20.01 68.018 0.213 7.42 99.3 7.67
8/16/2023 6:30:00 AM 20.01 68.018 0.214 7.42 92.01 7.65
8/16/2023 6:45:00 AM 20.01 68.018 0.214 7.42 89.34 7.65
8/16/2023 7:00:00 AM 20.01 68.018 0.215 7.42 88.99 7.65
8/16/2023 7:15:00 AM 20 68 0.215 7.42 90.18 7.64
8/16/2023 7:30:00 AM 20.01 68.018 0.216 7.42 100.38 7.64
8/16/2023 7:45:00 AM 20.01 68.018 0.216 7.42 105.86 7.64
8/16/2023 8:00:00 AM 20.01 68.018 0.216 7.42 115.76 7.63
8/16/2023 8:15:00 AM 20.01 68.018 0.216 7.42 123.95 7.63
8/16/2023 8:30:00 AM 20.02 68.036 0.216 7.42 130.33 7.64
8/16/2023 8:45:00 AM 20.04 68.07201 0.216 7.42 133.9 7.64
8/16/2023 9:00:00 AM 20.03 68.054 0.216 7.42 134.89 7.63
8/16/2023 9:15:00 AM 20.03 68.054 0.216 7.42 137.72 7.64
8/16/2023 9:30:00 AM 20.06 68.108 0.217 7.42 140.44 7.64
8/16/2023 9:45:00 AM 20.09 68.162 0.217 7.42 141.87 7.64
8/16/2023 10:00:00 AM 20.13 68.234 0.217 7.42 144.9 7.65
8/16/2023 10:15:00 AM 20.15 68.27 0.217 7.43 140.17 7.65
8/16/2023 10:30:00 AM 20.13 68.234 0.217 7.43 137.08 7.65
8/16/2023 10:45:00 AM 20.12 68.216 0.216 7.43 143.16 7.66
8/16/2023 11:00:00 AM 20.11 68.198 0.215 7.43 147.12 7.66
8/16/2023 11:15:00 AM 20.11 68.198 0.215 7.43 151.1 7.66
8/16/2023 11:30:00 AM 20.12 68.216 0.213 7.43 156.56 7.67
8/16/2023 11:45:00 AM 20.14 68.252 0.212 7.43 156.19 7.67
8/16/2023 12:00:00 PM 20.18 68.324 0.211 7.43 168.68 7.67
8/16/2023 12:15:00 PM 20.24 68.432 0.21 7.42 169.84 7.67
8/16/2023 12:30:00 PM 20.3 68.54 0.208 7.43 173.4 7.67
8/16/2023 12:45:00 PM 20.38 68.684 0.208 7.43 171.3 7.67
8/16/2023 1:00:00 PM 20.42 68.756 0.207 7.42 173.24 7.67
8/16/2023 1:15:00 PM 20.48 68.864 0.207 7.43 172.15 7.67
8/16/2023 1:30:00 PM 20.52 68.936 0.207 7.43 170.34 7.67
8/16/2023 1:45:00 PM 20.57 69.026 0.207 7.43 177.83 7.67
8/16/2023 2:00:00 PM 20.64 69.152 0.207 7.43 168.54 7.67
8/16/2023 2:15:00 PM 20.75 69.35 0.207 7.43 163.66 7.67
8/16/2023 2:30:00 PM 20.83 69.494 0.208 7.43 164.96 7.67
8/16/2023 2:45:00 PM 20.85 69.53 0.208 7.43 155.85 7.67
8/16/2023 3:00:00 PM 20.86 69.548 0.209 7.44 149.72 7.67
8/16/2023 3:15:00 PM 20.87 69.566 0.209 7.43 141.13 7.67
8/16/2023 3:30:00 PM 20.88 69.584 0.21 7.44 142.54 7.67
8/16/2023 3:45:00 PM 20.89 69.602 0.21 7.43 135.22 7.67
8/16/2023 4:00:00 PM 20.95 69.71 0.211 7.44 130.83 7.67
8/16/2023 4:15:00 PM 20.98 69.764 0.212 7.43 125.77 7.68
8/16/2023 4:30:00 PM 21.02 69.836 0.212 7.43 120.3 7.68
8/16/2023 4:45:00 PM 21.03 69.854 0.213 7.44 115.15 7.68
8/16/2023 5:00:00 PM 21.08 69.944 0.214 7.44 106.26 7.68
8/16/2023 5:15:00 PM 21.11 69.998 0.215 7.44 103.98 7.69
8/16/2023 5:30:00 PM 21.14 70.052 0.215 7.44 97.39 7.68
8/16/2023 5:45:00 PM 21.18 70.124 0.216 7.44 93.47 7.69
8/16/2023 6:00:00 PM 21.2 70.16 0.217 7.44 87.64 7.69
8/16/2023 6:15:00 PM 21.22 70.196 0.217 7.44 85.81 7.69
8/16/2023 6:30:00 PM 21.24 70.232 0.218 7.44 82.65 7.68
8/16/2023 6:45:00 PM 21.25 70.25 0.219 7.44 79.68 7.68
8/16/2023 7:00:00 PM 21.26 70.268 0.219 7.44 76.43 7.68
8/16/2023 7:15:00 PM 21.28 70.304 0.22 7.44 75.38 7.67
8/16/2023 7:30:00 PM 21.31 70.358 0.221 7.45 70.03 7.68
8/16/2023 7:45:00 PM 21.33 70.394 0.222 7.44 69.56 7.67
8/16/2023 8:00:00 PM 21.34 70.412 0.223 7.45 68.19 7.66
8/16/2023 8:15:00 PM 21.35 70.43 0.224 7.45 64.59 7.67
8/16/2023 8:30:00 PM 21.34 70.412 0.225 7.45 62.64 7.66
8/16/2023 8:45:00 PM 21.34 70.412 0.226 7.45 58.39 7.66
8/16/2023 9:00:00 PM 21.34 70.412 0.227 7.45 57.57 7.66
8/16/2023 9:15:00 PM 21.34 70.412 0.228 7.43 54.73 7.66
8/16/2023 9:30:00 PM 21.35 70.43 0.229 7.45 54.06 7.65
8/16/2023 9:45:00 PM 21.37 70.466 0.23 7.45 50.88 7.65
8/16/2023 10:00:00 PM 21.38 70.484 0.232 7.46 48.42 7.65
8/16/2023 10:15:00 PM 21.39 70.502 0.233 7.46 46.35 7.65
8/16/2023 10:30:00 PM 21.39 70.502 0.234 7.46 43.26 7.65
8/16/2023 10:45:00 PM 21.39 70.502 0.235 7.45 42.53 7.65
8/16/2023 11:00:00 PM 21.39 70.502 0.236 7.46 34.21 7.64
8/16/2023 11:15:00 PM 21.39 70.502 0.238 7.47 39.31 7.64
8/16/2023 11:30:00 PM 21.39 70.502 0.239 7.47 37.4 7.64
8/16/2023 11:45:00 PM 21.4 70.52 0.24 7.47 36.52 7.64
8/17/2023 12:00:00 AM 21.39 70.502 0.241 7.47 35.11 7.64
8/17/2023 12:15:00 AM 21.38 70.484 0.242 7.48 34.4 7.64
8/17/2023 12:30:00 AM 21.37 70.466 0.243 7.48 32.27 7.63
8/17/2023 12:45:00 AM 21.36 70.448 0.244 7.48 32.96 7.64
8/17/2023 1:00:00 AM 21.35 70.43 0.245 7.49 32.66 7.64
8/17/2023 1:15:00 AM 21.33 70.394 0.246 7.48 30.48 7.64
8/17/2023 1:30:00 AM 21.32 70.376 0.246 7.49 30.77 7.63
8/17/2023 1:45:00 AM 21.3 70.34 0.247 7.48 28.01 7.63
8/17/2023 2:00:00 AM 21.29 70.32201 0.248 7.49 27.6 7.63
8/17/2023 2:15:00 AM 21.27 70.286 0.249 7.48 28.06 7.63
8/17/2023 2:30:00 AM 21.24 70.232 0.249 7.49 25.54 7.62
8/17/2023 2:45:00 AM 21.23 70.214 0.25 7.48 27.16 7.62
8/17/2023 3:00:00 AM 21.21 70.17799 0.25 7.49 24.38 7.62
8/17/2023 3:15:00 AM 21.2 70.16 0.25 7.49 24.54 7.61
8/17/2023 3:30:00 AM 21.18 70.124 0.251 7.49 23.98 7.61
8/17/2023 3:45:00 AM 21.16 70.088 0.251 7.49 23.53 7.6
8/17/2023 4:00:00 AM 21.14 70.052 0.251 7.49 23.81 7.6
8/17/2023 4:15:00 AM 21.13 70.034 0.251 7.49 22.92 7.59
8/17/2023 4:30:00 AM 21.11 69.998 0.252 7.49 23.77 7.59
8/17/2023 4:45:00 AM 21.1 69.98 0.252 7.49 22.95 7.58
8/17/2023 5:00:00 AM 21.09 69.962 0.252 7.49 22.79 7.58
8/17/2023 5:15:00 AM 21.07 69.926 0.252 7.49 22.77 7.57
8/17/2023 5:30:00 AM 21.05 69.89 0.252 7.49 21.25 7.56
8/17/2023 5:45:00 AM 21.04 69.872 0.252 7.49 20.92 7.55
8/17/2023 6:00:00 AM 21.03 69.854 0.252 7.48 20.59 7.55
8/17/2023 6:15:00 AM 21.01 69.818 0.253 7.48 25.11 7.54
8/17/2023 6:30:00 AM 21 69.8 0.253 7.49 22.19 7.53
8/17/2023 6:45:00 AM 20.99 69.782 0.253 7.48 22.76 7.53
8/17/2023 7:00:00 AM 20.97 69.746 0.253 7.48 21.27 7.53
8/17/2023 7:15:00 AM 20.96 69.728 0.253 7.49 21.55 7.53
8/17/2023 7:30:00 AM 20.96 69.728 0.253 7.49 20.5 7.54
8/17/2023 7:45:00 AM 20.96 69.728 0.253 7.49 19.4 7.54
8/17/2023 8:00:00 AM 20.96 69.728 0.254 7.49 19.73 7.55
8/17/2023 8:15:00 AM 20.98 69.764 0.254 7.5 21.15 7.57
8/17/2023 8:30:00 AM 21.01 69.818 0.254 7.48 20.55 7.59
8/17/2023 8:45:00 AM 21.02 69.836 0.255 7.51 19.03 7.6
8/17/2023 9:00:00 AM 21.05 69.89 0.255 7.51 18.74 7.6
8/17/2023 9:15:00 AM 21.06 69.908 0.255 7.51 18.24 7.64
8/17/2023 9:30:00 AM 21.11 69.998 0.256 7.52 18.94 7.66
8/17/2023 9:45:00 AM 21.19 70.142 0.256 7.53 17.57 7.7
8/17/2023 10:00:00 AM 21.26 70.268 0.256 7.54 17.47 7.74
8/17/2023 10:15:00 AM 21.33 70.394 0.257 7.54 18.3 7.78
8/17/2023 10:30:00 AM 21.38 70.484 0.257 7.55 17.61 7.8
8/17/2023 10:45:00 AM 21.42 70.556 0.258 7.55 17.23 7.82
8/17/2023 11:00:00 AM 21.46 70.628 0.258 7.56 17.05 7.84
8/17/2023 11:15:00 AM 21.51 70.718 0.259 7.56 17.87 7.86
8/17/2023 11:30:00 AM 21.57 70.826 0.259 7.57 17.8 7.87
8/17/2023 11:45:00 AM 21.61 70.898 0.259 7.57 17.67 7.89
8/17/2023 12:00:00 PM 21.65 70.97 0.259 7.57 19.46 7.89
8/17/2023 12:15:00 PM 21.7 71.06 0.259 7.58 19.66 7.91
8/17/2023 12:30:00 PM 21.75 71.15 0.26 7.57 20.58 7.91
8/17/2023 12:45:00 PM 21.8 71.24 0.26 7.59 21.68 7.91
8/17/2023 1:00:00 PM 21.87 71.366 0.26 7.58 23.49 7.92
8/17/2023 1:15:00 PM 21.96 71.528 0.26 7.59 23.54 7.91
8/17/2023 1:30:00 PM 22.05 71.69 0.26 7.58 25.67 7.91
8/17/2023 1:45:00 PM 22.13 71.834 0.26 7.58 27.45 7.89
8/17/2023 2:00:00 PM 22.17 71.906 0.26 7.58 29.51 7.87
8/17/2023 2:15:00 PM 22.21 71.978 0.26 7.58 31.77 7.84
8/17/2023 2:30:00 PM 22.26 72.068 0.26 7.58 41.02 7.82
8/17/2023 2:45:00 PM 22.28 72.104 0.26 7.57 35.78 7.78
8/17/2023 3:00:00 PM 22.34 72.212 0.26 7.56 38.68 7.75
8/17/2023 3:15:00 PM 22.39 72.302 0.259 7.56 43.18 7.72
8/17/2023 3:30:00 PM 22.39 72.302 0.259 7.55 41.61 7.69
8/17/2023 3:45:00 PM 22.38 72.284 0.259 7.5 46.13 7.65
8/17/2023 4:00:00 PM 22.38 72.284 0.259 7.55 47.06 7.63
8/17/2023 4:15:00 PM 22.39 72.302 0.259 7.54 50.46 7.6
8/17/2023 4:30:00 PM 22.38 72.284 0.259 7.53 52.93 7.58
8/17/2023 4:45:00 PM 22.38 72.284 0.259 7.53 50.19 7.56
8/17/2023 5:00:00 PM 22.38 72.284 0.259 7.53 57.31 7.54
8/17/2023 5:15:00 PM 22.38 72.284 0.258 7.52 58.21 7.52
8/17/2023 5:30:00 PM 22.38 72.284 0.258 7.52 61.64 7.51
8/17/2023 5:45:00 PM 22.38 72.284 0.258 7.52 63.23 7.49
8/17/2023 6:00:00 PM 22.36 72.248 0.258 7.51 64.03 7.47
8/17/2023 6:15:00 PM 22.35 72.23 0.258 7.51 65.28 7.46
8/17/2023 6:30:00 PM 22.34 72.212 0.258 7.5 61.87 7.44
8/17/2023 6:45:00 PM 22.33 72.194 0.258 7.5 73.98 7.43
8/17/2023 7:00:00 PM 22.31 72.158 0.258 7.48 63.93 7.41
8/17/2023 7:15:00 PM 22.29 72.122 0.258 7.5 67.75 7.4
8/17/2023 7:30:00 PM 22.27 72.086 0.259 7.42 63.17 7.39
8/17/2023 7:45:00 PM 22.24 72.032 0.259 7.49 66.24 7.37
8/17/2023 8:00:00 PM 22.21 71.978 0.259 7.48 66.75 7.37
8/17/2023 8:15:00 PM 22.19 71.942 0.259 7.48 66.11 7.36
8/17/2023 8:30:00 PM 22.15 71.87 0.258 7.48 63.36 7.38
8/17/2023 8:45:00 PM 22.11 71.798 0.257 7.47 65.06 7.4
8/17/2023 9:00:00 PM 22.07 71.726 0.256 7.49 63.08 7.41
8/17/2023 9:15:00 PM 22.01 71.618 0.256 7.49 62.47 7.42
8/17/2023 9:30:00 PM 21.92 71.456 0.257 7.49 84.96 7.43
8/17/2023 9:45:00 PM 21.87 71.366 0.257 7.49 129.41 7.43
8/17/2023 10:00:00 PM 21.83 71.294 0.257 7.48 96.17 7.42
8/17/2023 10:15:00 PM 21.8 71.24 0.258 7.48 80.24 7.39
8/17/2023 10:30:00 PM 21.76 71.168 0.258 7.47 71.76 7.38
8/17/2023 10:45:00 PM 21.72 71.096 0.259 7.47 65.23 7.38
8/17/2023 11:00:00 PM 21.7 71.06 0.259 7.46 59.44 7.36
8/17/2023 11:15:00 PM 21.68 71.024 0.259 7.46 57.86 7.37
8/17/2023 11:30:00 PM 21.67 71.006 0.26 7.46 51.56 7.36
8/17/2023 11:45:00 PM 21.65 70.97 0.26 7.46 52.78 7.36
8/18/2023 12:00:00 AM 21.65 70.97 0.26 7.36 49.02 7.35
8/18/2023 12:15:00 AM 21.64 70.952 0.26 7.39 49.38 7.34
8/18/2023 12:30:00 AM 21.63 70.934 0.261 7.46 46.38 7.33
8/18/2023 12:45:00 AM 21.63 70.934 0.261 7.46 44.39 7.33
8/18/2023 1:00:00 AM 21.62 70.916 0.261 7.43 45 7.32
8/18/2023 1:15:00 AM 21.61 70.898 0.261 7.45 44.51 7.32
8/18/2023 1:30:00 AM 21.6 70.88 0.262 7.45 44.99 7.32
8/18/2023 1:45:00 AM 21.59 70.862 0.262 7.45 46.47 7.3
8/18/2023 2:00:00 AM 21.59 70.862 0.262 7.33 43.8 7.31
8/18/2023 2:15:00 AM 21.57 70.826 0.262 7.44 40.94 7.3
8/18/2023 2:30:00 AM 21.56 70.808 0.262 7.43 40.83 7.3
8/18/2023 2:45:00 AM 21.54 70.772 0.263 7.45 42.24 7.29
8/18/2023 3:00:00 AM 21.52 70.736 0.263 7.45 39.41 7.29
8/18/2023 3:15:00 AM 21.51 70.718 0.263 7.45 41.13 7.29
8/18/2023 3:30:00 AM 21.49 70.682 0.263 7.45 39.99 7.29
8/18/2023 3:45:00 AM 21.47 70.646 0.263 7.45 37.97 7.28
8/18/2023 4:00:00 AM 21.44 70.592 0.264 7.45 38.61 7.28
8/18/2023 4:15:00 AM 21.41 70.538 0.264 7.46 40.91 7.27
8/18/2023 4:30:00 AM 21.39 70.502 0.264 7.42 37.94 7.27
8/18/2023 4:45:00 AM 21.36 70.448 0.264 7.45 39.85 7.27
8/18/2023 5:00:00 AM 21.33 70.394 0.264 7.45 38.42 7.26
8/18/2023 5:15:00 AM 21.3 70.34 0.264 7.45 36.87 7.26
8/18/2023 5:30:00 AM 21.27 70.286 0.265 7.46 37.19 7.25
8/18/2023 5:45:00 AM 21.25 70.25 0.265 7.45 36.31 7.25
8/18/2023 6:00:00 AM 21.21 70.17799 0.265 7.45 37.14 7.25
8/18/2023 6:15:00 AM 21.18 70.124 0.265 7.45 37.73 7.24
8/18/2023 6:30:00 AM 21.14 70.052 0.265 7.45 35.79 7.25
8/18/2023 6:45:00 AM 21.11 69.998 0.266 7.45 37.88 7.25
8/18/2023 7:00:00 AM 21.07 69.926 0.266 7.45 34.64 7.24
8/18/2023 7:15:00 AM 21.06 69.908 0.266 7.46 34.65 7.25
8/18/2023 7:30:00 AM 21.05 69.89 0.266 7.46 35.22 7.26
8/18/2023 7:45:00 AM 21.04 69.872 0.266 7.46 33.87 7.28
8/18/2023 8:00:00 AM 21.05 69.89 0.267 7.45 32.77 7.3
8/18/2023 8:15:00 AM 21.06 69.908 0.267 7.47 31.99 7.32
8/18/2023 8:30:00 AM 21.06 69.908 0.267 7.31 33.87 7.33
8/18/2023 8:45:00 AM 21.11 69.998 0.268 7.48 31.76 7.38
8/18/2023 9:00:00 AM 21.14 70.052 0.268 7.48 29.82 7.4
8/18/2023 9:15:00 AM 21.14 70.052 0.268 7.48 29.25 7.42
8/18/2023 9:30:00 AM 21.19 70.142 0.269 7.44 34.15 7.46
8/18/2023 9:45:00 AM 21.22 70.196 0.269 7.48 28.71 7.5
8/18/2023 10:00:00 AM 21.26 70.268 0.269 7.5 30.98 7.54
8/18/2023 10:15:00 AM 21.33 70.394 0.269 7.51 30.19 7.6
8/18/2023 10:30:00 AM 21.39 70.502 0.27 7.52 30.05 7.64
8/18/2023 10:45:00 AM 21.47 70.646 0.27 7.54 27.82 7.71
8/18/2023 11:00:00 AM 21.56 70.808 0.27 7.55 28.24 7.77
8/18/2023 11:15:00 AM 21.6 70.88 0.271 7.56 30.41 7.79
8/18/2023 11:30:00 AM 21.69 71.042 0.271 7.57 27.11 7.86
8/18/2023 11:45:00 AM 21.76 71.168 0.271 7.59 28.58 7.92
8/18/2023 12:00:00 PM 21.83 71.294 0.272 7.59 25.78 7.95
8/18/2023 12:15:00 PM 21.91 71.438 0.272 7.61 24.51 8
8/18/2023 12:30:00 PM 21.96 71.528 0.272 7.62 27.89 8.03
8/18/2023 12:45:00 PM 21.99 71.582 0.273 7.61 26.3 8.05
8/18/2023 1:00:00 PM 22.03 71.654 0.273 7.61 26.16 8.07
8/18/2023 1:15:00 PM 22.01 71.618 0.274 7.63 26.71 8.08
8/18/2023 1:30:00 PM 22.04 71.672 0.274 7.63 25.8 8.09
8/18/2023 1:45:00 PM 22.05 71.69 0.274 7.63 24.7 8.11
8/18/2023 2:00:00 PM 22.05 71.69 0.275 7.65 25.81 8.13
8/18/2023 2:15:00 PM 22.01 71.618 0.275 7.63 24.36 8.13
8/18/2023 2:30:00 PM 21.99 71.582 0.276 7.65 25.71 8.12
8/18/2023 2:45:00 PM 21.96 71.528 0.276 7.65 24.69 8.12
8/18/2023 3:00:00 PM 21.95 71.51 0.277 7.65 27 8.12
8/18/2023 3:15:00 PM 21.9 71.42 0.277 7.65 25.58 8.11
8/18/2023 3:30:00 PM 21.89 71.402 0.278 7.65 23.47 8.12
8/18/2023 3:45:00 PM 21.84 71.312 0.278 7.65 24.3 8.12
8/18/2023 4:00:00 PM 21.78 71.204 0.278 7.64 21.38 8.09
8/18/2023 4:15:00 PM 21.74 71.132 0.279 7.64 23.21 8.09
8/18/2023 4:30:00 PM 21.71 71.078 0.279 7.64 22.68 8.11
8/18/2023 4:45:00 PM 21.68 71.024 0.28 7.64 21.55 8.1
8/18/2023 5:00:00 PM 21.64 70.952 0.28 7.64 20.44 8.09
8/18/2023 5:15:00 PM 21.61 70.898 0.281 7.64 20.84 8.09
8/18/2023 5:30:00 PM 21.61 70.898 0.281 7.65 21.3 8.12
8/18/2023 5:45:00 PM 21.59 70.862 0.282 7.65 21.15 8.13
8/18/2023 6:00:00 PM 21.55 70.79 0.282 7.65 21.07 8.13
8/18/2023 6:15:00 PM 21.51 70.718 0.282 7.53 20.08 8.13
8/18/2023 6:30:00 PM 21.46 70.628 0.283 7.64 20.94 8.11
8/18/2023 6:45:00 PM 21.41 70.538 0.283 7.65 19.6 8.09
8/18/2023 7:00:00 PM 21.37 70.466 0.284 7.49 18.45 8.08
8/18/2023 7:15:00 PM 21.31 70.358 0.284 7.64 19.35 8.05
8/18/2023 7:30:00 PM 21.25 70.25 0.285 7.63 18.78 8
8/18/2023 7:45:00 PM 21.19 70.142 0.285 7.62 17.89 7.98
8/18/2023 8:00:00 PM 21.13 70.034 0.286 7.61 18.41 7.95
8/18/2023 8:15:00 PM 21.07 69.926 0.286 7.61 18.66 7.91
8/18/2023 8:30:00 PM 21.01 69.818 0.287 7.6 18.08 7.87
8/18/2023 8:45:00 PM 20.95 69.71 0.287 7.59 18.22 7.83
8/18/2023 9:00:00 PM 20.89 69.602 0.287 7.58 18.8 7.8
8/18/2023 9:15:00 PM 20.83 69.494 0.288 7.58 18.12 7.77
8/18/2023 9:30:00 PM 20.78 69.404 0.288 7.57 17.91 7.74
8/18/2023 9:45:00 PM 20.71 69.278 0.289 7.57 17.79 7.71
8/18/2023 10:00:00 PM 20.65 69.17 0.289 7.56 17.77 7.71
8/18/2023 10:15:00 PM 20.6 69.08 0.289 7.55 16.81 7.69
8/18/2023 10:30:00 PM 20.54 68.972 0.29 7.55 16.43 7.67
8/18/2023 10:45:00 PM 20.48 68.864 0.29 7.55 16.63 7.66
8/18/2023 11:00:00 PM 20.42 68.756 0.29 7.54 15.75 7.65
8/18/2023 11:15:00 PM 20.37 68.666 0.291 7.54 16.84 7.65
8/18/2023 11:30:00 PM 20.32 68.576 0.291 7.54 17.3 7.64
8/18/2023 11:45:00 PM 20.26 68.468 0.291 7.54 16.6 7.64
8/19/2023 12:00:00 AM 20.21 68.378 0.292 7.54 16.6 7.64
8/19/2023 12:15:00 AM 20.16 68.288 0.292 7.54 15.69 7.63
8/19/2023 12:30:00 AM 20.11 68.198 0.292 7.53 15.95 7.64
8/19/2023 12:45:00 AM 20.07 68.126 0.292 7.4 15.7 7.64
8/19/2023 1:00:00 AM 20.03 68.054 0.293 7.54 15.12 7.64
8/19/2023 1:15:00 AM 19.98 67.964 0.293 7.54 15.43 7.65
8/19/2023 1:30:00 AM 19.95 67.91 0.293 7.54 14.97 7.65
8/19/2023 1:45:00 AM 19.91 67.838 0.293 7.55 14.89 7.66
8/19/2023 2:00:00 AM 19.89 67.802 0.294 7.55 16.57 7.65
8/19/2023 2:15:00 AM 19.86 67.748 0.294 7.55 15.21 7.66
8/19/2023 2:30:00 AM 19.84 67.712 0.294 7.54 16.08 7.67
8/19/2023 2:45:00 AM 19.81 67.658 0.295 7.55 16.17 7.68
8/19/2023 3:00:00 AM 19.79 67.622 0.295 7.56 15.63 7.68
8/19/2023 3:15:00 AM 19.76 67.568 0.295 7.56 15.56 7.69
8/19/2023 3:30:00 AM 19.72 67.496 0.295 7.57 15.3 7.69
8/19/2023 3:45:00 AM 19.69 67.442 0.295 7.57 14.9 7.7
8/19/2023 4:00:00 AM 19.65 67.37 0.296 7.44 14.88 7.7
8/19/2023 4:15:00 AM 19.61 67.298 0.296 7.44 14.8 7.71
8/19/2023 4:30:00 AM 19.56 67.208 0.296 7.58 16.56 7.71
8/19/2023 4:45:00 AM 19.53 67.154 0.296 7.57 14.56 7.72
8/19/2023 5:00:00 AM 19.48 67.064 0.297 7.57 15.37 7.72
8/19/2023 5:15:00 AM 19.44 66.992 0.297 7.57 15.19 7.72
8/19/2023 5:30:00 AM 19.39 66.902 0.297 7.58 16.09 7.73
8/19/2023 5:45:00 AM 19.35 66.83 0.297 7.58 15.82 7.74
8/19/2023 6:00:00 AM 19.31 66.758 0.297 7.58 14.26 7.74
8/19/2023 6:15:00 AM 19.26 66.668 0.298 7.47 15.08 7.75
8/19/2023 6:30:00 AM 19.22 66.596 0.298 7.57 15.33 7.74
8/19/2023 6:45:00 AM 19.18 66.524 0.298 7.58 14.21 7.75
8/19/2023 7:00:00 AM 19.15 66.47 0.298 7.58 15.39 7.76
8/19/2023 7:15:00 AM 19.12 66.416 0.298 7.59 13.91 7.78
8/19/2023 7:30:00 AM 19.1 66.38 0.298 7.59 13.61 7.82
8/19/2023 7:45:00 AM 19.08 66.344 0.298 7.59 13.39 7.84
8/19/2023 8:00:00 AM 19.08 66.344 0.299 7.59 13.57 7.87
8/19/2023 8:15:00 AM 19.09 66.362 0.299 7.6 14.39 7.93
8/19/2023 8:30:00 AM 19.11 66.398 0.299 7.62 13.26 7.99
8/19/2023 8:45:00 AM 19.15 66.47 0.299 7.63 14.13 8.05
8/19/2023 9:00:00 AM 19.19 66.542 0.299 7.65 13.94 8.12
8/19/2023 9:15:00 AM 19.23 66.614 0.299 7.66 12.97 8.19
8/19/2023 9:30:00 AM 19.29 66.722 0.299 7.68 13.21 8.27
8/19/2023 9:45:00 AM 19.37 66.866 0.298 7.69 14.33 8.35
8/19/2023 10:00:00 AM 19.45 67.01 0.298 7.71 13.89 8.42
8/19/2023 10:15:00 AM 19.56 67.208 0.298 7.74 12.85 8.5
8/19/2023 10:30:00 AM 19.66 67.388 0.298 7.74 13.27 8.57
8/19/2023 10:45:00 AM 19.78 67.604 0.298 7.76 13.18 8.65
8/19/2023 11:00:00 AM 19.9 67.82 0.298 7.79 12.57 8.72
8/19/2023 11:15:00 AM 20.02 68.036 0.298 7.81 12.96 8.8
8/19/2023 11:30:00 AM 20.12 68.216 0.297 7.82 13.31 8.86
8/19/2023 11:45:00 AM 20.25 68.45 0.297 7.84 13.15 8.93
8/19/2023 12:00:00 PM 20.37 68.666 0.297 7.74 13.4 8.99
8/19/2023 12:15:00 PM 20.49 68.882 0.297 7.87 13.38 9.04
8/19/2023 12:30:00 PM 20.6 69.08 0.296 7.89 12.17 9.09
8/19/2023 12:45:00 PM 20.71 69.278 0.296 7.9 12.72 9.12
8/19/2023 1:00:00 PM 20.82 69.476 0.296 7.91 12.93 9.17
8/19/2023 1:15:00 PM 20.93 69.674 0.295 7.93 13.12 9.21
8/19/2023 1:30:00 PM 21.03 69.854 0.295 7.94 12.17 9.24
8/19/2023 1:45:00 PM 21.12 70.016 0.295 7.95 12.16 9.27
8/19/2023 2:00:00 PM 21.19 70.142 0.294 7.95 11.1 9.29
8/19/2023 2:15:00 PM 21.27 70.286 0.294 7.97 11 9.3
8/19/2023 2:30:00 PM 21.34 70.412 0.293 7.98 11.4 9.32
8/19/2023 2:45:00 PM 21.41 70.538 0.293 7.98 11.51 9.34
8/19/2023 3:00:00 PM 21.48 70.664 0.293 7.99 11.42 9.34
8/19/2023 3:15:00 PM 21.54 70.772 0.292 7.98 11.3 9.35
8/19/2023 3:30:00 PM 21.58 70.844 0.292 8 11.45 9.36
8/19/2023 3:45:00 PM 21.63 70.934 0.291 8 12.04 9.36
8/19/2023 4:00:00 PM 21.67 71.006 0.291 8.01 11.17 9.35
8/19/2023 4:15:00 PM 21.7 71.06 0.291 8.01 11.07 9.35
8/19/2023 4:30:00 PM 21.72 71.096 0.29 8.01 10.52 9.34
8/19/2023 4:45:00 PM 21.74 71.132 0.29 8.01 10.81 9.33
8/19/2023 5:00:00 PM 21.75 71.15 0.289 8.01 10.07 9.31
8/19/2023 5:15:00 PM 21.75 71.15 0.289 8 10.41 9.28
8/19/2023 5:30:00 PM 21.75 71.15 0.289 8.01 12.07 9.25
8/19/2023 5:45:00 PM 21.74 71.132 0.288 8 10.31 9.22
8/19/2023 6:00:00 PM 21.73 71.114 0.288 7.99 10.41 9.18
8/19/2023 6:15:00 PM 21.7 71.06 0.288 7.98 9.82 9.13
8/19/2023 6:30:00 PM 21.68 71.024 0.288 7.96 9.84 9.07
8/19/2023 6:45:00 PM 21.66 70.988 0.287 7.96 9.9 9.03
8/19/2023 7:00:00 PM 21.63 70.934 0.287 7.95 9.58 8.97
8/19/2023 7:15:00 PM 21.6 70.88 0.287 7.8 9.74 8.92
8/19/2023 7:30:00 PM 21.57 70.826 0.287 7.91 9.74 8.86
8/19/2023 7:45:00 PM 21.54 70.772 0.287 7.78 10.1 8.8
8/19/2023 8:00:00 PM 21.51 70.718 0.286 7.88 9.64 8.74
8/19/2023 8:15:00 PM 21.47 70.646 0.286 7.86 9.68 8.69
8/19/2023 8:30:00 PM 21.44 70.592 0.286 7.84 10.48 8.63
8/19/2023 8:45:00 PM 21.4 70.52 0.286 7.82 9.63 8.58
8/19/2023 9:00:00 PM 21.37 70.466 0.286 7.81 10.01 8.52
8/19/2023 9:15:00 PM 21.33 70.394 0.285 7.8 10.49 8.47
8/19/2023 9:30:00 PM 21.29 70.32201 0.285 7.78 9.75 8.42
8/19/2023 9:45:00 PM 21.25 70.25 0.285 7.76 9.8 8.37
8/19/2023 10:00:00 PM 21.21 70.17799 0.285 7.75 11.2 8.32
8/19/2023 10:15:00 PM 21.16 70.088 0.285 7.73 9.4 8.28
8/19/2023 10:30:00 PM 21.12 70.016 0.285 7.71 9.41 8.23
8/19/2023 10:45:00 PM 21.07 69.926 0.285 7.7 9.05 8.18
8/19/2023 11:00:00 PM 21.02 69.836 0.285 7.69 9.67 8.14
8/19/2023 11:15:00 PM 20.97 69.746 0.285 7.68 8.81 8.1
8/19/2023 11:30:00 PM 20.93 69.674 0.285 7.67 8.97 8.07
8/19/2023 11:45:00 PM 20.88 69.584 0.285 7.56 8.97 8.03
8/20/2023 12:00:00 AM 20.83 69.494 0.285 7.65 8.89 8
8/20/2023 12:15:00 AM 20.78 69.404 0.285 7.64 9.24 7.98
8/20/2023 12:30:00 AM 20.74 69.332 0.285 7.63 9.21 7.95
8/20/2023 12:45:00 AM 20.7 69.26 0.285 7.62 8.99 7.92
8/20/2023 1:00:00 AM 20.65 69.17 0.286 7.61 8.46 7.9
8/20/2023 1:15:00 AM 20.61 69.098 0.286 7.61 8.29 7.88
8/20/2023 1:30:00 AM 20.57 69.026 0.286 7.56 8.66 7.84
8/20/2023 1:45:00 AM 20.53 68.954 0.286 7.59 8.77 7.83
8/20/2023 2:00:00 AM 20.49 68.882 0.286 7.58 9.16 7.81
8/20/2023 2:15:00 AM 20.45 68.81 0.286 7.58 8.82 7.79
8/20/2023 2:30:00 AM 20.4 68.72 0.286 7.57 8.43 7.78
8/20/2023 2:45:00 AM 20.36 68.648 0.286 7.57 8.38 7.76
8/20/2023 3:00:00 AM 20.32 68.576 0.286 7.56 8.98 7.74
8/20/2023 3:15:00 AM 20.28 68.504 0.287 7.56 7.93 7.73
8/20/2023 3:30:00 AM 20.24 68.432 0.287 7.56 17.54 7.7
8/20/2023 3:45:00 AM 20.2 68.36 0.287 7.56 8.19 7.7
8/20/2023 4:00:00 AM 20.16 68.288 0.287 7.55 9.42 7.68
8/20/2023 4:15:00 AM 20.11 68.198 0.287 7.55 9.57 7.68
8/20/2023 4:30:00 AM 20.07 68.126 0.287 7.54 8.96 7.66
8/20/2023 4:45:00 AM 20.03 68.054 0.287 7.52 10.07 7.66
8/20/2023 5:00:00 AM 19.99 67.982 0.287 7.54 9.13 7.65
8/20/2023 5:15:00 AM 19.95 67.91 0.288 7.54 8.99 7.64
8/20/2023 5:30:00 AM 19.91 67.838 0.288 7.53 8.98 7.63
8/20/2023 5:45:00 AM 19.87 67.766 0.288 7.53 8.51 7.62
8/20/2023 6:00:00 AM 19.84 67.712 0.288 7.53 9.47 7.61
8/20/2023 6:15:00 AM 19.81 67.658 0.288 7.53 9.48 7.62
8/20/2023 6:30:00 AM 19.78 67.604 0.288 7.53 9.68 7.59
8/20/2023 6:45:00 AM 19.74 67.532 0.289 7.52 8.52 7.61
8/20/2023 7:00:00 AM 19.72 67.496 0.289 7.52 9.1 7.61
8/20/2023 7:15:00 AM 19.71 67.478 0.289 7.53 8.98 7.63
8/20/2023 7:30:00 AM 19.7 67.46 0.289 7.52 8.7 7.65
8/20/2023 7:45:00 AM 19.68 67.424 0.289 7.53 8.91 7.67
8/20/2023 8:00:00 AM 19.66 67.388 0.289 7.54 8.69 7.71
8/20/2023 8:15:00 AM 19.68 67.424 0.289 7.55 8.41 7.77
8/20/2023 8:30:00 AM 19.71 67.478 0.29 7.5 7.9 7.84
8/20/2023 8:45:00 AM 19.73 67.514 0.29 7.58 7.2 7.9
8/20/2023 9:00:00 AM 19.77 67.586 0.29 7.49 7.87 7.98
8/20/2023 9:15:00 AM 19.83 67.694 0.29 7.6 8.2 8.07
8/20/2023 9:30:00 AM 19.9 67.82 0.29 7.61 7.66 8.16
8/20/2023 9:45:00 AM 19.98 67.964 0.29 7.64 7.7 8.27
8/20/2023 10:00:00 AM 20.07 68.126 0.291 7.66 7.15 8.37
8/20/2023 10:15:00 AM 20.19 68.342 0.291 7.63 7.21 8.47
8/20/2023 10:30:00 AM 20.31 68.558 0.291 7.7 7.46 8.57
8/20/2023 10:45:00 AM 20.39 68.702 0.291 7.71 7.52 8.63
8/20/2023 11:00:00 AM 20.47 68.846 0.292 7.74 7.43 8.69
8/20/2023 11:15:00 AM 20.59 69.062 0.292 7.76 8.36 8.79
8/20/2023 11:30:00 AM 20.73 69.314 0.292 7.78 7.24 8.86
8/20/2023 11:45:00 AM 20.88 69.584 0.293 7.8 7.43 8.94
8/20/2023 12:00:00 PM 21.03 69.854 0.293 7.82 8.27 9.03
8/20/2023 12:15:00 PM 21.21 70.17799 0.293 7.86 7.75 9.14
8/20/2023 12:30:00 PM 21.36 70.448 0.294 7.89 6.97 9.22
8/20/2023 12:45:00 PM 21.52 70.736 0.294 7.91 7.43 9.3
8/20/2023 1:00:00 PM 21.68 71.024 0.294 7.93 6.76 9.35
8/20/2023 1:15:00 PM 21.87 71.366 0.295 7.96 7.07 9.44
8/20/2023 1:30:00 PM 22.03 71.654 0.295 7.98 6.56 9.5
8/20/2023 1:45:00 PM 22.16 71.888 0.296 8 7.3 9.56
8/20/2023 2:00:00 PM 22.23 72.014 0.296 8.02 7.49 9.57
8/20/2023 2:15:00 PM 22.31 72.158 0.297 8.04 7.64 9.59
8/20/2023 2:30:00 PM 22.42 72.356 0.297 8.04 7.79 9.62
8/20/2023 2:45:00 PM 22.53 72.554 0.298 8.04 7.92 9.63
8/20/2023 3:00:00 PM 22.65 72.77 0.298 8.08 8.14 9.69
8/20/2023 3:15:00 PM 22.74 72.932 0.298 8.09 8.16 9.71
8/20/2023 3:30:00 PM 22.83 73.094 0.299 8.01 7.51 9.74
8/20/2023 3:45:00 PM 22.9 73.22 0.299 8.12 6.9 9.76
8/20/2023 4:00:00 PM 22.98 73.364 0.3 8.13 7.48 9.77
8/20/2023 4:15:00 PM 23.03 73.454 0.3 8.13 7.31 9.77
8/20/2023 4:30:00 PM 23.07 73.526 0.301 8.14 7.36 9.76
8/20/2023 4:45:00 PM 23.1 73.58 0.301 8.14 7.56 9.75
8/20/2023 5:00:00 PM 23.12 73.616 0.302 7.99 7.31 9.71
8/20/2023 5:15:00 PM 23.13 73.634 0.302 8.15 7.39 9.7
8/20/2023 5:30:00 PM 23.14 73.652 0.303 8.15 7.62 9.67
8/20/2023 5:45:00 PM 23.12 73.616 0.303 8.14 7 9.62
8/20/2023 6:00:00 PM 23.11 73.598 0.304 8.14 6.78 9.58
8/20/2023 6:15:00 PM 23.09 73.562 0.304 8.14 7.3 9.53
8/20/2023 6:30:00 PM 23.06 73.508 0.304 8.12 6.91 9.46
8/20/2023 6:45:00 PM 23.03 73.454 0.305 8.12 6.9 9.41
8/20/2023 7:00:00 PM 22.99 73.382 0.305 8.09 6.42 9.34
8/20/2023 7:15:00 PM 22.96 73.328 0.306 8.09 11.59 9.28
8/20/2023 7:30:00 PM 22.92 73.256 0.306 8.06 7.66 9.21
8/20/2023 7:45:00 PM 22.88 73.184 0.307 8.06 8.77 9.13
8/20/2023 8:00:00 PM 22.83 73.094 0.307 8.05 7.24 9.04
8/20/2023 8:15:00 PM 22.79 73.022 0.308 7.86 7.03 8.96
8/20/2023 8:30:00 PM 22.74 72.932 0.308 7.99 7.33 8.88
8/20/2023 8:45:00 PM 22.69 72.842 0.309 7.97 6.62 8.79
8/20/2023 9:00:00 PM 22.64 72.752 0.309 7.94 6.61 8.7
8/20/2023 9:15:00 PM 22.6 72.68 0.309 7.93 6.7 8.63
8/20/2023 9:30:00 PM 22.55 72.59 0.31 7.92 6.72 8.55
8/20/2023 9:45:00 PM 22.5 72.5 0.31 7.89 6.61 8.48
8/20/2023 10:00:00 PM 22.46 72.42799 0.311 7.87 6.46 8.41
8/20/2023 10:15:00 PM 22.43 72.374 0.311 7.85 6.81 8.33
8/20/2023 10:30:00 PM 22.39 72.302 0.312 7.83 6.63 8.26
8/20/2023 10:45:00 PM 22.35 72.23 0.312 7.82 6.29 8.21
8/20/2023 11:00:00 PM 22.31 72.158 0.312 7.8 6.3 8.14
8/20/2023 11:15:00 PM 22.27 72.086 0.313 7.79 6.79 8.08
8/20/2023 11:30:00 PM 22.24 72.032 0.313 7.76 14.08 7.97
8/20/2023 11:45:00 PM 22.21 71.978 0.313 7.75 6.75 7.97
8/21/2023 12:00:00 AM 22.18 71.924 0.314 7.74 8.13 7.92
8/21/2023 12:15:00 AM 22.15 71.87 0.314 7.72 6.48 7.87
8/21/2023 12:30:00 AM 22.13 71.834 0.314 7.72 6.57 7.83
8/21/2023 12:45:00 AM 22.1 71.78 0.315 7.7 6.85 7.78
8/21/2023 1:00:00 AM 22.08 71.744 0.315 7.67 6.9 7.75
8/21/2023 1:15:00 AM 22.05 71.69 0.315 7.67 6.35 7.71
8/21/2023 1:30:00 AM 22.03 71.654 0.315 7.67 6.6 7.69
8/21/2023 1:45:00 AM 22.01 71.618 0.316 7.67 6.76 7.63
8/21/2023 2:00:00 AM 22 71.6 0.316 7.65 6.75 7.61
8/21/2023 2:15:00 AM 21.98 71.564 0.316 7.65 6.72 7.57
8/21/2023 2:30:00 AM 21.96 71.528 0.317 7.64 6.49 7.54
8/21/2023 2:45:00 AM 21.94 71.492 0.317 7.63 6.88 7.52
8/21/2023 3:00:00 AM 21.93 71.474 0.317 7.62 7.17 7.48
8/21/2023 3:15:00 AM 21.92 71.456 0.317 7.62 7.04 7.44
8/21/2023 3:30:00 AM 21.91 71.438 0.318 7.61 6.8 7.42
8/21/2023 3:45:00 AM 21.9 71.42 0.318 7.59 7.01 7.39
8/21/2023 4:00:00 AM 21.88 71.384 0.318 7.6 6.38 7.37
8/21/2023 4:15:00 AM 21.87 71.366 0.318 7.49 6.64 7.34
8/21/2023 4:30:00 AM 21.86 71.348 0.319 7.57 7.39 7.31
8/21/2023 4:45:00 AM 21.85 71.33 0.319 7.57 6.47 7.29
8/21/2023 5:00:00 AM 21.84 71.312 0.319 7.57 7.1 7.28
8/21/2023 5:15:00 AM 21.83 71.294 0.319 7.57 7.04 7.25
8/21/2023 5:30:00 AM 21.82 71.276 0.319 7.57 6.98 7.23
8/21/2023 5:45:00 AM 21.81 71.258 0.32 7.55 7.28 7.2
8/21/2023 6:00:00 AM 21.8 71.24 0.32 7.55 7.28 7.18
8/21/2023 6:15:00 AM 21.79 71.222 0.32 7.55 6.84 7.15
8/21/2023 6:30:00 AM 21.77 71.186 0.32 7.54 7.01 7.15
8/21/2023 6:45:00 AM 21.76 71.168 0.32 7.52 7.93 7.12
8/21/2023 7:00:00 AM 21.76 71.168 0.321 7.53 6.6 7.11
8/21/2023 7:15:00 AM 21.76 71.168 0.321 7.53 6.63 7.11
8/21/2023 7:30:00 AM 21.76 71.168 0.321 7.54 7.31 7.13
8/21/2023 7:45:00 AM 21.76 71.168 0.321 7.53 7.28 7.15
8/21/2023 8:00:00 AM 21.77 71.186 0.321 7.54 6.36 7.18
8/21/2023 8:15:00 AM 21.78 71.204 0.321 7.51 6.52 7.22
8/21/2023 8:30:00 AM 21.79 71.222 0.321 7.54 6.06 7.26
8/21/2023 8:45:00 AM 21.82 71.276 0.321 7.55 5.88 7.3
8/21/2023 9:00:00 AM 21.86 71.348 0.322 7.45 6.49 7.39
8/21/2023 9:15:00 AM 21.91 71.438 0.322 7.57 6.62 7.48
8/21/2023 9:30:00 AM 21.97 71.546 0.322 7.59 6.55 7.58
8/21/2023 9:45:00 AM 22.06 71.708 0.322 7.61 5.81 7.73
8/21/2023 10:00:00 AM 22.16 71.888 0.322 7.63 6 7.84
8/21/2023 10:15:00 AM 22.24 72.032 0.323 7.66 5.88 7.96
8/21/2023 10:30:00 AM 22.34 72.212 0.323 7.68 5.76 8.1
8/21/2023 10:45:00 AM 22.43 72.374 0.323 7.7 5.7 8.23
8/21/2023 11:00:00 AM 22.51 72.518 0.323 7.73 5.49 8.33
8/21/2023 11:15:00 AM 22.59 72.662 0.323 7.75 5.41 8.41
8/21/2023 11:30:00 AM 22.69 72.842 0.323 7.78 5.26 8.54
8/21/2023 11:45:00 AM 22.77 72.986 0.323 7.8 5.33 8.62
8/21/2023 12:00:00 PM 22.86 73.148 0.323 7.68 5.23 8.71
8/21/2023 12:15:00 PM 22.95 73.31 0.323 7.83 5.45 8.79
8/21/2023 12:30:00 PM 23.03 73.454 0.323 7.85 5.05 8.87
8/21/2023 12:45:00 PM 23.08 73.544 0.323 7.87 5.38 8.9
8/21/2023 1:00:00 PM 23.15 73.67 0.323 7.89 5.07 8.98
8/21/2023 1:15:00 PM 23.27 73.886 0.323 7.84 5.35 9.07
8/21/2023 1:30:00 PM 23.37 74.066 0.323 7.95 5.31 9.14
8/21/2023 1:45:00 PM 23.47 74.246 0.324 7.96 5.59 9.2
8/21/2023 2:00:00 PM 23.56 74.408 0.324 7.98 5.55 9.26
8/21/2023 2:15:00 PM 23.67 74.606 0.324 8.02 5.19 9.34
8/21/2023 2:30:00 PM 23.75 74.75 0.324 8.04 5.36 9.39
8/21/2023 2:45:00 PM 23.83 74.894 0.324 8.06 5.19 9.44
8/21/2023 3:00:00 PM 23.91 75.038 0.324 8.08 5.07 9.48
8/21/2023 3:15:00 PM 24.01 75.218 0.324 8.11 5.62 9.53
8/21/2023 3:30:00 PM 24.09 75.362 0.324 8.09 5.73 9.56
8/21/2023 3:45:00 PM 24.17 75.506 0.324 8.14 5.65 9.62
8/21/2023 4:00:00 PM 24.25 75.65 0.324 8.03 5.66 9.67
8/21/2023 4:15:00 PM 24.31 75.758 0.324 8.18 5.4 9.72
8/21/2023 4:30:00 PM 24.34 75.812 0.324 8.19 5.11 9.7
8/21/2023 4:45:00 PM 24.36 75.848 0.324 8.08 5.21 9.71
8/21/2023 5:00:00 PM 24.36 75.848 0.324 8.21 5.12 9.7
8/21/2023 5:15:00 PM 24.34 75.812 0.325 8.21 5.42 9.68
8/21/2023 5:30:00 PM 24.32 75.776 0.325 8.21 5.12 9.63
8/21/2023 5:45:00 PM 24.29 75.722 0.325 8.2 5.4 9.58
8/21/2023 6:00:00 PM 24.25 75.65 0.325 8.09 5.23 9.53
8/21/2023 6:15:00 PM 24.21 75.578 0.325 8.19 5.34 9.47
8/21/2023 6:30:00 PM 24.17 75.506 0.326 8.19 5.33 9.41
8/21/2023 6:45:00 PM 24.11 75.398 0.326 8.17 5.3 9.35
8/21/2023 7:00:00 PM 24.06 75.308 0.326 8.17 5.9 9.29
8/21/2023 7:15:00 PM 24.02 75.236 0.326 8.16 5.08 9.21
8/21/2023 7:30:00 PM 23.97 75.146 0.327 8.1 5.2 9.14
8/21/2023 7:45:00 PM 23.92 75.056 0.327 8.13 5.24 9.06
8/21/2023 8:00:00 PM 23.88 74.984 0.327 8.11 5.49 8.98
8/21/2023 8:15:00 PM 23.82 74.876 0.327 8.1 5.48 8.88
8/21/2023 8:30:00 PM 23.77 74.786 0.328 8.07 5.71 8.81
8/21/2023 8:45:00 PM 23.71 74.67799 0.328 8.07 5.28 8.72
8/21/2023 9:00:00 PM 23.66 74.588 0.328 8.05 5.96 8.65
8/21/2023 9:15:00 PM 23.61 74.498 0.329 8.02 5.27 8.53
8/21/2023 9:30:00 PM 23.54 74.372 0.329 8.01 5.4 8.45
8/21/2023 9:45:00 PM 23.47 74.246 0.33 7.97 4.96 8.34
8/21/2023 10:00:00 PM 23.39 74.102 0.33 7.95 5.34 8.26
8/21/2023 10:15:00 PM 23.33 73.994 0.33 7.94 5.05 8.17
8/21/2023 10:30:00 PM 23.26 73.868 0.331 7.76 5.33 8.09
8/21/2023 10:45:00 PM 23.19 73.742 0.331 7.89 4.86 8.02
8/21/2023 11:00:00 PM 23.11 73.598 0.331 7.87 5.35 7.96
8/21/2023 11:15:00 PM 23.04 73.472 0.332 7.86 5.41 7.89
8/21/2023 11:30:00 PM 22.95 73.31 0.332 7.84 5.48 7.84
8/21/2023 11:45:00 PM 22.88 73.184 0.333 7.82 5.39 7.77
8/22/2023 12:00:00 AM 22.81 73.058 0.333 7.81 5.14 7.7
8/22/2023 12:15:00 AM 22.73 72.914 0.334 7.79 5.51 7.65
8/22/2023 12:30:00 AM 22.67 72.806 0.334 7.77 5.74 7.6
8/22/2023 12:45:00 AM 22.6 72.68 0.334 7.76 5.33 7.55
8/22/2023 1:00:00 AM 22.54 72.57201 0.335 7.75 5.33 7.5
8/22/2023 1:15:00 AM 22.48 72.464 0.335 7.72 5.47 7.48
8/22/2023 1:30:00 AM 22.43 72.374 0.336 7.72 5.67 7.42
8/22/2023 1:45:00 AM 22.37 72.266 0.336 7.71 5.29 7.4
8/22/2023 2:00:00 AM 22.31 72.158 0.337 7.7 5.88 7.37
8/22/2023 2:15:00 AM 22.26 72.068 0.337 7.69 5.67 7.33
8/22/2023 2:30:00 AM 22.21 71.978 0.338 7.68 5.88 7.29
8/22/2023 2:45:00 AM 22.17 71.906 0.338 7.67 5.81 7.26
8/22/2023 3:00:00 AM 22.11 71.798 0.339 7.67 5.98 7.24
8/22/2023 3:15:00 AM 22.07 71.726 0.339 7.66 6.32 7.22
8/22/2023 3:30:00 AM 22.01 71.618 0.34 7.66 6.27 7.2
8/22/2023 3:45:00 AM 21.95 71.51 0.34 7.63 5.81 7.17
8/22/2023 4:00:00 AM 21.89 71.402 0.341 7.65 5.43 7.16
8/22/2023 4:15:00 AM 21.83 71.294 0.341 7.64 5.83 7.15
8/22/2023 4:30:00 AM 21.77 71.186 0.342 7.63 5.99 7.13
8/22/2023 4:45:00 AM 21.72 71.096 0.342 7.62 5.72 7.11
8/22/2023 5:00:00 AM 21.66 70.988 0.343 7.62 5.98 7.1
8/22/2023 5:15:00 AM 21.6 70.88 0.343 7.6 6.64 7.08
8/22/2023 5:30:00 AM 21.54 70.772 0.344 7.61 6 7.08
8/22/2023 5:45:00 AM 21.47 70.646 0.344 7.62 6.42 7.06
8/22/2023 6:00:00 AM 21.42 70.556 0.345 7.6 6.32 7.06
8/22/2023 6:15:00 AM 21.36 70.448 0.345 7.6 5.7 7.04
8/22/2023 6:30:00 AM 21.31 70.358 0.346 7.6 6.09 7.03
8/22/2023 6:45:00 AM 21.26 70.268 0.346 7.6 6.89 7.03
8/22/2023 7:00:00 AM 21.21 70.17799 0.347 7.59 5.53 7.04
8/22/2023 7:15:00 AM 21.17 70.106 0.347 7.59 6.02 7.04
8/22/2023 7:30:00 AM 21.13 70.034 0.348 7.6 6.31 7.08
8/22/2023 7:45:00 AM 21.11 69.998 0.348 7.6 5.89 7.11
8/22/2023 8:00:00 AM 21.1 69.98 0.349 7.6 5.84 7.17
8/22/2023 8:15:00 AM 21.1 69.98 0.349 7.61 5.54 7.25
8/22/2023 8:30:00 AM 21.14 70.052 0.35 7.6 5.1 7.34
8/22/2023 8:45:00 AM 21.18 70.124 0.35 7.65 5.27 7.46
8/22/2023 9:00:00 AM 21.22 70.196 0.35 7.66 5.25 7.59
8/22/2023 9:15:00 AM 21.22 70.196 0.351 7.69 5.13 7.69
8/22/2023 9:30:00 AM 21.26 70.268 0.351 7.72 6.07 7.84
8/22/2023 9:45:00 AM 21.31 70.358 0.351 7.71 5.27 7.97
8/22/2023 10:00:00 AM 21.4 70.52 0.352 7.77 5.67 8.14
8/22/2023 10:15:00 AM 21.49 70.682 0.352 7.8 5.48 8.25
8/22/2023 10:30:00 AM 21.61 70.898 0.352 7.82 5.95 8.42
8/22/2023 10:45:00 AM 21.72 71.096 0.353 7.86 5.91 8.53
8/22/2023 11:00:00 AM 21.84 71.312 0.353 7.88 6.05 8.68
8/22/2023 11:15:00 AM 21.96 71.528 0.353 7.91 5.6 8.79
8/22/2023 11:30:00 AM 22.11 71.798 0.353 7.94 5.78 8.93
8/22/2023 11:45:00 AM 22.23 72.014 0.354 7.97 5.97 9.05
8/22/2023 12:00:00 PM 22.37 72.266 0.354 7.95 6.39 9.18
8/22/2023 12:15:00 PM 22.49 72.482 0.354 8.02 5.68 9.25
8/22/2023 12:30:00 PM 22.59 72.662 0.354 8.05 5.51 9.34
8/22/2023 12:45:00 PM 22.73 72.914 0.354 8.08 5.89 9.44
8/22/2023 1:00:00 PM 22.88 73.184 0.355 8.11 6.85 9.55
8/22/2023 1:15:00 PM 23 73.4 0.355 8.13 5.71 9.64
8/22/2023 1:30:00 PM 23.13 73.634 0.355 8.16 6.21 9.71
8/22/2023 1:45:00 PM 23.23 73.814 0.355 8.18 5.67 9.78
8/22/2023 2:00:00 PM 23.36 74.048 0.356 8.17 5.5 9.86
8/22/2023 2:15:00 PM 23.47 74.246 0.356 8.22 5.24 9.93
8/22/2023 2:30:00 PM 23.56 74.408 0.356 8.24 5.27 9.98
8/22/2023 2:45:00 PM 23.69 74.642 0.356 8.27 5.33 10.06
8/22/2023 3:00:00 PM 23.78 74.804 0.356 8.28 5.21 10.09
8/22/2023 3:15:00 PM 23.88 74.984 0.356 8.3 4.69 10.15
8/22/2023 3:30:00 PM 23.94 75.092 0.357 8.16 5.08 10.17
8/22/2023 3:45:00 PM 24 75.2 0.357 8.33 4.86 10.21
8/22/2023 4:00:00 PM 24.05 75.29 0.357 8.34 5.19 10.23
8/22/2023 4:15:00 PM 24.09 75.362 0.357 8.36 4.75 10.25
8/22/2023 4:30:00 PM 24.11 75.398 0.357 8.37 4.76 10.23
8/22/2023 4:45:00 PM 24.15 75.47 0.357 8.37 4.74 10.25
8/22/2023 5:00:00 PM 24.16 75.488 0.357 8.38 5.34 10.25
8/22/2023 5:15:00 PM 24.16 75.488 0.357 8.38 4.72 10.21
8/22/2023 5:30:00 PM 24.15 75.47 0.357 8.38 4.58 10.17
8/22/2023 5:45:00 PM 24.14 75.452 0.357 8.38 4.92 10.16
8/22/2023 6:00:00 PM 24.12 75.416 0.357 8.39 5.22 10.11
8/22/2023 6:15:00 PM 24.07 75.326 0.357 8.39 5.44 10.05
8/22/2023 6:30:00 PM 24.01 75.218 0.357 8.38 5.69 9.97
8/22/2023 6:45:00 PM 23.97 75.146 0.358 8.37 5.27 9.89
8/22/2023 7:00:00 PM 23.91 75.038 0.358 8.37 5.29 9.8
8/22/2023 7:15:00 PM 23.85 74.93 0.358 8.36 5.71 9.72
8/22/2023 7:30:00 PM 23.8 74.84 0.358 8.34 5.5 9.61
8/22/2023 7:45:00 PM 23.75 74.75 0.358 8.34 5.59 9.52
8/22/2023 8:00:00 PM 23.69 74.642 0.358 8.33 4.92 9.42
8/22/2023 8:15:00 PM 23.64 74.552 0.358 8.32 4.66 9.32
8/22/2023 8:30:00 PM 23.59 74.462 0.358 8.3 4.9 9.22
8/22/2023 8:45:00 PM 23.54 74.372 0.358 8.29 4.87 9.11
8/22/2023 9:00:00 PM 23.49 74.282 0.358 8.28 4.74 9.02
8/22/2023 9:15:00 PM 23.45 74.21 0.358 8.27 4.85 8.93
8/22/2023 9:30:00 PM 23.4 74.12 0.359 8.24 4.62 8.82
8/22/2023 9:45:00 PM 23.35 74.03 0.359 8.23 4.76 8.73
8/22/2023 10:00:00 PM 23.3 73.94 0.359 8.21 4.67 8.65
8/22/2023 10:15:00 PM 23.25 73.85 0.359 8.2 4.87 8.57
8/22/2023 10:30:00 PM 23.2 73.76 0.359 8.18 4.51 8.49
8/22/2023 10:45:00 PM 23.14 73.652 0.359 8.17 4.71 8.4
8/22/2023 11:00:00 PM 23.08 73.544 0.359 7.72 4.77 8.33
8/22/2023 11:15:00 PM 23.02 73.436 0.359 8.13 4.52 8.26
8/22/2023 11:30:00 PM 22.96 73.328 0.359 8 4.67 8.18
8/22/2023 11:45:00 PM 22.89 73.202 0.359 8.08 4.83 8.11
8/23/2023 12:00:00 AM 22.82 73.076 0.359 8.07 4.81 8.04
8/23/2023 12:15:00 AM 22.75 72.95 0.359 8.04 7.68 7.96
8/23/2023 12:30:00 AM 22.68 72.824 0.359 8.03 5.51 7.9
8/23/2023 12:45:00 AM 22.6 72.68 0.359 8.01 4.9 7.84
8/23/2023 1:00:00 AM 22.52 72.536 0.359 7.99 5.15 7.78
8/23/2023 1:15:00 AM 22.45 72.41 0.359 7.97 5.06 7.72
8/23/2023 1:30:00 AM 22.39 72.302 0.36 7.96 5.01 7.67
8/23/2023 1:45:00 AM 22.32 72.176 0.36 7.82 5.53 7.61
8/23/2023 2:00:00 AM 22.25 72.05 0.36 7.92 6.14 7.57
8/23/2023 2:15:00 AM 22.18 71.924 0.36 7.9 5.35 7.5
8/23/2023 2:30:00 AM 22.1 71.78 0.36 7.87 5.47 7.47
8/23/2023 2:45:00 AM 22.05 71.69 0.36 7.88 5.89 7.46
8/23/2023 3:00:00 AM 21.98 71.564 0.36 7.85 5.56 7.38
8/23/2023 3:15:00 AM 21.92 71.456 0.36 7.72 7.21 7.37
8/23/2023 3:30:00 AM 21.86 71.348 0.36 7.82 7.54 7.32
8/23/2023 3:45:00 AM 21.8 71.24 0.36 7.82 5.75 7.31
8/23/2023 4:00:00 AM 21.75 71.15 0.36 7.8 6.49 7.26
8/23/2023 4:15:00 AM 21.69 71.042 0.36 7.79 8.42 7.25
8/23/2023 4:30:00 AM 21.65 70.97 0.36 7.78 7.62 7.23
8/23/2023 4:45:00 AM 21.6 70.88 0.361 7.77 6.18 7.19
8/23/2023 5:00:00 AM 21.56 70.808 0.361 7.76 6.28 7.17
8/23/2023 5:15:00 AM 21.51 70.718 0.361 7.75 9.15 7.12
8/23/2023 5:30:00 AM 21.46 70.628 0.361 7.74 8.81 7.12
8/23/2023 5:45:00 AM 21.43 70.574 0.361 7.73 6.71 7.1
8/23/2023 6:00:00 AM 21.39 70.502 0.361 7.73 12.41 7.08
8/23/2023 6:15:00 AM 21.35 70.43 0.361 7.72 6.73 7.07
8/23/2023 6:30:00 AM 21.3 70.34 0.361 7.7 7.82 7.03
8/23/2023 6:45:00 AM 21.27 70.286 0.362 7.7 19.42 7.01
8/23/2023 7:00:00 AM 21.23 70.214 0.362 7.69 6.91 6.99
8/23/2023 7:15:00 AM 21.2 70.16 0.362 7.69 12.88 6.99
8/23/2023 7:30:00 AM 21.16 70.088 0.362 7.68 9.85 6.96
8/23/2023 7:45:00 AM 21.14 70.052 0.362 7.68 9.47 6.99
8/23/2023 8:00:00 AM 21.12 70.016 0.362 7.68 6.71 7
8/23/2023 8:15:00 AM 21.08 69.944 0.362 7.67 6.84 6.97
8/23/2023 8:30:00 AM 21.07 69.926 0.362 7.67 8.03 7.04
8/23/2023 8:45:00 AM 21.06 69.908 0.362 7.67 5.63 7.07
8/23/2023 9:00:00 AM 21.06 69.908 0.362 7.67 6.17 7.14
8/23/2023 9:15:00 AM 21.09 69.962 0.362 7.69 7.56 7.25
8/23/2023 9:30:00 AM 21.12 70.016 0.362 7.7 5.22 7.36
8/23/2023 9:45:00 AM 21.17 70.106 0.362 7.72 5.36 7.48
8/23/2023 10:00:00 AM 21.23 70.214 0.363 7.74 5.45 7.61
8/23/2023 10:15:00 AM 21.31 70.358 0.363 7.77 5.13 7.8
8/23/2023 10:30:00 AM 21.36 70.448 0.363 7.8 7.13 7.93
8/23/2023 10:45:00 AM 21.43 70.574 0.363 7.82 4.68 8.07
8/23/2023 11:00:00 AM 21.51 70.718 0.363 7.83 5.04 8.22
8/23/2023 11:15:00 AM 21.61 70.898 0.363 7.87 5.16 8.43
8/23/2023 11:30:00 AM 21.7 71.06 0.363 7.9 5.88 8.58
8/23/2023 11:45:00 AM 21.79 71.222 0.363 7.94 5.38 8.75
8/23/2023 12:00:00 PM 21.86 71.348 0.363 7.97 7.04 8.9
8/23/2023 12:15:00 PM 21.94 71.492 0.363 7.99 5.32 8.99
8/23/2023 12:30:00 PM 22.03 71.654 0.363 8.02 7.62 9.14
8/23/2023 12:45:00 PM 22.12 71.816 0.363 8.05 18.56 9.26
8/23/2023 1:00:00 PM 22.23 72.014 0.363 8.08 5.13 9.39
8/23/2023 1:15:00 PM 22.3 72.14 0.363 8.12 5.43 9.52
8/23/2023 1:30:00 PM 22.35 72.23 0.363 8.14 5.3 9.61
8/23/2023 1:45:00 PM 22.37 72.266 0.363 8.15 5.38 9.67
8/23/2023 2:00:00 PM 22.35 72.23 0.363 8.15 5.12 9.63
8/23/2023 2:15:00 PM 22.33 72.194 0.363 8.16 5.1 9.67
8/23/2023 2:30:00 PM 22.31 72.158 0.363 8.17 4.63 9.67
8/23/2023 2:45:00 PM 22.33 72.194 0.363 8.18 4.68 9.71
8/23/2023 3:00:00 PM 22.35 72.23 0.363 8.19 5.33 9.75
8/23/2023 3:15:00 PM 22.37 72.266 0.363 8.19 5.02 9.75
8/23/2023 3:30:00 PM 22.42 72.356 0.363 8.21 5.1 9.8
8/23/2023 3:45:00 PM 22.44 72.392 0.363 8.2 4.64 9.83
8/23/2023 4:00:00 PM 22.46 72.42799 0.363 8.24 5.3 9.88
8/23/2023 4:15:00 PM 22.48 72.464 0.363 8.24 4.92 9.92
8/23/2023 4:30:00 PM 22.51 72.518 0.363 8.26 4.47 9.97
8/23/2023 4:45:00 PM 22.54 72.57201 0.363 8.27 4.36 10.02
8/23/2023 5:00:00 PM 22.56 72.608 0.363 8.29 4.98 10.08
8/23/2023 5:15:00 PM 22.57 72.626 0.363 8.31 4.68 10.1
8/23/2023 5:30:00 PM 22.57 72.626 0.363 8.32 4.41 10.14
8/23/2023 5:45:00 PM 22.58 72.644 0.363 8.33 4.21 10.18
8/23/2023 6:00:00 PM 22.57 72.626 0.363 8.33 4.61 10.18
8/23/2023 6:15:00 PM 22.56 72.608 0.363 8.34 4.73 10.14
8/23/2023 6:30:00 PM 22.54 72.57201 0.363 8.34 4.92 10.09
8/23/2023 6:45:00 PM 22.52 72.536 0.364 8.34 4.55 10.03
8/23/2023 7:00:00 PM 22.49 72.482 0.364 8.32 4.82 9.93
8/23/2023 7:15:00 PM 22.46 72.42799 0.364 8.31 4.74 9.84
8/23/2023 7:30:00 PM 22.43 72.374 0.364 8.3 4.53 9.75
8/23/2023 7:45:00 PM 22.41 72.338 0.364 8.25 4.76 9.65
8/23/2023 8:00:00 PM 22.37 72.266 0.364 8.27 4.82 9.57
8/23/2023 8:15:00 PM 22.35 72.23 0.364 8.27 4.71 9.47
8/23/2023 8:30:00 PM 22.32 72.176 0.364 8.24 7.79 9.37
8/23/2023 8:45:00 PM 22.29 72.122 0.365 8.23 4.99 9.28
8/23/2023 9:00:00 PM 22.26 72.068 0.365 8.22 4.64 9.18
8/23/2023 9:15:00 PM 22.23 72.014 0.365 8.21 4.68 9.07
8/23/2023 9:30:00 PM 22.19 71.942 0.365 8.18 5.04 8.98
8/23/2023 9:45:00 PM 22.16 71.888 0.365 8.16 6.34 8.88
8/23/2023 10:00:00 PM 22.13 71.834 0.365 8.16 5.03 8.8
8/23/2023 10:15:00 PM 22.1 71.78 0.365 8.14 4.86 8.71
8/23/2023 10:30:00 PM 22.06 71.708 0.365 8.12 5.01 8.62
8/23/2023 10:45:00 PM 22.03 71.654 0.366 8.05 5.1 8.53
8/23/2023 11:00:00 PM 22 71.6 0.366 8.09 5.24 8.46
8/23/2023 11:15:00 PM 21.96 71.528 0.366 8.02 4.76 8.4
8/23/2023 11:30:00 PM 21.94 71.492 0.366 8.06 5.11 8.31
8/23/2023 11:45:00 PM 21.9 71.42 0.366 8.03 5.04 8.22
8/24/2023 12:00:00 AM 21.87 71.366 0.366 8.03 5.15 8.17
8/24/2023 12:15:00 AM 21.85 71.33 0.366 8.01 5.25 8.11
8/24/2023 12:30:00 AM 21.82 71.276 0.366 8 5.17 8.07
8/24/2023 12:45:00 AM 21.78 71.204 0.366 7.97 5.07 7.98
8/24/2023 1:00:00 AM 21.75 71.15 0.366 7.96 5.29 7.93
8/24/2023 1:15:00 AM 21.72 71.096 0.366 7.95 8.43 7.86
8/24/2023 1:30:00 AM 21.7 71.06 0.366 7.93 5.3 7.83
8/24/2023 1:45:00 AM 21.67 71.006 0.366 7.93 5.78 7.78
8/24/2023 2:00:00 AM 21.64 70.952 0.366 7.91 5.72 7.73
8/24/2023 2:15:00 AM 21.61 70.898 0.367 7.9 6.12 7.7
8/24/2023 2:30:00 AM 21.58 70.844 0.367 7.89 5.96 7.64
8/24/2023 2:45:00 AM 21.55 70.79 0.367 7.88 6.13 7.6
8/24/2023 3:00:00 AM 21.52 70.736 0.367 7.86 5.73 7.55
8/24/2023 3:15:00 AM 21.49 70.682 0.367 7.85 5.51 7.53
8/24/2023 3:30:00 AM 21.46 70.628 0.367 7.85 6.36 7.49
8/24/2023 3:45:00 AM 21.43 70.574 0.367 7.83 6.11 7.44
8/24/2023 4:00:00 AM 21.39 70.502 0.367 7.82 5.59 7.4
8/24/2023 4:15:00 AM 21.36 70.448 0.367 7.81 5.79 7.4
8/24/2023 4:30:00 AM 21.32 70.376 0.368 7.8 5.78 7.36
8/24/2023 4:45:00 AM 21.29 70.32201 0.368 7.8 6.7 7.35
8/24/2023 5:00:00 AM 21.25 70.25 0.368 7.78 6.06 7.3
8/24/2023 5:15:00 AM 21.22 70.196 0.368 7.76 6.1 7.28
8/24/2023 5:30:00 AM 21.19 70.142 0.368 7.77 6 7.27
8/24/2023 5:45:00 AM 21.15 70.07 0.368 7.76 6 7.22
8/24/2023 6:00:00 AM 21.12 70.016 0.369 7.75 7.36 7.2
8/24/2023 6:15:00 AM 21.09 69.962 0.369 7.74 7.81 7.17
8/24/2023 6:30:00 AM 21.05 69.89 0.369 7.73 6.3 7.14
8/24/2023 6:45:00 AM 21.01 69.818 0.369 7.73 6.28 7.13
8/24/2023 7:00:00 AM 20.98 69.764 0.369 7.69 5.98 7.09
8/24/2023 7:15:00 AM 20.94 69.692 0.37 7.7 6.44 7.08
8/24/2023 7:30:00 AM 20.91 69.638 0.37 7.7 8.44 7.06
8/24/2023 7:45:00 AM 20.88 69.584 0.37 7.69 6.89 7.06
8/24/2023 8:00:00 AM 20.85 69.53 0.37 7.68 6.03 7.04
8/24/2023 8:15:00 AM 20.82 69.476 0.37 7.68 6.38 7.04
8/24/2023 8:30:00 AM 20.8 69.44 0.371 7.67 6.55 7.03
8/24/2023 8:45:00 AM 20.78 69.404 0.371 7.67 6.73 7.02
8/24/2023 9:00:00 AM 20.75 69.35 0.371 7.67 6.02 7.04
8/24/2023 9:15:00 AM 20.74 69.332 0.371 7.67 6.16 7.08
8/24/2023 9:30:00 AM 20.73 69.314 0.372 7.67 5.74 7.11
8/24/2023 9:45:00 AM 20.71 69.278 0.372 7.67 6 7.15
8/24/2023 10:00:00 AM 20.7 69.26 0.372 7.67 5.8 7.19
8/24/2023 10:15:00 AM 20.69 69.242 0.372 7.67 5.98 7.22
8/24/2023 10:30:00 AM 20.7 69.26 0.373 7.67 5.97 7.27
8/24/2023 10:45:00 AM 20.69 69.242 0.373 7.69 5.87 7.34
8/24/2023 11:00:00 AM 20.69 69.242 0.373 7.69 5.41 7.38
8/24/2023 11:15:00 AM 20.69 69.242 0.373 7.7 5.77 7.47
8/24/2023 11:30:00 AM 20.69 69.242 0.374 7.7 6.41 7.54
8/24/2023 11:45:00 AM 20.69 69.242 0.374 7.71 5.72 7.6
8/24/2023 12:00:00 PM 20.7 69.26 0.374 7.73 5.2 7.67
8/24/2023 12:15:00 PM 20.71 69.278 0.374 7.74 5.37 7.76
8/24/2023 12:30:00 PM 20.72 69.296 0.375 7.75 6.89 7.81
8/24/2023 12:45:00 PM 20.75 69.35 0.375 7.76 5.31 7.94
8/24/2023 1:00:00 PM 20.76 69.368 0.375 7.78 5.14 8.05
8/24/2023 1:15:00 PM 20.77 69.386 0.375 7.8 4.82 8.12
8/24/2023 1:30:00 PM 20.77 69.386 0.376 7.8 5.13 8.17
8/24/2023 1:45:00 PM 20.81 69.458 0.376 7.82 4.96 8.26
8/24/2023 2:00:00 PM 20.85 69.53 0.376 7.83 4.86 8.38
8/24/2023 2:15:00 PM 20.86 69.548 0.376 7.86 4.8 8.5
8/24/2023 2:30:00 PM 20.86 69.548 0.377 7.87 4.53 8.57
8/24/2023 2:45:00 PM 20.87 69.566 0.377 7.89 4.72 8.63
8/24/2023 3:00:00 PM 20.86 69.548 0.377 7.89 4.64 8.67
8/24/2023 3:15:00 PM 20.85 69.53 0.377 7.91 4.18 8.72
8/24/2023 3:30:00 PM 20.85 69.53 0.378 7.91 4.14 8.73
8/24/2023 3:45:00 PM 20.84 69.512 0.378 7.92 4.19 8.77
8/24/2023 4:00:00 PM 20.83 69.494 0.378 7.92 4.41 8.78
8/24/2023 4:15:00 PM 20.82 69.476 0.379 7.92 4.96 8.8
8/24/2023 4:30:00 PM 20.81 69.458 0.379 7.93 4.57 8.81
8/24/2023 4:45:00 PM 20.81 69.458 0.379 7.93 4.19 8.81
8/24/2023 5:00:00 PM 20.8 69.44 0.379 7.94 4.13 8.81
8/24/2023 5:15:00 PM 20.79 69.422 0.38 7.93 4.21 8.8
8/24/2023 5:30:00 PM 20.78 69.404 0.38 7.94 4.17 8.8
8/24/2023 5:45:00 PM 20.77 69.386 0.38 7.94 4.86 8.8
8/24/2023 6:00:00 PM 20.76 69.368 0.381 7.94 4.68 8.8
8/24/2023 6:15:00 PM 20.75 69.35 0.381 7.93 4.22 8.78
8/24/2023 6:30:00 PM 20.75 69.35 0.381 7.94 4.87 8.78
8/24/2023 6:45:00 PM 20.74 69.332 0.381 7.95 4.72 8.76
8/24/2023 7:00:00 PM 20.73 69.314 0.381 7.94 4.83 8.73
8/24/2023 7:15:00 PM 20.73 69.314 0.382 7.9 4.9 8.73
8/24/2023 7:30:00 PM 20.71 69.278 0.382 7.95 4.64 8.72
8/24/2023 7:45:00 PM 20.69 69.242 0.382 7.94 4.64 8.69
8/24/2023 8:00:00 PM 20.68 69.224 0.383 7.93 4.91 8.64
8/24/2023 8:15:00 PM 20.67 69.206 0.383 7.93 4.86 8.59
8/24/2023 8:30:00 PM 20.65 69.17 0.383 7.91 5.08 8.52
8/24/2023 8:45:00 PM 20.64 69.152 0.383 7.9 5.9 8.47
8/24/2023 9:00:00 PM 20.62 69.116 0.384 7.89 5.24 8.4
8/24/2023 9:15:00 PM 20.6 69.08 0.384 7.87 5.14 8.36
8/24/2023 9:30:00 PM 20.58 69.044 0.384 7.87 4.71 8.3
8/24/2023 9:45:00 PM 20.56 69.008 0.384 7.86 5.03 8.24
8/24/2023 10:00:00 PM 20.54 68.972 0.385 7.85 4.79 8.19
8/24/2023 10:15:00 PM 20.52 68.936 0.385 7.85 5.85 8.15
8/24/2023 10:30:00 PM 20.51 68.918 0.385 7.83 5.05 8.09
8/24/2023 10:45:00 PM 20.49 68.882 0.385 7.83 5.32 8.07
8/24/2023 11:00:00 PM 20.47 68.846 0.385 7.82 6.79 8.01
8/24/2023 11:15:00 PM 20.46 68.828 0.385 7.81 6.7 7.96
8/24/2023 11:30:00 PM 20.45 68.81 0.386 7.8 8.13 7.93
8/24/2023 11:45:00 PM 20.43 68.774 0.386 7.79 5.31 7.87
8/25/2023 12:00:00 AM 20.42 68.756 0.386 7.79 5.14 7.84
8/25/2023 12:15:00 AM 20.41 68.738 0.386 7.78 5.14 7.8
8/25/2023 12:30:00 AM 20.4 68.72 0.386 7.78 5.34 7.78
8/25/2023 12:45:00 AM 20.39 68.702 0.386 7.77 5.24 7.73
8/25/2023 1:00:00 AM 20.28 68.504 0.371 7.74 17.74 7.81
8/25/2023 1:15:00 AM 20.33 68.594 0.38 7.77 8.35 7.73
8/25/2023 1:30:00 AM 20.27 68.486 0.372 7.76 17.14 7.77
8/25/2023 1:45:00 AM 20.31 68.558 0.38 7.76 7.65 7.72
8/25/2023 2:00:00 AM 20.28 68.504 0.374 7.74 15.62 7.72
8/25/2023 2:15:00 AM 20.24 68.432 0.371 7.74 16.34 7.76
8/25/2023 2:30:00 AM 20.22 68.396 0.375 7.73 13.82 7.72
8/25/2023 2:45:00 AM 20.19 68.342 0.374 7.74 23.77 7.72
8/25/2023 3:00:00 AM 20.13 68.234 0.371 7.73 46.32 7.76
8/25/2023 3:15:00 AM 20.08 68.144 0.368 7.72 96.38 7.77
8/25/2023 3:30:00 AM 20.04 68.07201 0.367 7.72 110.3 7.78
8/25/2023 3:45:00 AM 20 68 0.365 7.71 114.84 7.75
8/25/2023 4:00:00 AM 19.89 67.802 0.36 7.69 93.57 7.76
8/25/2023 4:15:00 AM 19.74 67.532 0.353 7.66 88.71 7.75
8/25/2023 4:30:00 AM 19.65 67.37 0.348 7.63 78.35 7.73
8/25/2023 4:45:00 AM 19.57 67.226 0.343 7.61 65.33 7.73
8/25/2023 5:00:00 AM 19.53 67.154 0.342 7.59 54.04 7.69
8/25/2023 5:15:00 AM 19.51 67.118 0.34 7.58 46.85 7.67
8/25/2023 5:30:00 AM 19.52 67.136 0.343 7.56 41.25 7.63
8/25/2023 5:45:00 AM 19.54 67.172 0.346 7.55 37.25 7.57
8/25/2023 6:00:00 AM 19.56 67.208 0.348 7.54 30.02 7.52
8/25/2023 6:15:00 AM 19.57 67.226 0.35 7.54 26.15 7.47
8/25/2023 6:30:00 AM 19.59 67.262 0.353 7.53 23.96 7.43
8/25/2023 6:45:00 AM 19.6 67.28 0.355 7.5 20.85 7.39
8/25/2023 7:00:00 AM 19.62 67.316 0.357 7.5 20.33 7.35
8/25/2023 7:15:00 AM 19.64 67.352 0.359 7.37 17.42 7.33
8/25/2023 7:30:00 AM 19.66 67.388 0.361 7.5 14.42 7.29
8/25/2023 7:45:00 AM 19.69 67.442 0.362 7.38 14.22 7.29
8/25/2023 8:00:00 AM 19.71 67.478 0.364 7.49 12.29 7.25
8/25/2023 8:15:00 AM 19.73 67.514 0.365 7.51 12.14 7.27
8/25/2023 8:30:00 AM 19.77 67.586 0.366 7.51 10.82 7.3
8/25/2023 8:45:00 AM 19.79 67.622 0.367 7.52 10.35 7.31
8/25/2023 9:00:00 AM 19.82 67.676 0.368 7.53 8.68 7.35
8/25/2023 9:15:00 AM 19.85 67.73 0.369 7.53 9.6 7.39
8/25/2023 9:30:00 AM 19.87 67.766 0.37 7.54 8.47 7.44
8/25/2023 9:45:00 AM 19.9 67.82 0.37 7.57 8.44 7.5
8/25/2023 10:00:00 AM 19.92 67.856 0.371 7.55 8.87 7.57
8/25/2023 10:15:00 AM 19.94 67.892 0.372 7.58 10.16 7.63
8/25/2023 10:30:00 AM 19.97 67.946 0.373 7.59 10.08 7.69
8/25/2023 10:45:00 AM 19.98 67.964 0.373 7.61 8.66 7.75
8/25/2023 11:00:00 AM 20.01 68.018 0.374 7.63 8.72 7.83
8/25/2023 11:15:00 AM 20.05 68.09 0.375 7.64 9.21 7.92
8/25/2023 11:30:00 AM 20.08 68.144 0.375 7.66 9.2 7.99
8/25/2023 11:45:00 AM 20.1 68.18 0.376 7.62 10.41 8.05
8/25/2023 12:00:00 PM 20.14 68.252 0.376 7.69 7.75 8.16
8/25/2023 12:15:00 PM 20.22 68.396 0.377 7.71 7.26 8.31
8/25/2023 12:30:00 PM 20.31 68.558 0.377 7.74 7.05 8.43
8/25/2023 12:45:00 PM 20.4 68.72 0.377 7.76 7.71 8.57
8/25/2023 1:00:00 PM 20.47 68.846 0.378 7.78 7.73 8.68
8/25/2023 1:15:00 PM 20.52 68.936 0.378 7.8 7.01 8.79
8/25/2023 1:30:00 PM 20.6 69.08 0.379 7.83 7.14 8.92
8/25/2023 1:45:00 PM 20.68 69.224 0.379 7.85 8.07 9.02
8/25/2023 2:00:00 PM 20.76 69.368 0.38 7.87 7.92 9.12
8/25/2023 2:15:00 PM 20.87 69.566 0.381 7.9 7.25 9.23
8/25/2023 2:30:00 PM 21.01 69.818 0.381 7.93 7.74 9.37
8/25/2023 2:45:00 PM 21.13 70.034 0.382 7.96 7.24 9.46
8/25/2023 3:00:00 PM 21.21 70.17799 0.382 8 7.03 9.56
8/25/2023 3:15:00 PM 21.26 70.268 0.382 8 6.69 9.64
8/25/2023 3:30:00 PM 21.29 70.32201 0.381 8.02 6.58 9.69
8/25/2023 3:45:00 PM 21.32 70.376 0.381 8.05 6.19 9.73
8/25/2023 4:00:00 PM 21.35 70.43 0.38 8.05 6.07 9.79
8/25/2023 4:15:00 PM 21.4 70.52 0.379 8.12 6.65 9.83
8/25/2023 4:30:00 PM 21.45 70.61 0.378 8.09 6.51 9.85
8/25/2023 4:45:00 PM 21.49 70.682 0.376 8.1 6.28 9.89
8/25/2023 5:00:00 PM 21.54 70.772 0.375 8.1 7.01 9.91
8/25/2023 5:15:00 PM 21.58 70.844 0.374 8.11 7.12 9.93
8/25/2023 5:30:00 PM 21.63 70.934 0.372 8.13 6.87 9.95
8/25/2023 5:45:00 PM 21.66 70.988 0.371 8.14 6.78 9.96
8/25/2023 6:00:00 PM 21.67 71.006 0.37 8.14 6.46 9.95
8/25/2023 6:15:00 PM 21.66 70.988 0.368 8.14 6.46 9.9
8/25/2023 6:30:00 PM 21.64 70.952 0.367 8.14 6.33 9.86
8/25/2023 6:45:00 PM 21.61 70.898 0.366 8.15 6.48 9.8
8/25/2023 7:00:00 PM 21.59 70.862 0.364 8.12 6.98 9.72
8/25/2023 7:15:00 PM 21.58 70.844 0.363 8.11 6.67 9.65
8/25/2023 7:30:00 PM 21.56 70.808 0.362 8.09 6.59 9.58
8/25/2023 7:45:00 PM 21.55 70.79 0.361 7.98 6.88 9.48
8/25/2023 8:00:00 PM 21.53 70.754 0.359 8.08 6.99 9.35
8/25/2023 8:15:00 PM 21.51 70.718 0.358 8.03 6.21 9.27
8/25/2023 8:30:00 PM 21.5 70.7 0.357 8.02 6.85 9.18
8/25/2023 8:45:00 PM 21.48 70.664 0.356 7.99 6.58 9.08
8/25/2023 9:00:00 PM 21.46 70.628 0.355 7.96 7.7 8.97
8/25/2023 9:15:00 PM 21.44 70.592 0.354 7.95 6.64 8.87
8/25/2023 9:30:00 PM 21.42 70.556 0.353 7.92 7.08 8.77
8/25/2023 9:45:00 PM 21.4 70.52 0.351 7.91 6.83 8.68
8/25/2023 10:00:00 PM 21.38 70.484 0.35 7.88 8.02 8.59
8/25/2023 10:15:00 PM 21.37 70.466 0.349 7.86 7.48 8.51
8/25/2023 10:30:00 PM 21.35 70.43 0.348 7.84 7.45 8.43
8/25/2023 10:45:00 PM 21.33 70.394 0.347 7.82 7.76 8.35
8/25/2023 11:00:00 PM 21.31 70.358 0.346 7.81 7.59 8.29
8/25/2023 11:15:00 PM 21.29 70.32201 0.345 7.79 7.79 8.21
8/25/2023 11:30:00 PM 21.28 70.304 0.345 7.77 7.93 8.15
8/25/2023 11:45:00 PM 21.27 70.286 0.344 7.76 7.5 8.09
8/26/2023 12:00:00 AM 21.25 70.25 0.343 7.74 8.57 8.05
8/26/2023 12:15:00 AM 21.23 70.214 0.342 7.73 7.62 7.99
8/26/2023 12:30:00 AM 21.22 70.196 0.342 7.72 8.31 7.95
8/26/2023 12:45:00 AM 21.2 70.16 0.341 7.71 7.39 7.9
8/26/2023 1:00:00 AM 21.19 70.142 0.341 7.64 7.5 7.86
8/26/2023 1:15:00 AM 21.18 70.124 0.34 7.7 7.79 7.83
8/26/2023 1:30:00 AM 21.17 70.106 0.34 7.69 7.14 7.79
8/26/2023 1:45:00 AM 21.15 70.07 0.339 7.68 7.17 7.76
8/26/2023 2:00:00 AM 21.14 70.052 0.339 7.67 7.36 7.72
8/26/2023 2:15:00 AM 21.13 70.034 0.339 7.67 7.46 7.68
8/26/2023 2:30:00 AM 21.12 70.016 0.338 7.66 7.49 7.65
8/26/2023 2:45:00 AM 21.11 69.998 0.338 7.65 7.64 7.61
8/26/2023 3:00:00 AM 21.1 69.98 0.338 7.64 8.37 7.57
8/26/2023 3:15:00 AM 21.09 69.962 0.338 7.64 7.81 7.55
8/26/2023 3:30:00 AM 21.08 69.944 0.337 7.63 7.65 7.52
8/26/2023 3:45:00 AM 21.08 69.944 0.337 7.62 7.71 7.48
8/26/2023 4:00:00 AM 21.07 69.926 0.337 7.62 8.01 7.46
8/26/2023 4:15:00 AM 21.06 69.908 0.337 7.61 8.12 7.44
8/26/2023 4:30:00 AM 21.04 69.872 0.337 7.61 7.38 7.41
8/26/2023 4:45:00 AM 21.03 69.854 0.337 7.6 7.16 7.39
8/26/2023 5:00:00 AM 21.02 69.836 0.337 7.59 7.89 7.36
8/26/2023 5:15:00 AM 21.01 69.818 0.337 7.59 7.54 7.34
8/26/2023 5:30:00 AM 20.99 69.782 0.337 7.58 8.42 7.32
8/26/2023 5:45:00 AM 20.98 69.764 0.336 7.58 7.77 7.29
8/26/2023 6:00:00 AM 20.96 69.728 0.336 7.58 8.28 7.27
8/26/2023 6:15:00 AM 20.94 69.692 0.336 7.57 8.6 7.25
8/26/2023 6:30:00 AM 20.93 69.674 0.336 7.57 8.01 7.24
8/26/2023 6:45:00 AM 20.91 69.638 0.336 7.57 8.05 7.23
8/26/2023 7:00:00 AM 20.9 69.62 0.336 7.57 9.03 7.22
8/26/2023 7:15:00 AM 20.89 69.602 0.336 7.56 7.71 7.21
8/26/2023 7:30:00 AM 20.88 69.584 0.336 7.51 7.79 7.23
8/26/2023 7:45:00 AM 20.9 69.62 0.336 7.57 8.04 7.26
8/26/2023 8:00:00 AM 20.91 69.638 0.336 7.58 7.24 7.31
8/26/2023 8:15:00 AM 20.94 69.692 0.336 7.59 8.33 7.37
8/26/2023 8:30:00 AM 20.98 69.764 0.336 7.6 7.65 7.45
8/26/2023 8:45:00 AM 21.03 69.854 0.336 7.61 6.9 7.56
8/26/2023 9:00:00 AM 21.07 69.926 0.336 7.63 7.01 7.64
8/26/2023 9:15:00 AM 21.11 69.998 0.336 7.65 7.62 7.75
8/26/2023 9:30:00 AM 21.16 70.088 0.336 7.67 7.02 7.87
8/26/2023 9:45:00 AM 21.22 70.196 0.336 7.69 7.78 8
8/26/2023 10:00:00 AM 21.28 70.304 0.336 7.71 7.51 8.1
8/26/2023 10:15:00 AM 21.34 70.412 0.336 7.73 6.67 8.21
8/26/2023 10:30:00 AM 21.37 70.466 0.336 7.75 6.51 8.31
8/26/2023 10:45:00 AM 21.41 70.538 0.336 7.77 6.38 8.41
8/26/2023 11:00:00 AM 21.47 70.646 0.335 7.79 7.35 8.52
8/26/2023 11:15:00 AM 21.55 70.79 0.336 7.81 7.35 8.62
8/26/2023 11:30:00 AM 21.62 70.916 0.336 7.84 5.58 8.73
8/26/2023 11:45:00 AM 21.68 71.024 0.335 7.86 5.45 8.78
8/26/2023 12:00:00 PM 21.79 71.222 0.335 7.89 5.05 8.94
8/26/2023 12:15:00 PM 21.92 71.456 0.335 7.91 5.24 9.05
8/26/2023 12:30:00 PM 22.02 71.636 0.335 7.94 5.14 9.19
8/26/2023 12:45:00 PM 22.14 71.852 0.335 7.97 5.38 9.27
8/26/2023 1:00:00 PM 22.27 72.086 0.335 8.01 5.19 9.41
8/26/2023 1:15:00 PM 22.39 72.302 0.335 8.04 4.45 9.52
8/26/2023 1:30:00 PM 22.47 72.446 0.335 8.07 4.23 9.62
8/26/2023 1:45:00 PM 22.59 72.662 0.335 8.1 4.05 9.73
8/26/2023 2:00:00 PM 22.71 72.878 0.335 8.13 4.03 9.84
8/26/2023 2:15:00 PM 22.84 73.112 0.334 8.16 7.41 9.92
8/26/2023 2:30:00 PM 22.92 73.256 0.334 8.18 3.84 9.97
8/26/2023 2:45:00 PM 22.97 73.346 0.334 8.2 4.1 10
8/26/2023 3:00:00 PM 23.01 73.418 0.334 8.23 4.16 10.06
8/26/2023 3:15:00 PM 23.06 73.508 0.333 8.2 3.93 10.09
8/26/2023 3:30:00 PM 23.14 73.652 0.333 8.26 4.05 10.14
8/26/2023 3:45:00 PM 23.21 73.778 0.332 8.29 4.04 10.21
8/26/2023 4:00:00 PM 23.25 73.85 0.332 8.3 3.89 10.23
8/26/2023 4:15:00 PM 23.3 73.94 0.332 8.31 4.9 10.22
8/26/2023 4:30:00 PM 23.34 74.012 0.331 8.32 3.89 10.23
8/26/2023 4:45:00 PM 23.38 74.084 0.331 8.33 4.46 10.26
8/26/2023 5:00:00 PM 23.41 74.138 0.33 8.34 4.25 10.26
8/26/2023 5:15:00 PM 23.44 74.192 0.33 8.35 4.1 10.23
8/26/2023 5:30:00 PM 23.47 74.246 0.329 8.37 3.94 10.24
8/26/2023 5:45:00 PM 23.48 74.264 0.329 8.36 4.46 10.21
8/26/2023 6:00:00 PM 23.49 74.282 0.328 8.38 4.06 10.21
8/26/2023 6:15:00 PM 23.47 74.246 0.328 8.38 4.26 10.17
8/26/2023 6:30:00 PM 23.44 74.192 0.328 8.37 4.47 10.1
8/26/2023 6:45:00 PM 23.41 74.138 0.327 8.37 3.89 10.04
8/26/2023 7:00:00 PM 23.38 74.084 0.327 8.36 4.53 9.97
8/26/2023 7:15:00 PM 23.35 74.03 0.327 8.35 4.63 9.88
8/26/2023 7:30:00 PM 23.32 73.976 0.326 8.34 4.51 9.79
8/26/2023 7:45:00 PM 23.29 73.922 0.326 8.32 5.61 9.68
8/26/2023 8:00:00 PM 23.24 73.832 0.326 8.31 5.63 9.58
8/26/2023 8:15:00 PM 23.19 73.742 0.326 8.28 5.04 9.47
8/26/2023 8:30:00 PM 23.13 73.634 0.325 8.26 5.11 9.34
8/26/2023 8:45:00 PM 23.08 73.544 0.325 8.23 5.02 9.23
8/26/2023 9:00:00 PM 23.02 73.436 0.325 8.21 5.01 9.12
8/26/2023 9:15:00 PM 22.97 73.346 0.325 8.18 4.93 9.01
8/26/2023 9:30:00 PM 22.92 73.256 0.325 8.16 5.16 8.91
8/26/2023 9:45:00 PM 22.87 73.166 0.325 8.13 5.44 8.81
8/26/2023 10:00:00 PM 22.83 73.094 0.325 8.11 5.34 8.71
8/26/2023 10:15:00 PM 22.79 73.022 0.324 8.09 4.74 8.62
8/26/2023 10:30:00 PM 22.75 72.95 0.324 8.06 5.7 8.52
8/26/2023 10:45:00 PM 22.71 72.878 0.324 8.04 5.12 8.44
8/26/2023 11:00:00 PM 22.67 72.806 0.324 8.01 5.17 8.35
8/26/2023 11:15:00 PM 22.64 72.752 0.323 7.99 5.57 8.26
8/26/2023 11:30:00 PM 22.61 72.698 0.323 7.97 5.02 8.19
8/26/2023 11:45:00 PM 22.57 72.626 0.323 7.95 5.48 8.12
8/27/2023 12:00:00 AM 22.55 72.59 0.323 7.94 5.64 8.05
8/27/2023 12:15:00 AM 22.52 72.536 0.323 7.91 5.18 7.98
8/27/2023 12:30:00 AM 22.49 72.482 0.323 7.9 5.48 7.93
8/27/2023 12:45:00 AM 22.46 72.42799 0.323 7.88 5.72 7.86
8/27/2023 1:00:00 AM 22.44 72.392 0.324 7.86 5.91 7.81
8/27/2023 1:15:00 AM 22.4 72.32 0.324 7.85 5.3 7.76
8/27/2023 1:30:00 AM 22.37 72.266 0.324 7.84 5.39 7.72
8/27/2023 1:45:00 AM 22.34 72.212 0.324 7.83 6.33 7.67
8/27/2023 2:00:00 AM 22.31 72.158 0.324 7.82 5.73 7.63
8/27/2023 2:15:00 AM 22.29 72.122 0.324 7.8 5.85 7.58
8/27/2023 2:30:00 AM 22.27 72.086 0.324 7.79 5.61 7.55
8/27/2023 2:45:00 AM 22.25 72.05 0.325 7.78 6.19 7.52
8/27/2023 3:00:00 AM 22.23 72.014 0.325 7.77 5.78 7.47
8/27/2023 3:15:00 AM 22.2 71.96 0.325 7.76 6 7.44
8/27/2023 3:30:00 AM 22.18 71.924 0.325 7.74 7.29 7.4
8/27/2023 3:45:00 AM 22.16 71.888 0.325 7.74 5.6 7.37
8/27/2023 4:00:00 AM 22.13 71.834 0.326 7.73 6.17 7.33
8/27/2023 4:15:00 AM 22.11 71.798 0.326 7.72 5.63 7.31
8/27/2023 4:30:00 AM 22.08 71.744 0.326 7.71 6.06 7.25
8/27/2023 4:45:00 AM 22.06 71.708 0.327 7.71 6.05 7.23
8/27/2023 5:00:00 AM 22.02 71.636 0.327 7.69 5.51 7.2
8/27/2023 5:15:00 AM 21.99 71.582 0.327 7.68 5.67 7.17
8/27/2023 5:30:00 AM 21.96 71.528 0.327 7.68 5.79 7.14
8/27/2023 5:45:00 AM 21.93 71.474 0.328 7.67 5.28 7.1
8/27/2023 6:00:00 AM 21.9 71.42 0.328 7.66 5.87 7.06
8/27/2023 6:15:00 AM 21.87 71.366 0.328 7.65 5.58 7.04
8/27/2023 6:30:00 AM 21.84 71.312 0.329 7.64 5.63 7.01
8/27/2023 6:45:00 AM 21.8 71.24 0.329 7.63 5.97 6.99
8/27/2023 7:00:00 AM 21.77 71.186 0.329 7.62 5.81 6.97
8/27/2023 7:15:00 AM 21.73 71.114 0.329 7.62 5.44 6.97
8/27/2023 7:30:00 AM 21.71 71.078 0.33 7.61 5.86 6.96
8/27/2023 7:45:00 AM 21.69 71.042 0.33 7.61 5.29 6.96
8/27/2023 8:00:00 AM 21.67 71.006 0.33 7.61 5.6 6.97
8/27/2023 8:15:00 AM 21.66 70.988 0.331 7.61 5.86 7
8/27/2023 8:30:00 AM 21.66 70.988 0.331 7.62 5.24 7.04
8/27/2023 8:45:00 AM 21.64 70.952 0.331 7.62 5.55 7.08
8/27/2023 9:00:00 AM 21.64 70.952 0.331 7.63 5.39 7.1
8/27/2023 9:15:00 AM 21.63 70.934 0.332 7.64 5.62 7.21
8/27/2023 9:30:00 AM 21.62 70.916 0.332 7.65 5.48 7.26
8/27/2023 9:45:00 AM 21.62 70.916 0.332 7.66 5.4 7.37
8/27/2023 10:00:00 AM 21.64 70.952 0.332 7.68 5.2 7.49
8/27/2023 10:15:00 AM 21.66 70.988 0.332 7.7 5.36 7.63
8/27/2023 10:30:00 AM 21.71 71.078 0.333 7.72 5.44 7.74
8/27/2023 10:45:00 AM 21.77 71.186 0.333 7.75 5.5 7.87
8/27/2023 11:00:00 AM 21.84 71.312 0.333 7.77 5.44 8.03
8/27/2023 11:15:00 AM 21.94 71.492 0.333 7.81 5.33 8.19
8/27/2023 11:30:00 AM 22.08 71.744 0.333 7.86 5.1 8.39
8/27/2023 11:45:00 AM 22.21 71.978 0.333 7.87 5.41 8.58
8/27/2023 12:00:00 PM 22.38 72.284 0.333 7.95 5.29 8.79
8/27/2023 12:15:00 PM 22.52 72.536 0.333 7.99 5.18 8.96
8/27/2023 12:30:00 PM 22.65 72.77 0.333 8.03 4.93 9.12
8/27/2023 12:45:00 PM 22.78 73.004 0.333 8.07 4.42 9.26
8/27/2023 1:00:00 PM 22.9 73.22 0.333 8.12 4.4 9.42
8/27/2023 1:15:00 PM 23.01 73.418 0.333 8.15 4.52 9.51
8/27/2023 1:30:00 PM 23.14 73.652 0.333 8.17 4.29 9.65
8/27/2023 1:45:00 PM 23.21 73.778 0.333 8.22 4.44 9.77
8/27/2023 2:00:00 PM 23.3 73.94 0.333 8.25 4.28 9.88
8/27/2023 2:15:00 PM 23.41 74.138 0.333 8.28 4.32 9.99
8/27/2023 2:30:00 PM 23.51 74.318 0.333 8.31 4.05 10.11
8/27/2023 2:45:00 PM 23.58 74.444 0.333 8.34 4.19 10.17
8/27/2023 3:00:00 PM 23.65 74.57 0.333 8.36 4.08 10.26
8/27/2023 3:15:00 PM 23.69 74.642 0.333 8.38 3.99 10.31
8/27/2023 3:30:00 PM 23.73 74.714 0.333 8.4 4.09 10.37
8/27/2023 3:45:00 PM 23.75 74.75 0.333 8.42 4.07 10.4
8/27/2023 4:00:00 PM 23.75 74.75 0.333 8.41 4.04 10.4
8/27/2023 4:15:00 PM 23.74 74.732 0.333 8.44 4.04 10.42
8/27/2023 4:30:00 PM 23.73 74.714 0.333 8.45 4.08 10.4
8/27/2023 4:45:00 PM 23.73 74.714 0.333 8.46 3.9 10.41
8/27/2023 5:00:00 PM 23.73 74.714 0.333 8.46 3.89 10.43
8/27/2023 5:15:00 PM 23.72 74.696 0.333 8.47 3.94 10.43
8/27/2023 5:30:00 PM 23.71 74.67799 0.333 8.48 3.72 10.4
8/27/2023 5:45:00 PM 23.69 74.642 0.333 8.48 3.89 10.37
8/27/2023 6:00:00 PM 23.68 74.624 0.333 8.49 4.32 10.36
8/27/2023 6:15:00 PM 23.65 74.57 0.333 8.49 4.35 10.31
8/27/2023 6:30:00 PM 23.59 74.462 0.333 8.48 4.27 10.25
8/27/2023 6:45:00 PM 23.53 74.354 0.333 8.48 4.42 10.17
8/27/2023 7:00:00 PM 23.47 74.246 0.333 8.47 4.58 10.1
8/27/2023 7:15:00 PM 23.41 74.138 0.333 8.46 4.4 10
8/27/2023 7:30:00 PM 23.34 74.012 0.334 8.45 4.93 9.89
8/27/2023 7:45:00 PM 23.28 73.904 0.334 8.43 5.44 9.78
8/27/2023 8:00:00 PM 23.21 73.778 0.334 8.41 5.52 9.65
8/27/2023 8:15:00 PM 23.14 73.652 0.334 8.39 6.74 9.52
8/27/2023 8:30:00 PM 23.07 73.526 0.335 8.37 5.67 9.42
8/27/2023 8:45:00 PM 23 73.4 0.335 8.34 4.9 9.3
8/27/2023 9:00:00 PM 22.94 73.292 0.335 8.32 4.61 9.19
8/27/2023 9:15:00 PM 22.89 73.202 0.336 8.31 4.56 9.09
8/27/2023 9:30:00 PM 22.84 73.112 0.336 8.29 4.44 8.99
8/27/2023 9:45:00 PM 22.77 72.986 0.336 8.26 4.58 8.89
8/27/2023 10:00:00 PM 22.72 72.896 0.337 8.24 5.39 8.79
8/27/2023 10:15:00 PM 22.65 72.77 0.337 8.22 5.09 8.71
8/27/2023 10:30:00 PM 22.58 72.644 0.337 8.2 4.78 8.61
8/27/2023 10:45:00 PM 22.52 72.536 0.338 8.17 5.21 8.53
8/27/2023 11:00:00 PM 22.44 72.392 0.338 8.14 4.76 8.42
8/27/2023 11:15:00 PM 22.37 72.266 0.338 8.12 4.9 8.34
8/27/2023 11:30:00 PM 22.29 72.122 0.339 8.08 5.67 8.26
8/27/2023 11:45:00 PM 22.21 71.978 0.339 8.06 5.3 8.18
8/28/2023 12:00:00 AM 22.12 71.816 0.339 8.04 5.87 8.11
8/28/2023 12:15:00 AM 22.05 71.69 0.34 8.01 5.51 8.04
8/28/2023 12:30:00 AM 21.96 71.528 0.34 7.98 6.94 7.97
8/28/2023 12:45:00 AM 21.88 71.384 0.34 7.96 5.44 7.91
8/28/2023 1:00:00 AM 21.8 71.24 0.341 7.95 5.05 7.87
8/28/2023 1:15:00 AM 21.72 71.096 0.341 7.93 5.75 7.81
8/28/2023 1:30:00 AM 21.64 70.952 0.341 7.9 6 7.77
8/28/2023 1:45:00 AM 21.56 70.808 0.342 7.89 6.09 7.74
8/28/2023 2:00:00 AM 21.5 70.7 0.342 7.87 5.97 7.7
8/28/2023 2:15:00 AM 21.43 70.574 0.342 7.86 7.37 7.66
8/28/2023 2:30:00 AM 21.36 70.448 0.342 7.85 6.44 7.63
8/28/2023 2:45:00 AM 21.3 70.34 0.343 7.83 6.36 7.61
8/28/2023 3:00:00 AM 21.25 70.25 0.343 7.82 5.94 7.57
8/28/2023 3:15:00 AM 21.2 70.16 0.343 7.81 6.59 7.55
8/28/2023 3:30:00 AM 21.15 70.07 0.343 7.79 6.51 7.52
8/28/2023 3:45:00 AM 21.09 69.962 0.344 7.79 6.28 7.49
8/28/2023 4:00:00 AM 21.05 69.89 0.344 7.78 6.55 7.47
8/28/2023 4:15:00 AM 21.01 69.818 0.344 7.77 6.08 7.44
8/28/2023 4:30:00 AM 20.97 69.746 0.344 7.75 6.6 7.42
8/28/2023 4:45:00 AM 20.93 69.674 0.345 7.75 6.27 7.41
8/28/2023 5:00:00 AM 20.9 69.62 0.345 7.74 6.76 7.37
8/28/2023 5:15:00 AM 20.86 69.548 0.345 7.73 6.14 7.34
8/28/2023 5:30:00 AM 20.82 69.476 0.345 7.72 6.09 7.32
8/28/2023 5:45:00 AM 20.78 69.404 0.346 7.71 6.33 7.3
8/28/2023 6:00:00 AM 20.75 69.35 0.346 7.7 6.41 7.28
8/28/2023 6:15:00 AM 20.72 69.296 0.346 7.69 6.43 7.25
8/28/2023 6:30:00 AM 20.68 69.224 0.346 7.68 6.39 7.23
8/28/2023 6:45:00 AM 20.65 69.17 0.346 7.68 6.37 7.2
8/28/2023 7:00:00 AM 20.61 69.098 0.347 7.67 7.18 7.2
8/28/2023 7:15:00 AM 20.55 68.99 0.346 7.66 6.63 7.2
8/28/2023 7:30:00 AM 20.53 68.954 0.346 7.66 6 7.2
8/28/2023 7:45:00 AM 20.49 68.882 0.346 7.65 6.03 7.19
8/28/2023 8:00:00 AM 20.46 68.828 0.346 7.65 6.42 7.18
8/28/2023 8:15:00 AM 20.43 68.774 0.346 7.64 6.48 7.19
8/28/2023 8:30:00 AM 20.41 68.738 0.346 7.64 6.34 7.19
8/28/2023 8:45:00 AM 20.38 68.684 0.346 7.64 6.25 7.2
8/28/2023 9:00:00 AM 20.23 68.414 0.34 7.64 12.24 7.32
8/28/2023 9:15:00 AM 20.15 68.27 0.339 7.65 9.83 7.42
8/28/2023 9:30:00 AM 20.09 68.162 0.336 7.64 9.02 7.47
8/28/2023 9:45:00 AM 20.04 68.07201 0.336 7.65 11.92 7.53
8/28/2023 10:00:00 AM 19.96 67.92799 0.335 7.65 61.74 7.55
8/28/2023 10:15:00 AM 19.82 67.676 0.332 7.65 153.01 7.63
8/28/2023 10:30:00 AM 19.57 67.226 0.321 7.66 207.86 7.81
8/28/2023 10:45:00 AM 18.86 65.948 0.283 7.66 223.7 8.14
8/28/2023 11:00:00 AM 18.65 65.57 0.285 7.63 288.39 8.24
8/28/2023 11:15:00 AM 18.38 65.084 0.257 7.64 1013.07 8.54
8/28/2023 11:30:00 AM 17.99 64.382 0.229 7.59 1191.84 8.73
8/28/2023 11:45:00 AM 17.45 63.41 0.193 7.53 1296.06 8.93
8/28/2023 12:00:00 PM 16.86 62.348 0.159 7.46 1451.25 9.11
8/28/2023 12:15:00 PM 16.6 61.88 0.142 7.33 1315.92 9.18
8/28/2023 12:30:00 PM 16.5 61.7 0.137 7.36 1310.13 9.19
8/28/2023 12:45:00 PM 16.45 61.61 0.135 7.33 1207.49 9.17
8/28/2023 1:00:00 PM 16.45 61.61 0.134 7.3 1131.38 9.15
8/28/2023 1:15:00 PM 16.47 61.646 0.136 7.29 1030.67 9.13
8/28/2023 1:30:00 PM 16.52 61.736 0.14 7.3 976.18 9.11
8/28/2023 1:45:00 PM 16.58 61.844 0.142 7.31 836.17 9.09
8/28/2023 2:00:00 PM 16.67 62.006 0.147 7.32 728.34 9.07
8/28/2023 2:15:00 PM 16.72 62.096 0.149 7.32 692.46 9.05
8/28/2023 2:30:00 PM 16.84 62.312 0.156 7.33 535.51 9.01
8/28/2023 2:45:00 PM 16.93 62.474 0.161 7.33 570.83 8.99
8/28/2023 3:00:00 PM 17.02 62.636 0.165 7.34 518.99 8.97
8/28/2023 3:15:00 PM 17.09 62.762 0.168 7.34 470.94 8.95
8/28/2023 3:30:00 PM 17.22 62.996 0.172 7.35 466.87 8.92
8/28/2023 3:45:00 PM 17.32 63.176 0.177 7.36 385.36 8.88
8/28/2023 4:00:00 PM 17.42 63.356 0.181 7.37 365.2 8.86
8/28/2023 4:15:00 PM 17.5 63.5 0.186 7.38 331.46 8.82
8/28/2023 4:30:00 PM 17.58 63.644 0.191 7.38 478.26 8.79
8/28/2023 4:45:00 PM 17.68 63.824 0.196 7.39 281.5 8.76
8/28/2023 5:00:00 PM 17.77 63.986 0.201 7.4 260.37 8.74
8/28/2023 5:15:00 PM 17.82 64.076 0.204 7.4 241.88 8.71
8/28/2023 5:30:00 PM 17.89 64.202 0.208 7.41 231.87 8.69
8/28/2023 5:45:00 PM 17.94 64.292 0.211 7.41 230.39 8.67
8/28/2023 6:00:00 PM 17.96 64.328 0.212 7.41 224.01 8.65
8/28/2023 6:15:00 PM 17.99 64.382 0.214 7.41 193.46 8.63
8/28/2023 6:30:00 PM 18 64.4 0.215 7.41 198.2 8.62
8/28/2023 6:45:00 PM 18 64.4 0.215 7.38 168.47 8.6
8/28/2023 7:00:00 PM 18.04 64.472 0.217 7.41 167.54 8.58
8/28/2023 7:15:00 PM 18.06 64.508 0.217 7.41 177.47 8.56
8/28/2023 7:30:00 PM 18.12 64.616 0.219 7.42 176.62 8.55
8/28/2023 7:45:00 PM 18.21 64.778 0.223 7.43 197.34 8.51
8/28/2023 8:00:00 PM 18.23 64.814 0.224 7.44 193.34 8.49
8/28/2023 8:15:00 PM 18.25 64.85 0.226 7.44 173.88 8.47
8/28/2023 8:30:00 PM 18.3 64.94 0.23 7.44 179.99 8.45
8/28/2023 8:45:00 PM 18.28 64.904 0.231 7.44 176.67 8.45
8/28/2023 9:00:00 PM 18.26 64.868 0.232 7.44 169.87 8.45
8/28/2023 9:15:00 PM 18.23 64.814 0.232 7.44 162.21 8.46
8/28/2023 9:30:00 PM 18.2 64.76 0.232 7.44 167.82 8.47
8/28/2023 9:45:00 PM 18.18 64.724 0.233 7.44 159.27 8.49
8/28/2023 10:00:00 PM 18.19 64.742 0.236 7.44 148.85 8.5
8/28/2023 10:15:00 PM 18.23 64.814 0.24 7.44 133.36 8.51
8/28/2023 10:30:00 PM 18.31 64.958 0.246 7.46 125.04 8.52
8/28/2023 10:45:00 PM 18.37 65.066 0.25 7.48 118.74 8.53
8/28/2023 11:00:00 PM 18.44 65.192 0.252 7.49 102.74 8.53
8/28/2023 11:15:00 PM 18.49 65.282 0.252 7.51 101.73 8.51
8/28/2023 11:30:00 PM 18.55 65.39 0.25 7.51 99.4 8.48
8/28/2023 11:45:00 PM 18.55 65.39 0.246 7.5 99.4 8.45
8/29/2023 12:00:00 AM 18.52 65.336 0.24 7.49 115.19 8.42
8/29/2023 12:15:00 AM 18.47 65.246 0.232 7.47 132.78 8.39
8/29/2023 12:30:00 AM 18.4 65.12 0.224 7.45 155.78 8.37
8/29/2023 12:45:00 AM 18.29 64.922 0.215 7.43 180.86 8.35
8/29/2023 1:00:00 AM 18.18 64.724 0.208 7.4 205.21 8.35
8/29/2023 1:15:00 AM 18.07 64.526 0.2 7.39 226.74 8.33
8/29/2023 1:30:00 AM 17.96 64.328 0.194 7.37 245.96 8.34
8/29/2023 1:45:00 AM 17.85 64.13 0.188 7.35 273.8 8.35
8/29/2023 2:00:00 AM 17.76 63.968 0.183 7.34 279.27 8.36
8/29/2023 2:15:00 AM 17.69 63.842 0.179 7.33 292.64 8.36
8/29/2023 2:30:00 AM 17.63 63.734 0.176 7.32 284.96 8.37
8/29/2023 2:45:00 AM 17.57 63.626 0.174 7.31 287.08 8.38
8/29/2023 3:00:00 AM 17.54 63.572 0.173 7.32 292.08 8.39
8/29/2023 3:15:00 AM 17.51 63.518 0.172 7.3 272.99 8.39
8/29/2023 3:30:00 AM 17.51 63.518 0.171 7.31 260.19 8.39
8/29/2023 3:45:00 AM 17.52 63.536 0.172 7.31 250.24 8.38
8/29/2023 4:00:00 AM 17.55 63.59 0.172 7.32 240.82 8.37
8/29/2023 4:15:00 AM 17.57 63.626 0.172 7.32 228.46 8.37
8/29/2023 4:30:00 AM 17.6 63.68 0.173 7.32 212.97 8.37
8/29/2023 4:45:00 AM 17.65 63.77 0.174 7.33 205.31 8.36
8/29/2023 5:00:00 AM 17.68 63.824 0.175 7.33 189.25 8.35
8/29/2023 5:15:00 AM 17.71 63.878 0.176 7.33 182.82 8.35
8/29/2023 5:30:00 AM 17.73 63.914 0.177 7.34 172.65 8.34
8/29/2023 5:45:00 AM 17.75 63.95 0.178 7.34 149.16 8.34
8/29/2023 6:00:00 AM 17.76 63.968 0.179 7.34 145.94 8.34
8/29/2023 6:15:00 AM 17.76 63.968 0.181 7.34 138.71 8.35
8/29/2023 6:30:00 AM 17.74 63.932 0.182 7.34 130.15 8.36
8/29/2023 6:45:00 AM 17.72 63.896 0.183 7.34 120.66 8.36
8/29/2023 7:00:00 AM 17.69 63.842 0.185 7.34 109.37 8.37
8/29/2023 7:15:00 AM 17.65 63.77 0.186 7.34 109.95 8.4
8/29/2023 7:30:00 AM 17.62 63.716 0.187 7.33 99.42 8.41
8/29/2023 7:45:00 AM 17.58 63.644 0.188 7.33 92.28 8.42
8/29/2023 8:00:00 AM 17.54 63.572 0.189 7.33 91.17 8.44
8/29/2023 8:15:00 AM 17.5 63.5 0.19 7.33 88.04 8.45
8/29/2023 8:30:00 AM 17.47 63.446 0.191 7.32 75.54 8.46
8/29/2023 8:45:00 AM 17.45 63.41 0.192 7.32 76.52 8.48
8/29/2023 9:00:00 AM 17.42 63.356 0.193 7.32 72.95 8.48
8/29/2023 9:15:00 AM 17.4 63.32 0.193 7.31 68.15 8.5
8/29/2023 9:30:00 AM 17.41 63.338 0.194 7.32 67.75 8.51
8/29/2023 9:45:00 AM 17.41 63.338 0.195 7.33 61.4 8.52
8/29/2023 10:00:00 AM 17.41 63.338 0.195 7.33 58.95 8.54
8/29/2023 10:15:00 AM 17.43 63.374 0.196 7.33 52.68 8.54
8/29/2023 10:30:00 AM 17.42 63.356 0.196 7.34 51.37 8.55
8/29/2023 10:45:00 AM 17.44 63.392 0.197 7.34 127.64 8.56
8/29/2023 11:00:00 AM 17.45 63.41 0.198 7.34 51.82 8.57
8/29/2023 11:15:00 AM 17.47 63.446 0.198 7.33 46.35 8.57
8/29/2023 11:30:00 AM 17.49 63.482 0.199 7.35 45.31 8.58
8/29/2023 11:45:00 AM 17.5 63.5 0.199 7.35 44.25 8.59
8/29/2023 12:00:00 PM 17.5 63.5 0.2 7.35 42.15 8.59
8/29/2023 12:15:00 PM 17.49 63.482 0.201 7.35 44.81 8.59
8/29/2023 12:30:00 PM 17.49 63.482 0.201 7.36 41.56 8.59
8/29/2023 12:45:00 PM 17.5 63.5 0.202 7.36 41.09 8.6
8/29/2023 1:00:00 PM 17.52 63.536 0.203 7.37 39.24 8.61
8/29/2023 1:15:00 PM 17.57 63.626 0.204 7.37 36.85 8.62
8/29/2023 1:30:00 PM 17.61 63.698 0.205 7.38 34.59 8.63
8/29/2023 1:45:00 PM 17.66 63.788 0.206 7.38 33.31 8.64
8/29/2023 2:00:00 PM 17.69 63.842 0.206 7.39 34.98 8.65
8/29/2023 2:15:00 PM 17.74 63.932 0.207 7.39 33.89 8.66
8/29/2023 2:30:00 PM 17.8 64.04 0.208 7.4 35.41 8.66
8/29/2023 2:45:00 PM 17.86 64.148 0.209 7.4 31.1 8.67
8/29/2023 3:00:00 PM 17.93 64.274 0.209 7.41 32.58 8.68
8/29/2023 3:15:00 PM 17.99 64.382 0.21 7.4 30.74 8.69
8/29/2023 3:30:00 PM 18.03 64.454 0.211 7.42 32.4 8.7
8/29/2023 3:45:00 PM 18.05 64.49 0.211 7.42 28.92 8.7
8/29/2023 4:00:00 PM 18.07 64.526 0.212 7.42 30.24 8.7
8/29/2023 4:15:00 PM 18.1 64.58 0.212 7.43 29.77 8.68
8/29/2023 4:30:00 PM 18.14 64.652 0.213 7.43 28.9 8.68
8/29/2023 4:45:00 PM 18.19 64.742 0.213 7.42 28.11 8.67
8/29/2023 5:00:00 PM 18.24 64.832 0.214 7.43 27.58 8.68
8/29/2023 5:15:00 PM 18.3 64.94 0.214 7.43 25.76 8.69
8/29/2023 5:30:00 PM 18.35 65.03 0.215 7.44 25.74 8.69
8/29/2023 5:45:00 PM 18.38 65.084 0.215 7.44 25.91 8.69
8/29/2023 6:00:00 PM 18.43 65.174 0.216 7.44 25.23 8.68
8/29/2023 6:15:00 PM 18.46 65.228 0.216 7.44 25.76 8.66
8/29/2023 6:30:00 PM 18.49 65.282 0.216 7.44 24.92 8.66
8/29/2023 6:45:00 PM 18.52 65.336 0.217 7.44 24.45 8.65
8/29/2023 7:00:00 PM 18.54 65.372 0.217 7.44 25.08 8.64
8/29/2023 7:15:00 PM 18.56 65.408 0.218 7.44 24.89 8.64
8/29/2023 7:30:00 PM 18.56 65.408 0.218 7.43 25.39 8.63
8/29/2023 7:45:00 PM 18.56 65.408 0.219 7.43 23.94 8.61
8/29/2023 8:00:00 PM 18.56 65.408 0.219 7.43 23.68 8.6
8/29/2023 8:15:00 PM 18.55 65.39 0.22 7.43 22.67 8.58
8/29/2023 8:30:00 PM 18.54 65.372 0.22 7.42 24.14 8.55
8/29/2023 8:45:00 PM 18.52 65.336 0.22 7.42 22.45 8.53
8/29/2023 9:00:00 PM 18.5 65.3 0.221 7.42 22.69 8.51
8/29/2023 9:15:00 PM 18.48 65.264 0.221 7.41 24.2 8.48
8/29/2023 9:30:00 PM 18.46 65.228 0.222 7.4 22.36 8.46
8/29/2023 9:45:00 PM 18.44 65.192 0.222 7.4 23.64 8.45
8/29/2023 10:00:00 PM 18.42 65.156 0.222 7.38 22.79 8.42
8/29/2023 10:15:00 PM 18.4 65.12 0.223 7.4 22.13 8.41
8/29/2023 10:30:00 PM 18.38 65.084 0.223 7.38 22.39 8.38
8/29/2023 10:45:00 PM 18.36 65.048 0.224 7.39 22.17 8.37
8/29/2023 11:00:00 PM 18.34 65.012 0.224 7.38 20.3 8.35
8/29/2023 11:15:00 PM 18.33 64.994 0.225 7.37 21.91 8.33
8/29/2023 11:30:00 PM 18.32 64.976 0.225 7.38 21.93 8.31
8/29/2023 11:45:00 PM 18.32 64.976 0.226 7.37 21.46 8.3
8/30/2023 12:00:00 AM 18.31 64.958 0.226 7.36 21.44 8.28
8/30/2023 12:15:00 AM 18.31 64.958 0.227 7.36 21 8.26
8/30/2023 12:30:00 AM 18.31 64.958 0.227 7.36 19.86 8.25
8/30/2023 12:45:00 AM 18.31 64.958 0.228 7.36 20.58 8.24
8/30/2023 1:00:00 AM 18.31 64.958 0.229 7.36 22.55 8.23
8/30/2023 1:15:00 AM 18.31 64.958 0.229 7.36 19.75 8.21
8/30/2023 1:30:00 AM 18.31 64.958 0.23 7.35 19.88 8.19
8/30/2023 1:45:00 AM 18.31 64.958 0.23 7.36 19.86 8.18
8/30/2023 2:00:00 AM 18.31 64.958 0.231 7.36 19.51 8.16
8/30/2023 2:15:00 AM 18.31 64.958 0.232 7.35 18.91 8.15
8/30/2023 2:30:00 AM 18.31 64.958 0.232 7.36 20.33 8.14
8/30/2023 2:45:00 AM 18.31 64.958 0.233 7.36 19.12 8.13
8/30/2023 3:00:00 AM 18.31 64.958 0.234 7.35 19.25 8.11
8/30/2023 3:15:00 AM 18.3 64.94 0.234 7.35 17.86 8.1
8/30/2023 3:30:00 AM 18.29 64.922 0.235 7.36 18.91 8.1
8/30/2023 3:45:00 AM 18.29 64.922 0.235 7.36 19.53 8.1
8/30/2023 4:00:00 AM 18.28 64.904 0.236 7.35 20.25 8.08
8/30/2023 4:15:00 AM 18.27 64.886 0.236 7.36 19.49 8.08
8/30/2023 4:30:00 AM 18.26 64.868 0.237 7.36 19.23 8.08
8/30/2023 4:45:00 AM 18.25 64.85 0.237 7.36 18.24 8.07
8/30/2023 5:00:00 AM 18.23 64.814 0.238 7.36 19.06 8.07
8/30/2023 5:15:00 AM 18.21 64.778 0.238 7.35 19.23 8.07
8/30/2023 5:30:00 AM 18.19 64.742 0.239 7.37 21.84 8.06
8/30/2023 5:45:00 AM 18.17 64.706 0.24 7.36 19.14 8.05
8/30/2023 6:00:00 AM 18.15 64.67 0.24 7.36 19.53 8.05
8/30/2023 6:15:00 AM 18.13 64.634 0.241 7.36 18.77 8.04
8/30/2023 6:30:00 AM 18.11 64.598 0.241 7.37 19.1 8.03
8/30/2023 6:45:00 AM 18.09 64.562 0.242 7.37 18.74 8.04
8/30/2023 7:00:00 AM 18.08 64.544 0.242 7.37 17.85 8.03
8/30/2023 7:15:00 AM 18.08 64.544 0.243 7.37 17.18 8.04
8/30/2023 7:30:00 AM 18.08 64.544 0.243 7.38 18.44 8.04
8/30/2023 7:45:00 AM 18.09 64.562 0.244 7.38 17.39 8.07
8/30/2023 8:00:00 AM 18.11 64.598 0.244 7.39 17.16 8.08
8/30/2023 8:15:00 AM 18.12 64.616 0.245 7.38 15.96 8.09
8/30/2023 8:30:00 AM 18.17 64.706 0.245 7.4 17.27 8.13
8/30/2023 8:45:00 AM 18.23 64.814 0.246 7.41 17.38 8.16
8/30/2023 9:00:00 AM 18.28 64.904 0.246 7.42 17.06 8.2
8/30/2023 9:15:00 AM 18.35 65.03 0.247 7.43 16.21 8.23
8/30/2023 9:30:00 AM 18.45 65.21 0.248 7.44 15.54 8.28
8/30/2023 9:45:00 AM 18.55 65.39 0.248 7.46 16.63 8.35
8/30/2023 10:00:00 AM 18.66 65.588 0.249 7.47 15.14 8.41
8/30/2023 10:15:00 AM 18.77 65.786 0.25 7.48 15.28 8.46
8/30/2023 10:30:00 AM 18.9 66.02 0.251 7.5 14.6 8.52
8/30/2023 10:45:00 AM 19.03 66.254 0.252 7.52 14.21 8.58
8/30/2023 11:00:00 AM 19.16 66.488 0.252 7.54 16.42 8.63
8/30/2023 11:15:00 AM 19.29 66.722 0.253 7.55 15 8.7
8/30/2023 11:30:00 AM 19.42 66.956 0.254 7.56 13.45 8.74
8/30/2023 11:45:00 AM 19.51 67.118 0.255 7.58 16.32 8.79
8/30/2023 12:00:00 PM 19.66 67.388 0.255 7.5 13.49 8.85
8/30/2023 12:15:00 PM 19.79 67.622 0.256 7.6 13.28 8.89
8/30/2023 12:30:00 PM 19.91 67.838 0.257 7.63 13.81 8.95
8/30/2023 12:45:00 PM 20.05 68.09 0.257 7.6 13.76 9.01
8/30/2023 1:00:00 PM 20.14 68.252 0.258 7.66 12.7 9.05
8/30/2023 1:15:00 PM 20.25 68.45 0.258 7.67 12.77 9.09
8/30/2023 1:30:00 PM 20.33 68.594 0.259 7.69 12.59 9.12
8/30/2023 1:45:00 PM 20.37 68.666 0.259 7.7 11.66 9.15
8/30/2023 2:00:00 PM 20.44 68.792 0.259 7.71 11.43 9.17
8/30/2023 2:15:00 PM 20.47 68.846 0.26 7.73 12.47 9.19
8/30/2023 2:30:00 PM 20.51 68.918 0.26 7.73 12.04 9.2
8/30/2023 2:45:00 PM 20.53 68.954 0.26 7.75 11.72 9.22
8/30/2023 3:00:00 PM 20.54 68.972 0.26 7.75 12.45 9.23
8/30/2023 3:15:00 PM 20.56 69.008 0.261 7.76 12.47 9.24
8/30/2023 3:30:00 PM 20.59 69.062 0.261 7.77 12.23 9.26
8/30/2023 3:45:00 PM 20.63 69.134 0.261 7.78 12.06 9.27
8/30/2023 4:00:00 PM 20.65 69.17 0.261 7.78 12.01 9.27
8/30/2023 4:15:00 PM 20.66 69.188 0.261 7.8 11.57 9.28
8/30/2023 4:30:00 PM 20.69 69.242 0.261 7.74 12.46 9.3
8/30/2023 4:45:00 PM 20.68 69.224 0.262 7.81 11.52 9.3
8/30/2023 5:00:00 PM 20.65 69.17 0.262 7.8 11.12 9.27
8/30/2023 5:15:00 PM 20.64 69.152 0.262 7.81 11.59 9.26
8/30/2023 5:30:00 PM 20.64 69.152 0.262 7.81 10.91 9.24
8/30/2023 5:45:00 PM 20.63 69.134 0.262 7.77 10.46 9.22
8/30/2023 6:00:00 PM 20.65 69.17 0.263 7.81 11.55 9.21
8/30/2023 6:15:00 PM 20.64 69.152 0.263 7.8 10.23 9.19
8/30/2023 6:30:00 PM 20.62 69.116 0.263 7.8 10.83 9.16
8/30/2023 6:45:00 PM 20.59 69.062 0.263 7.79 11.02 9.11
8/30/2023 7:00:00 PM 20.56 69.008 0.263 7.79 10.89 9.08
8/30/2023 7:15:00 PM 20.53 68.954 0.264 7.77 10.16 9.02
8/30/2023 7:30:00 PM 20.49 68.882 0.264 7.76 10.64 8.97
8/30/2023 7:45:00 PM 20.46 68.828 0.264 7.74 10.69 8.91
8/30/2023 8:00:00 PM 20.42 68.756 0.265 7.71 15.29 8.84
8/30/2023 8:15:00 PM 20.39 68.702 0.265 7.7 10.31 8.79
8/30/2023 8:30:00 PM 20.35 68.63 0.266 7.69 11.3 8.73
8/30/2023 8:45:00 PM 20.32 68.576 0.266 7.67 11.44 8.68
8/30/2023 9:00:00 PM 20.28 68.504 0.266 7.66 11.17 8.61
8/30/2023 9:15:00 PM 20.24 68.432 0.267 7.64 11.45 8.57
8/30/2023 9:30:00 PM 20.2 68.36 0.267 7.64 11.95 8.52
8/30/2023 9:45:00 PM 20.17 68.306 0.267 7.62 11.89 8.48
8/30/2023 10:00:00 PM 20.14 68.252 0.268 7.61 11.37 8.43
8/30/2023 10:15:00 PM 20.11 68.198 0.268 7.6 12.14 8.39
8/30/2023 10:30:00 PM 20.08 68.144 0.268 7.6 12.02 8.35
8/30/2023 10:45:00 PM 20.06 68.108 0.268 7.59 12.02 8.31
8/30/2023 11:00:00 PM 20.03 68.054 0.269 7.58 11.96 8.28
8/30/2023 11:15:00 PM 20.01 68.018 0.269 7.58 10.86 8.25
8/30/2023 11:30:00 PM 19.98 67.964 0.269 7.57 10.66 8.22
8/30/2023 11:45:00 PM 19.95 67.91 0.269 7.57 13.58 8.2
8/31/2023 12:00:00 AM 19.92 67.856 0.269 7.56 12.43 8.18
8/31/2023 12:15:00 AM 19.89 67.802 0.27 7.56 12.31 8.16
8/31/2023 12:30:00 AM 19.86 67.748 0.27 7.56 11.86 8.13
8/31/2023 12:45:00 AM 19.83 67.694 0.27 7.56 11.07 8.1
8/31/2023 1:00:00 AM 19.8 67.64 0.27 7.55 11.1 8.08
8/31/2023 1:15:00 AM 19.77 67.586 0.27 7.55 12.09 8.06
8/31/2023 1:30:00 AM 19.74 67.532 0.27 7.54 12.42 8.04
8/31/2023 1:45:00 AM 19.72 67.496 0.27 7.54 10.97 8.03
8/31/2023 2:00:00 AM 19.7 67.46 0.27 7.53 11.52 8.01
8/31/2023 2:15:00 AM 19.68 67.424 0.27 7.53 14.35 7.97
8/31/2023 2:30:00 AM 19.66 67.388 0.27 7.53 11.81 7.96
8/31/2023 2:45:00 AM 19.64 67.352 0.27 7.52 11.93 7.95
8/31/2023 3:00:00 AM 19.61 67.298 0.271 7.52 11.77 7.92
8/31/2023 3:15:00 AM 19.57 67.226 0.271 7.52 12.29 7.91
8/31/2023 3:30:00 AM 19.55 67.19 0.271 7.51 12.21 7.9
8/31/2023 3:45:00 AM 19.52 67.136 0.271 7.53 11.64 7.86
8/31/2023 4:00:00 AM 19.48 67.064 0.272 7.51 11.55 7.86
8/31/2023 4:15:00 AM 19.45 67.01 0.272 7.52 11.77 7.85
8/31/2023 4:30:00 AM 19.41 66.938 0.272 7.5 12.67 7.83
8/31/2023 4:45:00 AM 19.38 66.884 0.272 7.5 12.07 7.82
8/31/2023 5:00:00 AM 19.34 66.812 0.273 7.51 13.06 7.82
8/31/2023 5:15:00 AM 19.3 66.74 0.273 7.37 11.65 7.81
8/31/2023 5:30:00 AM 19.27 66.686 0.273 7.5 12.3 7.79
8/31/2023 5:45:00 AM 19.23 66.614 0.274 7.49 17.71 7.78
8/31/2023 6:00:00 AM 19.18 66.524 0.274 7.49 14.82 7.78
8/31/2023 6:15:00 AM 19.14 66.452 0.275 7.49 12.59 7.76
8/31/2023 6:30:00 AM 19.1 66.38 0.275 7.5 11.62 7.76
8/31/2023 6:45:00 AM 19.06 66.308 0.275 7.49 13.44 7.77
8/31/2023 7:00:00 AM 19.03 66.254 0.276 7.48 11.81 7.76
8/31/2023 7:15:00 AM 19 66.2 0.276 7.49 11.88 7.78
8/31/2023 7:30:00 AM 18.98 66.164 0.277 7.49 10.39 7.79
8/31/2023 7:45:00 AM 18.96 66.128 0.277 7.49 10.42 7.81
8/31/2023 8:00:00 AM 18.95 66.11 0.278 7.5 10.49 7.84
8/31/2023 8:15:00 AM 18.95 66.11 0.278 7.51 11.22 7.87
8/31/2023 8:30:00 AM 18.97 66.146 0.279 7.51 11.13 7.91
8/31/2023 8:45:00 AM 19.01 66.218 0.279 7.52 9.92 7.98
8/31/2023 9:00:00 AM 19.04 66.272 0.28 7.54 9.98 8.05
8/31/2023 9:15:00 AM 19.09 66.362 0.28 7.56 10.19 8.14
8/31/2023 9:30:00 AM 19.15 66.47 0.281 7.49 10.12 8.2
8/31/2023 9:45:00 AM 19.22 66.596 0.281 7.58 9.92 8.29
8/31/2023 10:00:00 AM 19.31 66.758 0.282 7.51 10.05 8.39
8/31/2023 10:15:00 AM 19.41 66.938 0.282 7.62 9.75 8.48
8/31/2023 10:30:00 AM 19.49 67.082 0.283 7.64 10.87 8.56
8/31/2023 10:45:00 AM 19.58 67.244 0.283 7.66 9.62 8.66
8/31/2023 11:00:00 AM 19.65 67.37 0.284 7.68 9.28 8.72
8/31/2023 11:15:00 AM 19.7 67.46 0.284 7.7 9.65 8.79
8/31/2023 11:30:00 AM 19.81 67.658 0.285 7.71 8.88 8.88
8/31/2023 11:45:00 AM 19.95 67.91 0.285 7.73 8.96 8.99
8/31/2023 12:00:00 PM 20.1 68.18 0.285 7.76 8.96 9.08
8/31/2023 12:15:00 PM 20.24 68.432 0.286 7.78 8.48 9.16
8/31/2023 12:30:00 PM 20.37 68.666 0.286 7.81 8.92 9.24
8/31/2023 12:45:00 PM 20.49 68.882 0.287 7.81 9.32 9.31
8/31/2023 1:00:00 PM 20.6 69.08 0.287 7.86 9.92 9.37
8/31/2023 1:15:00 PM 20.68 69.224 0.287 7.86 8.51 9.41
8/31/2023 1:30:00 PM 20.76 69.368 0.288 7.88 7.73 9.46
8/31/2023 1:45:00 PM 20.83 69.494 0.288 7.89 7.86 9.52
8/31/2023 2:00:00 PM 20.91 69.638 0.288 7.91 9.09 9.57
8/31/2023 2:15:00 PM 20.98 69.764 0.288 7.93 8.52 9.62
8/31/2023 2:30:00 PM 21.05 69.89 0.288 7.95 8.76 9.65
8/31/2023 2:45:00 PM 21.12 70.016 0.289 7.97 9.08 9.72
8/31/2023 3:00:00 PM 21.18 70.124 0.289 7.99 8.93 9.75
8/31/2023 3:15:00 PM 21.23 70.214 0.289 8.01 8.54 9.8
8/31/2023 3:30:00 PM 21.25 70.25 0.289 8.03 9.62 9.81
8/31/2023 3:45:00 PM 21.28 70.304 0.289 8.04 8.5 9.84
8/31/2023 4:00:00 PM 21.29 70.32201 0.29 8.05 8.23 9.86
8/31/2023 4:15:00 PM 21.3 70.34 0.29 8.07 8.18 9.86
8/31/2023 4:30:00 PM 21.29 70.32201 0.29 8.07 7.68 9.88
8/31/2023 4:45:00 PM 21.29 70.32201 0.29 8.08 7.81 9.87
8/31/2023 5:00:00 PM 21.28 70.304 0.291 8.1 7.39 9.87
8/31/2023 5:15:00 PM 21.25 70.25 0.291 8.1 8.02 9.84
8/31/2023 5:30:00 PM 21.21 70.17799 0.291 8.1 8.09 9.82
8/31/2023 5:45:00 PM 21.17 70.106 0.292 8.1 7.81 9.8
8/31/2023 6:00:00 PM 21.13 70.034 0.292 8.1 7.46 9.76
8/31/2023 6:15:00 PM 21.08 69.944 0.292 8.09 7.32 9.72
8/31/2023 6:30:00 PM 21.05 69.89 0.293 8.09 7.64 9.69
8/31/2023 6:45:00 PM 21.01 69.818 0.293 8.08 7.59 9.64
8/31/2023 7:00:00 PM 20.97 69.746 0.293 8.07 8.43 9.59
8/31/2023 7:15:00 PM 20.92 69.656 0.294 8.07 7.59 9.54
8/31/2023 7:30:00 PM 20.87 69.566 0.294 8.05 7.98 9.49
8/31/2023 7:45:00 PM 20.83 69.494 0.294 8.04 8.93 9.42
8/31/2023 8:00:00 PM 20.78 69.404 0.295 8.02 11.8 9.37
8/31/2023 8:15:00 PM 20.73 69.314 0.295 8.01 10.25 9.32
8/31/2023 8:30:00 PM 20.68 69.224 0.296 8 8.35 9.26
8/31/2023 8:45:00 PM 20.63 69.134 0.296 7.99 9.26 9.2
8/31/2023 9:00:00 PM 20.57 69.026 0.296 7.97 8.57 9.15
8/31/2023 9:15:00 PM 20.52 68.936 0.297 7.95 9.51 9.09
8/31/2023 9:30:00 PM 20.46 68.828 0.297 7.93 8.68 9.02
8/31/2023 9:45:00 PM 20.4 68.72 0.298 7.91 9.68 8.96
8/31/2023 10:00:00 PM 20.35 68.63 0.298 7.88 9.22 8.89
8/31/2023 10:15:00 PM 20.28 68.504 0.299 7.87 8.93 8.83
8/31/2023 10:30:00 PM 20.21 68.378 0.299 7.86 9.25 8.78
8/31/2023 10:45:00 PM 20.14 68.252 0.299 7.84 9.45 8.72
8/31/2023 11:00:00 PM 20.08 68.144 0.3 7.82 9.55 8.66
8/31/2023 11:15:00 PM 20.01 68.018 0.3 7.81 9.36 8.6
8/31/2023 11:30:00 PM 19.95 67.91 0.3 7.79 10.21 8.56
8/31/2023 11:45:00 PM 19.88 67.784 0.301 7.77 9.6 8.51
9/1/2023 12:00:00 AM 19.82 67.676 0.301 7.76 10.05 8.46
9/1/2023 12:15:00 AM 19.76 67.568 0.302 7.74 9.35 8.42
9/1/2023 12:30:00 AM 19.71 67.478 0.302 7.74 9.96 8.38
9/1/2023 12:45:00 AM 19.65 67.37 0.303 7.72 9.3 8.35
9/1/2023 1:00:00 AM 19.59 67.262 0.303 7.72 10.55 8.32
9/1/2023 1:15:00 AM 19.54 67.172 0.303 7.7 11.07 8.28
9/1/2023 1:30:00 AM 19.49 67.082 0.304 7.69 9.95 8.26
9/1/2023 1:45:00 AM 19.44 66.992 0.304 7.68 9.74 8.22
9/1/2023 2:00:00 AM 19.39 66.902 0.305 7.67 10.35 8.2
9/1/2023 2:15:00 AM 19.34 66.812 0.305 7.66 10.35 8.16
9/1/2023 2:30:00 AM 19.29 66.722 0.306 7.66 9.26 8.14
9/1/2023 2:45:00 AM 19.24 66.632 0.306 7.66 9.56 8.11
9/1/2023 3:00:00 AM 19.19 66.542 0.306 7.65 9.65 8.08
9/1/2023 3:15:00 AM 19.14 66.452 0.307 7.63 10.08 8.05
9/1/2023 3:30:00 AM 19.11 66.398 0.308 7.63 11.43 8.03
9/1/2023 3:45:00 AM 19.05 66.29 0.308 7.62 9.67 8.01
9/1/2023 4:00:00 AM 19.01 66.218 0.308 7.62 10.43 7.99
9/1/2023 4:15:00 AM 18.96 66.128 0.309 7.61 10.44 7.96
9/1/2023 4:30:00 AM 18.91 66.038 0.309 7.61 9.3 7.95
9/1/2023 4:45:00 AM 18.86 65.948 0.31 7.6 10.24 7.93
9/1/2023 5:00:00 AM 18.81 65.858 0.31 7.6 10.52 7.91
9/1/2023 5:15:00 AM 18.77 65.786 0.311 7.59 9.69 7.87
9/1/2023 5:30:00 AM 18.73 65.714 0.311 7.56 9.15 7.87
9/1/2023 5:45:00 AM 18.69 65.642 0.312 7.58 10.05 7.85
9/1/2023 6:00:00 AM 18.66 65.588 0.312 7.58 11.4 7.83
9/1/2023 6:15:00 AM 18.61 65.498 0.313 7.58 9.89 7.82
9/1/2023 6:30:00 AM 18.58 65.444 0.313 7.57 10.23 7.8
9/1/2023 6:45:00 AM 18.55 65.39 0.314 7.57 10.11 7.8
9/1/2023 7:00:00 AM 18.53 65.354 0.314 7.57 10.11 7.77
9/1/2023 7:15:00 AM 18.52 65.336 0.314 7.56 9.46 7.77
9/1/2023 7:30:00 AM 18.52 65.336 0.315 7.5 9.4 7.78
9/1/2023 7:45:00 AM 18.51 65.318 0.315 7.56 9.61 7.78
9/1/2023 8:00:00 AM 18.49 65.282 0.316 7.55 8.35 7.79
9/1/2023 8:15:00 AM 18.49 65.282 0.316 7.56 7.64 7.82
9/1/2023 8:30:00 AM 18.51 65.318 0.316 7.57 7.27 7.87
9/1/2023 8:45:00 AM 18.52 65.336 0.317 7.57 7.32 7.93
9/1/2023 9:00:00 AM 18.51 65.318 0.317 7.58 7.17 7.97
9/1/2023 9:15:00 AM 18.55 65.39 0.318 7.58 7.04 8.04
9/1/2023 9:30:00 AM 18.61 65.498 0.318 7.61 7.73 8.12
9/1/2023 9:45:00 AM 18.7 65.66 0.318 7.62 6.11 8.26
9/1/2023 10:00:00 AM 18.8 65.84 0.319 7.64 6.56 8.38
9/1/2023 10:15:00 AM 18.91 66.038 0.319 7.66 6.57 8.52
9/1/2023 10:30:00 AM 19.02 66.236 0.319 7.68 6.79 8.63
9/1/2023 10:45:00 AM 19.16 66.488 0.32 7.71 6.95 8.76
9/1/2023 11:00:00 AM 19.29 66.722 0.32 7.73 6.8 8.87
9/1/2023 11:15:00 AM 19.41 66.938 0.32 7.75 6.59 8.97
9/1/2023 11:30:00 AM 19.54 67.172 0.321 7.77 5.54 9.08
9/1/2023 11:45:00 AM 19.69 67.442 0.321 7.8 5.89 9.21
9/1/2023 12:00:00 PM 19.84 67.712 0.321 7.84 5.94 9.34
9/1/2023 12:15:00 PM 19.97 67.946 0.322 7.85 7.72 9.41
9/1/2023 12:30:00 PM 20.11 68.198 0.322 7.88 6.64 9.51
9/1/2023 12:45:00 PM 20.24 68.432 0.322 7.9 7.2 9.6
9/1/2023 1:00:00 PM 20.36 68.648 0.323 7.93 7.77 9.69
9/1/2023 1:15:00 PM 20.49 68.882 0.323 7.95 8.33 9.79
9/1/2023 1:30:00 PM 20.63 69.134 0.323 7.98 7.77 9.88
9/1/2023 1:45:00 PM 20.75 69.35 0.324 8 9.14 9.96
9/1/2023 2:00:00 PM 20.86 69.548 0.324 8.03 9.07 10.02
9/1/2023 2:15:00 PM 20.97 69.746 0.324 8.05 7.52 10.12
9/1/2023 2:30:00 PM 21.09 69.962 0.325 8.08 7.6 10.19
9/1/2023 2:45:00 PM 21.18 70.124 0.325 8.09 9.21 10.23
9/1/2023 3:00:00 PM 21.27 70.286 0.326 8.12 7.93 10.3
9/1/2023 3:15:00 PM 21.36 70.448 0.326 8.14 9.19 10.36
9/1/2023 3:30:00 PM 21.43 70.574 0.326 8.16 7.07 10.4
9/1/2023 3:45:00 PM 21.48 70.664 0.328 8.18 8.78 10.44
9/1/2023 4:00:00 PM 21.54 70.772 0.328 8.21 7.14 10.51
9/1/2023 4:15:00 PM 21.57 70.826 0.329 8.22 7.86 10.52
9/1/2023 4:30:00 PM 21.6 70.88 0.329 8.24 7.83 10.53
9/1/2023 4:45:00 PM 21.62 70.916 0.329 8.26 6.56 10.57
9/1/2023 5:00:00 PM 21.64 70.952 0.33 8.28 7.46 10.59
9/1/2023 5:15:00 PM 21.64 70.952 0.33 8.28 6.92 10.58
9/1/2023 5:30:00 PM 21.63 70.934 0.331 8.3 6.01 10.59
9/1/2023 5:45:00 PM 21.61 70.898 0.331 8.3 6.18 10.58
9/1/2023 6:00:00 PM 21.57 70.826 0.332 8.3 6.58 10.54
9/1/2023 6:15:00 PM 21.52 70.736 0.332 8.32 6.41 10.54
9/1/2023 6:30:00 PM 21.47 70.646 0.333 8.32 6.95 10.49
9/1/2023 6:45:00 PM 21.43 70.574 0.333 8.32 5.88 10.45
9/1/2023 7:00:00 PM 21.39 70.502 0.334 8.32 7.54 10.39
9/1/2023 7:15:00 PM 21.35 70.43 0.334 8.32 8.62 10.34
9/1/2023 7:30:00 PM 21.3 70.34 0.335 8.31 13.41 10.26
9/1/2023 7:45:00 PM 21.26 70.268 0.335 8.3 8.14 10.21
9/1/2023 8:00:00 PM 21.21 70.17799 0.336 8.28 9.84 10.11
9/1/2023 8:15:00 PM 21.16 70.088 0.336 8.28 10.49 10.03
9/1/2023 8:30:00 PM 21.12 70.016 0.337 8.27 9.06 9.96
9/1/2023 8:45:00 PM 21.08 69.944 0.337 8.25 8.74 9.88
9/1/2023 9:00:00 PM 21.02 69.836 0.338 8.24 7.2 9.79
9/1/2023 9:15:00 PM 20.98 69.764 0.339 8.23 7.1 9.7
9/1/2023 9:30:00 PM 20.93 69.674 0.339 8.22 6.83 9.62
9/1/2023 9:45:00 PM 20.87 69.566 0.34 8.2 7.24 9.55
9/1/2023 10:00:00 PM 20.82 69.476 0.341 8.18 7.08 9.46
9/1/2023 10:15:00 PM 20.76 69.368 0.341 8.16 7.43 9.38
9/1/2023 10:30:00 PM 20.7 69.26 0.342 8.14 6.84 9.29
9/1/2023 10:45:00 PM 20.63 69.134 0.343 8.13 6.92 9.21
9/1/2023 11:00:00 PM 20.56 69.008 0.343 8.1 6.96 9.14
9/1/2023 11:15:00 PM 20.49 68.882 0.344 8.08 7.43 9.04
9/1/2023 11:30:00 PM 20.42 68.756 0.345 8.06 6.84 8.95
9/1/2023 11:45:00 PM 20.34 68.612 0.345 8.04 7.44 8.89
9/2/2023 12:00:00 AM 20.28 68.504 0.346 8.01 7.2 8.81
9/2/2023 12:15:00 AM 20.21 68.378 0.347 8 6.55 8.76
9/2/2023 12:30:00 AM 20.14 68.252 0.347 7.98 6.33 8.69
9/2/2023 12:45:00 AM 20.06 68.108 0.348 7.96 6.79 8.62
9/2/2023 1:00:00 AM 20 68 0.349 7.94 6.55 8.55
9/2/2023 1:15:00 AM 19.92 67.856 0.349 7.93 7.21 8.52
9/2/2023 1:30:00 AM 19.85 67.73 0.35 7.91 6.71 8.46
9/2/2023 1:45:00 AM 19.79 67.622 0.351 7.89 6.9 8.42
9/2/2023 2:00:00 AM 19.72 67.496 0.351 7.88 7.76 8.38
9/2/2023 2:15:00 AM 19.65 67.37 0.352 7.86 7.34 8.31
9/2/2023 2:30:00 AM 19.6 67.28 0.353 7.85 6.85 8.29
9/2/2023 2:45:00 AM 19.53 67.154 0.353 7.84 7.13 8.26
9/2/2023 3:00:00 AM 19.48 67.064 0.354 7.84 10.24 8.23
9/2/2023 3:15:00 AM 19.43 66.974 0.354 7.83 7.39 8.2
9/2/2023 3:30:00 AM 19.38 66.884 0.355 7.82 7.12 8.17
9/2/2023 3:45:00 AM 19.32 66.776 0.356 7.81 8.06 8.14
9/2/2023 4:00:00 AM 19.27 66.686 0.356 7.79 7.8 8.11
9/2/2023 4:15:00 AM 19.23 66.614 0.357 7.79 8.29 8.07
9/2/2023 4:30:00 AM 19.18 66.524 0.357 7.77 13.94 8.03
9/2/2023 4:45:00 AM 19.15 66.47 0.358 7.77 7.81 8.01
9/2/2023 5:00:00 AM 19.12 66.416 0.358 7.76 7.95 7.97
9/2/2023 5:15:00 AM 19.09 66.362 0.359 7.75 8.53 7.94
9/2/2023 5:30:00 AM 19.06 66.308 0.36 7.74 8.07 7.93
9/2/2023 5:45:00 AM 19.03 66.254 0.36 7.74 9.02 7.9
9/2/2023 6:00:00 AM 19 66.2 0.361 7.73 8.22 7.86
9/2/2023 6:15:00 AM 18.95 66.11 0.361 7.71 8.04 7.83
9/2/2023 6:30:00 AM 18.92 66.056 0.362 7.71 8.35 7.8
9/2/2023 6:45:00 AM 18.88 65.984 0.362 7.7 9.14 7.78
9/2/2023 7:00:00 AM 18.84 65.912 0.362 7.69 10.01 7.77
9/2/2023 7:15:00 AM 18.8 65.84 0.363 7.69 7.79 7.75
9/2/2023 7:30:00 AM 18.78 65.804 0.363 7.68 7.86 7.75
9/2/2023 7:45:00 AM 18.77 65.786 0.364 7.68 7.49 7.77
9/2/2023 8:00:00 AM 18.75 65.75 0.364 7.67 11.03 7.76
9/2/2023 8:15:00 AM 18.74 65.732 0.365 7.68 7.27 7.8
9/2/2023 8:30:00 AM 18.73 65.714 0.365 7.68 7.26 7.82
9/2/2023 8:45:00 AM 18.73 65.714 0.365 7.68 7.52 7.87
9/2/2023 9:00:00 AM 18.73 65.714 0.366 7.68 7.18 7.92
9/2/2023 9:15:00 AM 18.74 65.732 0.366 7.69 6.51 8.01
9/2/2023 9:30:00 AM 18.77 65.786 0.366 7.7 7.37 8.08
9/2/2023 9:45:00 AM 18.82 65.876 0.367 7.72 7.24 8.19
9/2/2023 10:00:00 AM 18.87 65.966 0.367 7.66 6.88 8.3
9/2/2023 10:15:00 AM 18.93 66.074 0.367 7.75 7.54 8.41
9/2/2023 10:30:00 AM 19.01 66.218 0.368 7.77 6.83 8.57
9/2/2023 10:45:00 AM 19.11 66.398 0.368 7.8 7.15 8.71
9/2/2023 11:00:00 AM 19.27 66.686 0.368 7.82 8.06 8.84
9/2/2023 11:15:00 AM 19.44 66.992 0.369 7.86 6.55 9.01
9/2/2023 11:30:00 AM 19.56 67.208 0.369 7.88 7 9.14
9/2/2023 11:45:00 AM 19.7 67.46 0.369 7.91 45.96 9.23
9/2/2023 12:00:00 PM 19.85 67.73 0.369 7.93 7.14 9.38
9/2/2023 12:15:00 PM 20.02 68.036 0.369 7.96 7.73 9.5
9/2/2023 12:30:00 PM 20.18 68.324 0.37 7.98 7.57 9.64
9/2/2023 12:45:00 PM 20.32 68.576 0.37 8.01 7.59 9.73
9/2/2023 1:00:00 PM 20.45 68.81 0.37 8.03 7.99 9.87
9/2/2023 1:15:00 PM 20.58 69.044 0.37 8.06 18.28 9.97
9/2/2023 1:30:00 PM 20.72 69.296 0.37 8.09 7.14 10.09
9/2/2023 1:45:00 PM 20.84 69.512 0.37 8.12 8.01 10.23
9/2/2023 2:00:00 PM 20.97 69.746 0.37 8.14 8.44 10.31
9/2/2023 2:15:00 PM 21.07 69.926 0.37 8.16 7.08 10.37
9/2/2023 2:30:00 PM 21.18 70.124 0.37 8.19 5.86 10.48
9/2/2023 2:45:00 PM 21.3 70.34 0.37 8.21 6.94 10.57
9/2/2023 3:00:00 PM 21.41 70.538 0.37 8.25 5.08 10.67
9/2/2023 3:15:00 PM 21.55 70.79 0.37 8.28 6.52 10.8
9/2/2023 3:30:00 PM 21.65 70.97 0.37 8.31 5.41 10.89
9/2/2023 3:45:00 PM 21.73 71.114 0.37 8.33 5.92 10.94
9/2/2023 4:00:00 PM 21.82 71.276 0.37 8.34 8.21 11
9/2/2023 4:15:00 PM 21.89 71.402 0.37 8.37 6.54 11.04
9/2/2023 4:30:00 PM 21.96 71.528 0.37 8.39 5.06 11.11
9/2/2023 4:45:00 PM 22.01 71.618 0.37 8.4 5.62 11.13
9/2/2023 5:00:00 PM 22.03 71.654 0.37 8.41 5.65 11.16
9/2/2023 5:15:00 PM 22.04 71.672 0.37 8.42 5.04 11.15
9/2/2023 5:30:00 PM 22.05 71.69 0.37 8.44 5.32 11.15
9/2/2023 5:45:00 PM 22.06 71.708 0.37 8.45 5.73 11.13
9/2/2023 6:00:00 PM 22.07 71.726 0.37 8.47 5.26 11.14
9/2/2023 6:15:00 PM 22.06 71.708 0.37 8.47 4.94 11.12
9/2/2023 6:30:00 PM 22.05 71.69 0.37 8.48 5.24 11.05
9/2/2023 6:45:00 PM 22.02 71.636 0.37 8.47 5.14 10.99
9/2/2023 7:00:00 PM 22 71.6 0.37 8.47 5.76 10.9
9/2/2023 7:15:00 PM 21.98 71.564 0.37 8.47 6.16 10.82
9/2/2023 7:30:00 PM 21.95 71.51 0.37 8.46 6.1 10.74
9/2/2023 7:45:00 PM 21.92 71.456 0.37 8.46 6.37 10.64
9/2/2023 8:00:00 PM 21.89 71.402 0.37 8.44 6.16 10.54
9/2/2023 8:15:00 PM 21.86 71.348 0.37 8.43 6.19 10.42
9/2/2023 8:30:00 PM 21.83 71.294 0.37 8.4 6.74 10.3
9/2/2023 8:45:00 PM 21.79 71.222 0.37 8.4 6 10.17
9/2/2023 9:00:00 PM 21.76 71.168 0.371 8.38 6.55 10.04
9/2/2023 9:15:00 PM 21.72 71.096 0.371 8.36 6.41 9.91
9/2/2023 9:30:00 PM 21.69 71.042 0.371 8.34 8.24 9.78
9/2/2023 9:45:00 PM 21.64 70.952 0.371 8.33 6.8 9.67
9/2/2023 10:00:00 PM 21.6 70.88 0.371 8.21 6.85 9.53
9/2/2023 10:15:00 PM 21.58 70.844 0.371 8.3 7.1 9.47
9/2/2023 10:30:00 PM 21.54 70.772 0.371 8.28 7.44 9.37
9/2/2023 10:45:00 PM 21.5 70.7 0.371 8.26 6.74 9.28
9/2/2023 11:00:00 PM 21.47 70.646 0.371 8.24 6.74 9.17
9/2/2023 11:15:00 PM 21.43 70.574 0.371 8.23 6.98 9.08
9/2/2023 11:30:00 PM 21.39 70.502 0.372 8.2 7.49 8.98
9/2/2023 11:45:00 PM 21.37 70.466 0.372 8.19 6.71 8.89
9/3/2023 12:00:00 AM 21.33 70.394 0.372 8.17 6.38 8.79
9/3/2023 12:15:00 AM 21.31 70.358 0.372 8.14 6.31 8.71
9/3/2023 12:30:00 AM 21.28 70.304 0.372 8.13 7.12 8.64
9/3/2023 12:45:00 AM 21.25 70.25 0.372 8.11 7.3 8.56
9/3/2023 1:00:00 AM 21.22 70.196 0.372 8.1 6.64 8.51
9/3/2023 1:15:00 AM 21.19 70.142 0.372 8.08 7.52 8.43
9/3/2023 1:30:00 AM 21.16 70.088 0.373 8.06 5.86 8.38
9/3/2023 1:45:00 AM 21.12 70.016 0.373 8.04 6.79 8.33
9/3/2023 2:00:00 AM 21.09 69.962 0.373 8.03 6.34 8.26
9/3/2023 2:15:00 AM 21.05 69.89 0.373 8.02 6.85 8.2
9/3/2023 2:30:00 AM 21.02 69.836 0.373 8 6.9 8.16
9/3/2023 2:45:00 AM 20.99 69.782 0.373 7.98 6.73 8.12
9/3/2023 3:00:00 AM 20.96 69.728 0.373 7.97 7.1 8.07
9/3/2023 3:15:00 AM 20.93 69.674 0.373 7.95 6.62 8.02
9/3/2023 3:30:00 AM 20.89 69.602 0.373 7.94 6.25 7.98
9/3/2023 3:45:00 AM 20.86 69.548 0.374 7.93 6.58 7.94
9/3/2023 4:00:00 AM 20.82 69.476 0.374 7.9 6.52 7.87
9/3/2023 4:15:00 AM 20.78 69.404 0.374 7.89 6.56 7.84
9/3/2023 4:30:00 AM 20.75 69.35 0.374 7.88 6.3 7.81
9/3/2023 4:45:00 AM 20.71 69.278 0.374 7.86 14.07 7.76
9/3/2023 5:00:00 AM 20.67 69.206 0.374 7.82 7.93 7.7
9/3/2023 5:15:00 AM 20.63 69.134 0.374 7.84 7.54 7.68
9/3/2023 5:30:00 AM 20.59 69.062 0.374 7.83 6.77 7.65
9/3/2023 5:45:00 AM 20.55 68.99 0.374 7.8 6.56 7.59
9/3/2023 6:00:00 AM 20.51 68.918 0.374 7.79 7.25 7.56
9/3/2023 6:15:00 AM 20.47 68.846 0.374 7.78 7.03 7.53
9/3/2023 6:30:00 AM 20.43 68.774 0.374 7.76 7.02 7.5
9/3/2023 6:45:00 AM 20.39 68.702 0.375 7.75 7.05 7.47
9/3/2023 7:00:00 AM 20.36 68.648 0.375 7.74 6.92 7.44
9/3/2023 7:15:00 AM 20.34 68.612 0.375 7.74 7.31 7.43
9/3/2023 7:30:00 AM 20.33 68.594 0.375 7.73 7.9 7.45
9/3/2023 7:45:00 AM 20.32 68.576 0.375 7.72 7.34 7.44
9/3/2023 8:00:00 AM 20.32 68.576 0.375 7.72 6.77 7.48
9/3/2023 8:15:00 AM 20.32 68.576 0.375 7.71 5.94 7.47
9/3/2023 8:30:00 AM 20.36 68.648 0.375 7.72 6.4 7.51
9/3/2023 8:45:00 AM 20.39 68.702 0.375 7.72 5.97 7.58
9/3/2023 9:00:00 AM 20.41 68.738 0.375 7.73 5.99 7.62
9/3/2023 9:15:00 AM 20.44 68.792 0.375 7.73 6.7 7.67
9/3/2023 9:30:00 AM 20.5 68.9 0.375 7.74 6.73 7.76
9/3/2023 9:45:00 AM 20.59 69.062 0.375 7.76 5.57 7.87
9/3/2023 10:00:00 AM 20.7 69.26 0.375 7.78 5.64 8.05
9/3/2023 10:15:00 AM 20.81 69.458 0.376 7.8 6.76 8.15
9/3/2023 10:30:00 AM 20.96 69.728 0.376 7.83 9.84 8.34
9/3/2023 10:45:00 AM 21.07 69.926 0.376 7.85 9.19 8.45
9/3/2023 11:00:00 AM 21.23 70.214 0.376 7.88 7.48 8.61
9/3/2023 11:15:00 AM 21.38 70.484 0.376 7.91 6.43 8.75
9/3/2023 11:30:00 AM 21.52 70.736 0.376 7.93 7.83 8.88
9/3/2023 11:45:00 AM 21.69 71.042 0.376 7.96 8.6 9.04
9/3/2023 12:00:00 PM 21.87 71.366 0.376 7.98 10.84 9.21
9/3/2023 12:15:00 PM 22.03 71.654 0.376 8.01 9.93 9.33
9/3/2023 12:30:00 PM 22.18 71.924 0.376 8.05 7.43 9.47
9/3/2023 12:45:00 PM 22.31 72.158 0.376 8.07 6.7 9.58
9/3/2023 1:00:00 PM 22.43 72.374 0.376 8.1 8.06 9.68
9/3/2023 1:15:00 PM 22.56 72.608 0.376 8.12 7.81 9.82
9/3/2023 1:30:00 PM 22.7 72.86 0.376 8.15 8.3 9.92
9/3/2023 1:45:00 PM 22.84 73.112 0.376 8.18 8.72 10.05
9/3/2023 2:00:00 PM 22.96 73.328 0.376 8.22 6.88 10.2
9/3/2023 2:15:00 PM 23.07 73.526 0.376 8.24 4.88 10.31
9/3/2023 2:30:00 PM 23.19 73.742 0.376 8.27 5.35 10.42
9/3/2023 2:45:00 PM 23.3 73.94 0.376 8.3 5.01 10.51
9/3/2023 3:00:00 PM 23.4 74.12 0.376 8.32 5.92 10.61
9/3/2023 3:15:00 PM 23.5 74.3 0.376 8.33 6.94 10.69
9/3/2023 3:30:00 PM 23.59 74.462 0.376 8.36 7.59 10.77
9/3/2023 3:45:00 PM 23.68 74.624 0.376 8.39 6.07 10.84
9/3/2023 4:00:00 PM 23.74 74.732 0.376 8.41 6.58 10.9
9/3/2023 4:15:00 PM 23.8 74.84 0.375 8.42 7.07 10.95
9/3/2023 4:30:00 PM 23.86 74.948 0.375 8.44 5.75 11
9/3/2023 4:45:00 PM 23.9 75.02 0.375 8.43 5.08 11.03
9/3/2023 5:00:00 PM 23.93 75.074 0.375 8.47 4.71 11.05
9/3/2023 5:15:00 PM 23.93 75.074 0.375 8.44 4.59 11.05
9/3/2023 5:30:00 PM 23.93 75.074 0.375 8.48 4.53 11.06
9/3/2023 5:45:00 PM 23.91 75.038 0.375 8.49 4.45 11.04
9/3/2023 6:00:00 PM 23.89 75.002 0.375 8.49 4.03 11.02
9/3/2023 6:15:00 PM 23.85 74.93 0.375 8.5 4.46 10.98
9/3/2023 6:30:00 PM 23.79 74.82201 0.375 8.51 5.06 10.95
9/3/2023 6:45:00 PM 23.74 74.732 0.375 8.5 5.29 10.87
9/3/2023 7:00:00 PM 23.68 74.624 0.376 8.5 5.85 10.8
9/3/2023 7:15:00 PM 23.65 74.57 0.376 8.5 6.15 10.78
9/3/2023 7:30:00 PM 23.6 74.48 0.376 8.5 5.82 10.68
9/3/2023 7:45:00 PM 23.56 74.408 0.376 8.49 5.88 10.58
9/3/2023 8:00:00 PM 23.52 74.336 0.376 8.49 6.4 10.49
9/3/2023 8:15:00 PM 23.47 74.246 0.376 8.48 5.96 10.37
9/3/2023 8:30:00 PM 23.44 74.192 0.376 8.47 5.57 10.29
9/3/2023 8:45:00 PM 23.39 74.102 0.376 8.46 5.33 10.15
9/3/2023 9:00:00 PM 23.36 74.048 0.376 8.45 5.27 10.05
9/3/2023 9:15:00 PM 23.32 73.976 0.377 8.43 5.08 9.92
9/3/2023 9:30:00 PM 23.29 73.922 0.377 8.42 4.77 9.81
9/3/2023 9:45:00 PM 23.26 73.868 0.377 8.41 5.28 9.7
9/3/2023 10:00:00 PM 23.23 73.814 0.377 8.4 5.27 9.58
9/3/2023 10:15:00 PM 23.2 73.76 0.377 8.39 5.91 9.48
9/3/2023 10:30:00 PM 23.16 73.688 0.377 8.37 7.98 9.35
9/3/2023 10:45:00 PM 23.14 73.652 0.378 8.36 5.68 9.27
9/3/2023 11:00:00 PM 23.1 73.58 0.378 8.35 5.53 9.16
9/3/2023 11:15:00 PM 23.08 73.544 0.378 8.23 5.63 9.08
9/3/2023 11:30:00 PM 23.04 73.472 0.378 8.31 5.58 8.96
9/3/2023 11:45:00 PM 23 73.4 0.378 8.29 5.9 8.86
9/4/2023 12:00:00 AM 22.96 73.328 0.378 8.27 6.24 8.75
9/4/2023 12:15:00 AM 22.92 73.256 0.378 8.26 8.43 8.64
9/4/2023 12:30:00 AM 22.88 73.184 0.379 8.24 5.77 8.56
9/4/2023 12:45:00 AM 22.85 73.13 0.379 8.22 5.79 8.45
9/4/2023 1:00:00 AM 22.81 73.058 0.379 8.19 5.59 8.35
9/4/2023 1:15:00 AM 22.78 73.004 0.379 8.18 5.67 8.29
9/4/2023 1:30:00 AM 22.73 72.914 0.379 8.15 6.23 8.2
9/4/2023 1:45:00 AM 22.7 72.86 0.379 8.13 6.47 8.12
9/4/2023 2:00:00 AM 22.66 72.788 0.38 8.06 5.74 8.05
9/4/2023 2:15:00 AM 22.62 72.716 0.38 8.1 6.49 7.98
9/4/2023 2:30:00 AM 22.57 72.626 0.38 8.07 6.1 7.9
9/4/2023 2:45:00 AM 22.53 72.554 0.38 8.06 6.03 7.82
9/4/2023 3:00:00 AM 22.48 72.464 0.38 7.98 5.89 7.77
9/4/2023 3:15:00 AM 22.44 72.392 0.381 8.01 6.3 7.67
9/4/2023 3:30:00 AM 22.4 72.32 0.381 7.99 5.77 7.64
9/4/2023 3:45:00 AM 22.37 72.266 0.381 7.98 5.95 7.59
9/4/2023 4:00:00 AM 22.34 72.212 0.381 7.93 5.89 7.56
9/4/2023 4:15:00 AM 22.3 72.14 0.381 7.95 6.72 7.49
9/4/2023 4:30:00 AM 22.26 72.068 0.381 7.93 6.84 7.45
9/4/2023 4:45:00 AM 22.23 72.014 0.382 7.9 7.3 7.38
9/4/2023 5:00:00 AM 22.19 71.942 0.382 7.88 6.95 7.34
9/4/2023 5:15:00 AM 22.15 71.87 0.382 7.87 7.73 7.26
9/4/2023 5:30:00 AM 22.12 71.816 0.382 7.86 6.16 7.24
9/4/2023 5:45:00 AM 22.1 71.78 0.382 7.85 6.65 7.23
9/4/2023 6:00:00 AM 22.07 71.726 0.382 7.83 6.46 7.17
9/4/2023 6:15:00 AM 22.05 71.69 0.383 7.83 6.67 7.15
9/4/2023 6:30:00 AM 22.01 71.618 0.383 7.77 6.81 7.1
9/4/2023 6:45:00 AM 21.99 71.582 0.383 7.79 7.19 7.05
9/4/2023 7:00:00 AM 21.96 71.528 0.383 7.77 7.46 7.04
9/4/2023 7:15:00 AM 21.94 71.492 0.383 7.78 7.59 7
9/4/2023 7:30:00 AM 21.93 71.474 0.383 7.77 7.57 7
9/4/2023 7:45:00 AM 21.92 71.456 0.383 7.76 6.72 6.99
9/4/2023 8:00:00 AM 21.91 71.438 0.384 7.75 6.5 7
9/4/2023 8:15:00 AM 21.92 71.456 0.384 7.75 6.23 7.02
9/4/2023 8:30:00 AM 21.97 71.546 0.384 7.74 6.37 7.07
9/4/2023 8:45:00 AM 22.01 71.618 0.384 7.75 5.94 7.12
9/4/2023 9:00:00 AM 22.04 71.672 0.384 7.75 5.52 7.15
9/4/2023 9:15:00 AM 22.07 71.726 0.384 7.76 4.89 7.21
9/4/2023 9:30:00 AM 22.15 71.87 0.384 7.77 9.38 7.31
9/4/2023 9:45:00 AM 22.23 72.014 0.384 7.79 6.09 7.41
9/4/2023 10:00:00 AM 22.32 72.176 0.384 7.8 5.05 7.53
9/4/2023 10:15:00 AM 22.43 72.374 0.384 7.81 5.41 7.68
9/4/2023 10:30:00 AM 22.55 72.59 0.384 7.81 5.3 7.84
9/4/2023 10:45:00 AM 22.69 72.842 0.384 7.86 4.6 8.03
9/4/2023 11:00:00 AM 22.84 73.112 0.384 7.89 4.51 8.16
9/4/2023 11:15:00 AM 22.99 73.382 0.384 7.92 4.19 8.34
9/4/2023 11:30:00 AM 23.17 73.706 0.384 7.96 3.99 8.56
9/4/2023 11:45:00 AM 23.34 74.012 0.384 7.98 4.84 8.71
9/4/2023 12:00:00 PM 23.53 74.354 0.384 8.02 5.7 8.9
9/4/2023 12:15:00 PM 23.68 74.624 0.384 8.05 4.58 9.01
9/4/2023 12:30:00 PM 23.83 74.894 0.384 8.08 4.66 9.14
9/4/2023 12:45:00 PM 23.95 75.11 0.384 8.11 4.27 9.26
9/4/2023 1:00:00 PM 24.09 75.362 0.384 8.13 4.18 9.38
9/4/2023 1:15:00 PM 24.24 75.632 0.384 8.15 4.23 9.51
9/4/2023 1:30:00 PM 24.37 75.866 0.384 8.19 4.05 9.68
9/4/2023 1:45:00 PM 24.5 76.1 0.384 8.13 3.68 9.79
9/4/2023 2:00:00 PM 24.61 76.298 0.383 8.24 3.72 9.91
9/4/2023 2:15:00 PM 24.73 76.514 0.383 8.22 3.71 10.01
9/4/2023 2:30:00 PM 24.86 76.748 0.383 8.29 4.01 10.16
9/4/2023 2:45:00 PM 24.97 76.946 0.383 8.31 4.03 10.24
9/4/2023 3:00:00 PM 25.08 77.144 0.383 8.35 3.73 10.37
9/4/2023 3:15:00 PM 25.16 77.288 0.383 8.35 4 10.43
9/4/2023 3:30:00 PM 25.25 77.45 0.383 8.38 3.51 10.49
9/4/2023 3:45:00 PM 25.33 77.594 0.383 8.4 3.74 10.59
9/4/2023 4:00:00 PM 25.42 77.756 0.383 8.43 3.74 10.72
9/4/2023 4:15:00 PM 25.47 77.846 0.383 8.44 4.13 10.74
9/4/2023 4:30:00 PM 25.52 77.936 0.383 8.45 3.79 10.74
9/4/2023 4:45:00 PM 25.58 78.044 0.383 8.46 4.28 10.82
9/4/2023 5:00:00 PM 25.63 78.134 0.383 8.47 4.25 10.82
9/4/2023 5:15:00 PM 25.68 78.224 0.383 8.48 4.44 10.87
9/4/2023 5:30:00 PM 25.71 78.278 0.383 8.49 4.2 10.9
9/4/2023 5:45:00 PM 25.71 78.278 0.383 8.49 4.34 10.87
9/4/2023 6:00:00 PM 25.69 78.242 0.383 8.5 4.46 10.8
9/4/2023 6:15:00 PM 25.66 78.188 0.383 8.5 4.99 10.8
9/4/2023 6:30:00 PM 25.62 78.116 0.383 8.5 5.18 10.76
9/4/2023 6:45:00 PM 25.57 78.026 0.383 8.51 6.05 10.74
9/4/2023 7:00:00 PM 25.52 77.936 0.383 8.51 5.68 10.69
9/4/2023 7:15:00 PM 25.48 77.864 0.384 8.5 5.97 10.61
9/4/2023 7:30:00 PM 25.43 77.774 0.384 8.49 6.25 10.53
9/4/2023 7:45:00 PM 25.4 77.72 0.384 8.49 5.62 10.45
9/4/2023 8:00:00 PM 25.36 77.648 0.384 8.48 6.29 10.4
9/4/2023 8:15:00 PM 25.31 77.558 0.384 8.47 6.43 10.27
9/4/2023 8:30:00 PM 25.26 77.468 0.384 8.47 5.23 10.21
9/4/2023 8:45:00 PM 25.21 77.378 0.384 8.45 6.02 10.07
9/4/2023 9:00:00 PM 25.16 77.288 0.384 8.44 5.84 9.96
9/4/2023 9:15:00 PM 25.1 77.18 0.385 8.41 6.47 9.79
9/4/2023 9:30:00 PM 25.04 77.07201 0.385 8.39 6.22 9.66
9/4/2023 9:45:00 PM 24.99 76.982 0.385 8.38 6.68 9.49
9/4/2023 10:00:00 PM 24.93 76.874 0.385 8.36 5.88 9.39
9/4/2023 10:15:00 PM 24.87 76.766 0.385 8.34 5.61 9.23
9/4/2023 10:30:00 PM 24.82 76.676 0.386 8.32 5.49 9.11
9/4/2023 10:45:00 PM 24.77 76.586 0.386 8.3 5.78 8.99
9/4/2023 11:00:00 PM 24.72 76.496 0.386 8.29 5.59 8.87
9/4/2023 11:15:00 PM 24.68 76.424 0.386 8.27 5.18 8.78
9/4/2023 11:30:00 PM 24.62 76.316 0.386 8.25 5.83 8.64
9/4/2023 11:45:00 PM 24.57 76.226 0.387 8.24 5.4 8.53
9/5/2023 12:00:00 AM 24.53 76.154 0.387 8.23 5.14 8.46
9/5/2023 12:15:00 AM 24.49 76.082 0.387 8.21 5.75 8.37
9/5/2023 12:30:00 AM 24.44 75.992 0.387 8.19 6.27 8.25
9/5/2023 12:45:00 AM 24.39 75.902 0.387 8.18 6.17 8.16
9/5/2023 1:00:00 AM 24.34 75.812 0.387 8.15 5.6 8.06
9/5/2023 1:15:00 AM 24.3 75.74 0.388 8.14 5.72 7.96
9/5/2023 1:30:00 AM 24.24 75.632 0.388 8.11 6.29 7.85
9/5/2023 1:45:00 AM 24.2 75.56 0.388 8.08 5.5 7.76
9/5/2023 2:00:00 AM 24.16 75.488 0.388 8.07 5.63 7.66
9/5/2023 2:15:00 AM 24.12 75.416 0.388 8.05 5.51 7.59
9/5/2023 2:30:00 AM 24.08 75.344 0.388 8.04 5.07 7.55
9/5/2023 2:45:00 AM 24.02 75.236 0.388 7.97 5.31 7.44
9/5/2023 3:00:00 AM 23.98 75.164 0.389 8 5.42 7.39
9/5/2023 3:15:00 AM 23.94 75.092 0.389 7.98 6.01 7.33
9/5/2023 3:30:00 AM 23.89 75.002 0.389 7.96 6.25 7.25
9/5/2023 3:45:00 AM 23.84 74.912 0.389 7.94 7.02 7.18
9/5/2023 4:00:00 AM 23.79 74.82201 0.389 7.92 6.14 7.13
9/5/2023 4:15:00 AM 23.74 74.732 0.389 7.89 8.16 6.98
9/5/2023 4:30:00 AM 23.69 74.642 0.389 7.85 5.91 6.91
9/5/2023 4:45:00 AM 23.63 74.534 0.389 7.87 10.02 6.92
9/5/2023 5:00:00 AM 23.6 74.48 0.389 7.84 6.06 6.76
9/5/2023 5:15:00 AM 23.53 74.354 0.389 7.83 6.98 6.79
9/5/2023 5:30:00 AM 23.48 74.264 0.389 7.82 7.22 6.78
9/5/2023 5:45:00 AM 23.44 74.192 0.39 7.81 6.62 6.77
9/5/2023 6:00:00 AM 23.39 74.102 0.39 7.8 6.48 6.73
9/5/2023 6:15:00 AM 23.33 73.994 0.39 7.79 6.44 6.67
9/5/2023 6:30:00 AM 23.28 73.904 0.39 7.77 6.14 6.53
9/5/2023 6:45:00 AM 23.24 73.832 0.39 7.75 6.86 6.56
9/5/2023 7:00:00 AM 23.18 73.724 0.39 7.74 8.58 6.55
9/5/2023 7:15:00 AM 23.15 73.67 0.39 7.73 7.26 6.51
9/5/2023 7:30:00 AM 23.15 73.67 0.39 7.73 6.95 6.54
9/5/2023 7:45:00 AM 23.14 73.652 0.39 7.72 6.78 6.49
9/5/2023 8:00:00 AM 23.15 73.67 0.39 7.72 6.38 6.58
9/5/2023 8:15:00 AM 23.15 73.67 0.391 7.73 6.31 6.62
9/5/2023 8:30:00 AM 23.19 73.742 0.391 7.73 5.09 6.6
9/5/2023 8:45:00 AM 23.22 73.796 0.391 7.74 5.3 6.71
9/5/2023 9:00:00 AM 23.23 73.814 0.391 7.74 5.1 6.72
9/5/2023 9:15:00 AM 23.24 73.832 0.391 7.74 5.29 6.76
9/5/2023 9:30:00 AM 23.28 73.904 0.391 7.74 4.92 6.74
9/5/2023 9:45:00 AM 23.36 74.048 0.391 7.76 6.98 6.98
9/5/2023 10:00:00 AM 23.44 74.192 0.391 7.78 6.29 7.14
9/5/2023 10:15:00 AM 23.55 74.39 0.391 7.79 7.46 7.21
9/5/2023 10:30:00 AM 23.63 74.534 0.391 7.8 8.19 7.32
9/5/2023 10:45:00 AM 23.77 74.786 0.391 7.83 10.35 7.57
9/5/2023 11:00:00 AM 23.9 75.02 0.391 7.86 9.65 7.76
9/5/2023 11:15:00 AM 24.04 75.272 0.391 7.88 6.81 7.9
9/5/2023 11:30:00 AM 24.21 75.578 0.391 7.92 7.36 8.13
9/5/2023 11:45:00 AM 24.37 75.866 0.391 7.94 6.17 8.28
9/5/2023 12:00:00 PM 24.55 76.19 0.391 7.98 4.77 8.46
9/5/2023 12:15:00 PM 24.69 76.442 0.391 7.95 4.25 8.58
9/5/2023 12:30:00 PM 24.86 76.748 0.39 8.04 6.09 8.74
9/5/2023 12:45:00 PM 24.98 76.964 0.39 8.07 7.94 8.88
9/5/2023 1:00:00 PM 25.11 77.198 0.391 8.09 4.77 8.98
9/5/2023 1:15:00 PM 25.27 77.486 0.39 8.12 5.83 9.12
9/5/2023 1:30:00 PM 25.4 77.72 0.39 8.14 5.88 9.25
9/5/2023 1:45:00 PM 25.56 78.008 0.39 8.17 4.29 9.4
9/5/2023 2:00:00 PM 25.71 78.278 0.39 8.2 4.5 9.57
9/5/2023 2:15:00 PM 25.82 78.476 0.39 8.22 4.94 9.66
9/5/2023 2:30:00 PM 25.96 78.728 0.39 8.25 3.85 9.82
9/5/2023 2:45:00 PM 26.06 78.908 0.39 8.27 3.77 9.88
9/5/2023 3:00:00 PM 26.15 79.07 0.39 8.29 3.75 9.99
9/5/2023 3:15:00 PM 26.23 79.214 0.39 8.31 4.38 10.1
9/5/2023 3:30:00 PM 26.27 79.286 0.39 8.34 3.81 10.18
9/5/2023 3:45:00 PM 26.32 79.376 0.39 8.19 3.91 10.25
9/5/2023 4:00:00 PM 26.36 79.448 0.39 8.4 4.18 10.32
9/5/2023 4:15:00 PM 26.38 79.484 0.39 8.25 4.51 10.33
9/5/2023 4:30:00 PM 26.39 79.502 0.39 8.39 4.42 10.35
9/5/2023 4:45:00 PM 26.37 79.466 0.39 8.38 4.6 10.36
9/5/2023 5:00:00 PM 26.37 79.466 0.39 8.4 4.48 10.39
9/5/2023 5:15:00 PM 26.36 79.448 0.39 8.39 4.22 10.38
9/5/2023 5:30:00 PM 26.35 79.43 0.39 8.4 5.25 10.34
9/5/2023 5:45:00 PM 26.32 79.376 0.39 8.39 6.61 10.35
9/5/2023 6:00:00 PM 26.28 79.304 0.391 8.39 6.81 10.29
9/5/2023 6:15:00 PM 26.22 79.196 0.391 8.38 7.51 10.21
9/5/2023 6:30:00 PM 26.15 79.07 0.391 8.37 5.9 10.15
9/5/2023 6:45:00 PM 26.07 78.926 0.392 8.37 5.68 10.09
9/5/2023 7:00:00 PM 26 78.8 0.392 8.36 7.33 10.01
9/5/2023 7:15:00 PM 25.93 78.674 0.392 8.35 6.66 9.92
9/5/2023 7:30:00 PM 25.88 78.584 0.393 8.34 6.71 9.86
9/5/2023 7:45:00 PM 25.83 78.494 0.393 8.34 6.11 9.79
9/5/2023 8:00:00 PM 25.78 78.404 0.394 8.33 5.52 9.7
9/5/2023 8:15:00 PM 25.74 78.332 0.394 8.32 6.45 9.59
9/5/2023 8:30:00 PM 25.7 78.26 0.394 8.31 4.87 9.49
9/5/2023 8:45:00 PM 25.67 78.206 0.395 8.3 5.09 9.42
9/5/2023 9:00:00 PM 25.63 78.134 0.395 8.28 6.11 9.3
9/5/2023 9:15:00 PM 25.61 78.098 0.396 8.26 5.43 9.19
9/5/2023 9:30:00 PM 25.57 78.026 0.396 8.25 6.52 9.09
9/5/2023 9:45:00 PM 25.53 77.954 0.397 8.23 6.13 8.96
9/5/2023 10:00:00 PM 25.5 77.9 0.398 8.22 5.62 8.88
9/5/2023 10:15:00 PM 25.47 77.846 0.398 8.18 5.03 8.76
9/5/2023 10:30:00 PM 25.44 77.792 0.399 8.17 7.32 8.61
9/5/2023 10:45:00 PM 25.4 77.72 0.399 8.15 5.37 8.53
9/5/2023 11:00:00 PM 25.37 77.666 0.4 8.14 5.21 8.46
9/5/2023 11:15:00 PM 25.34 77.612 0.4 8.12 4.95 8.35
9/5/2023 11:30:00 PM 25.29 77.522 0.401 8.1 5.34 8.23
9/5/2023 11:45:00 PM 25.25 77.45 0.401 8.08 5.18 8.18
9/6/2023 12:00:00 AM 25.21 77.378 0.402 8.06 6.09 8.09
9/6/2023 12:15:00 AM 25.17 77.306 0.402 8.05 6.71 8
9/6/2023 12:30:00 AM 25.12 77.216 0.403 8.03 5.69 7.87
9/6/2023 12:45:00 AM 25.08 77.144 0.403 8.01 6.13 7.78
9/6/2023 1:00:00 AM 25.02 77.036 0.404 7.98 13.77 7.68
9/6/2023 1:15:00 AM 24.97 76.946 0.404 7.96 6.17 7.56
9/6/2023 1:30:00 AM 24.92 76.856 0.405 7.93 5.29 7.48
9/6/2023 1:45:00 AM 24.87 76.766 0.405 7.92 5.2 7.39
9/6/2023 2:00:00 AM 24.82 76.676 0.406 7.9 7.93 7.31
9/6/2023 2:15:00 AM 24.77 76.586 0.407 7.89 5.72 7.23
9/6/2023 2:30:00 AM 24.72 76.496 0.407 7.86 6.08 7.11
9/6/2023 2:45:00 AM 24.67 76.406 0.407 7.85 6.27 7.09
9/6/2023 3:00:00 AM 24.61 76.298 0.408 7.83 5.75 7.01
9/6/2023 3:15:00 AM 24.57 76.226 0.408 7.8 6.56 6.94
9/6/2023 3:30:00 AM 24.52 76.136 0.409 7.79 5.71 6.86
9/6/2023 3:45:00 AM 24.49 76.082 0.409 7.78 8.96 6.84
9/6/2023 4:00:00 AM 24.45 76.01 0.409 7.77 5.49 6.74
9/6/2023 4:15:00 AM 24.42 75.956 0.41 7.77 6.01 6.72
9/6/2023 4:30:00 AM 24.38 75.884 0.41 7.73 10.1 6.68
9/6/2023 4:45:00 AM 24.35 75.83 0.41 7.61 6.37 6.64
9/6/2023 5:00:00 AM 24.32 75.776 0.411 7.69 56.14 6.54
9/6/2023 5:15:00 AM 24.28 75.704 0.411 7.69 5.75 6.51
9/6/2023 5:30:00 AM 24.25 75.65 0.411 7.68 8.94 6.47
9/6/2023 5:45:00 AM 24.21 75.578 0.412 7.67 5.85 6.45
9/6/2023 6:00:00 AM 24.18 75.524 0.412 7.68 6.01 6.4
9/6/2023 6:15:00 AM 24.14 75.452 0.412 7.65 6.55 6.4
9/6/2023 6:30:00 AM 24.11 75.398 0.413 7.65 5.63 6.28
9/6/2023 6:45:00 AM 24.07 75.326 0.413 7.65 6.04 6.31
9/6/2023 7:00:00 AM 24.05 75.29 0.413 7.63 7.39 6.23
9/6/2023 7:15:00 AM 24.02 75.236 0.414 7.63 6.22 6.23
9/6/2023 7:30:00 AM 23.99 75.182 0.414 7.62 7.23 6.2
9/6/2023 7:45:00 AM 23.97 75.146 0.414 7.6 6.66 6.18
9/6/2023 8:00:00 AM 23.95 75.11 0.414 7.61 6.22 6.14
9/6/2023 8:15:00 AM 23.94 75.092 0.415 7.59 5.83 6.2
9/6/2023 8:30:00 AM 23.93 75.074 0.415 7.6 5.68 6.24
9/6/2023 8:45:00 AM 23.93 75.074 0.415 7.61 5.61 6.22
9/6/2023 9:00:00 AM 23.94 75.092 0.415 7.59 5.5 6.31
9/6/2023 9:15:00 AM 23.98 75.164 0.415 7.58 5.82 6.3
9/6/2023 9:30:00 AM 23.99 75.182 0.416 7.46 5.11 6.38
9/6/2023 9:45:00 AM 24.03 75.254 0.416 7.58 5.12 6.45
9/6/2023 10:00:00 AM 24.07 75.326 0.416 7.46 5.01 6.54
9/6/2023 10:15:00 AM 24.13 75.434 0.416 7.58 5.1 6.62
9/6/2023 10:30:00 AM 24.24 75.632 0.416 7.59 4.58 6.77
9/6/2023 10:45:00 AM 24.37 75.866 0.416 7.61 5.51 6.96
9/6/2023 11:00:00 AM 24.49 76.082 0.417 7.52 6.26 7.09
9/6/2023 11:15:00 AM 24.62 76.316 0.416 7.66 5.54 7.24
9/6/2023 11:30:00 AM 24.73 76.514 0.416 7.68 4.66 7.41
9/6/2023 11:45:00 AM 24.87 76.766 0.417 7.71 5.76 7.6
9/6/2023 12:00:00 PM 25.04 77.07201 0.416 7.72 5.99 7.8
9/6/2023 12:15:00 PM 25.2 77.36 0.416 7.75 5.39 7.98
9/6/2023 12:30:00 PM 25.38 77.684 0.416 7.77 5.96 8.16
9/6/2023 12:45:00 PM 25.53 77.954 0.416 7.82 8.71 8.37
9/6/2023 1:00:00 PM 25.62 78.116 0.416 7.85 4.97 8.47
9/6/2023 1:15:00 PM 25.75 78.35 0.416 7.89 5.81 8.5
9/6/2023 1:30:00 PM 25.9 78.62 0.416 7.9 6.54 8.72
9/6/2023 1:45:00 PM 26.02 78.836 0.416 7.94 4.58 8.86
9/6/2023 2:00:00 PM 26.13 79.034 0.416 7.84 4.62 8.96
9/6/2023 2:15:00 PM 26.26 79.268 0.416 7.98 4.21 9.09
9/6/2023 2:30:00 PM 26.36 79.448 0.416 8.01 4.69 9.23
9/6/2023 2:45:00 PM 26.44 79.592 0.416 8.03 6.37 9.28
9/6/2023 3:00:00 PM 26.52 79.736 0.416 8.05 5.84 9.34
9/6/2023 3:15:00 PM 26.61 79.898 0.415 7.98 5.28 9.46
9/6/2023 3:30:00 PM 26.69 80.042 0.415 8.07 6.51 9.5
9/6/2023 3:45:00 PM 26.78 80.204 0.415 8.1 4.71 9.61
9/6/2023 4:00:00 PM 26.84 80.312 0.415 8.12 5.1 9.61
9/6/2023 4:15:00 PM 26.92 80.456 0.415 8.14 5.03 9.71
9/6/2023 4:30:00 PM 26.98 80.564 0.415 8.17 4.91 9.83
9/6/2023 4:45:00 PM 27.04 80.672 0.415 8.19 5.48 9.89
9/6/2023 5:00:00 PM 27.09 80.762 0.415 8.2 5.46 9.9
9/6/2023 5:15:00 PM 27.13 80.834 0.415 8.22 4.94 10
9/6/2023 5:30:00 PM 27.16 80.888 0.415 8.22 4.34 9.96
9/6/2023 5:45:00 PM 27.16 80.888 0.415 8.15 4.48 9.9
9/6/2023 6:00:00 PM 27.14 80.852 0.415 8.22 5.16 9.96
9/6/2023 6:15:00 PM 27.1 80.78 0.415 8.23 7.03 9.89
9/6/2023 6:30:00 PM 27.04 80.672 0.415 8.23 7.13 9.84
9/6/2023 6:45:00 PM 26.97 80.546 0.415 8.23 5.96 9.81
9/6/2023 7:00:00 PM 26.89 80.402 0.415 8.23 6.72 9.71
9/6/2023 7:15:00 PM 26.82 80.276 0.416 8.22 7.2 9.64
9/6/2023 7:30:00 PM 26.76 80.168 0.416 8.22 6.24 9.5
9/6/2023 7:45:00 PM 26.7 80.06 0.416 8.2 7.77 9.43
9/6/2023 8:00:00 PM 26.64 79.952 0.416 8.18 6.54 9.35
9/6/2023 8:15:00 PM 26.58 79.844 0.417 8.17 5.62 9.26
9/6/2023 8:30:00 PM 26.51 79.718 0.417 8.15 5.26 9.14
9/6/2023 8:45:00 PM 26.45 79.61 0.417 8.13 5.57 9.03
9/6/2023 9:00:00 PM 26.39 79.502 0.418 8.11 5.85 8.92
9/6/2023 9:15:00 PM 26.31 79.358 0.418 8.08 5.97 8.78
9/6/2023 9:30:00 PM 26.25 79.25 0.418 8.07 6.57 8.65
9/6/2023 9:45:00 PM 26.18 79.124 0.419 8.04 6.04 8.54
9/6/2023 10:00:00 PM 26.12 79.016 0.419 8 5.58 8.38
9/6/2023 10:15:00 PM 26.05 78.89 0.42 8 5.33 8.27
9/6/2023 10:30:00 PM 25.99 78.782 0.42 7.97 5.64 8.17
9/6/2023 10:45:00 PM 25.92 78.656 0.42 7.95 5.08 8.07
9/6/2023 11:00:00 PM 25.86 78.548 0.421 7.85 5.85 7.97
9/6/2023 11:15:00 PM 25.8 78.44 0.421 7.9 5.38 7.85
9/6/2023 11:30:00 PM 25.75 78.35 0.422 7.81 4.94 7.79
9/6/2023 11:45:00 PM 25.7 78.26 0.422 7.88 4.86 7.69
9/7/2023 12:00:00 AM 25.64 78.152 0.422 7.86 5.19 7.63
9/7/2023 12:15:00 AM 25.59 78.062 0.423 7.85 5.67 7.54
9/7/2023 12:30:00 AM 25.54 77.972 0.423 7.73 5.69 7.48
9/7/2023 12:45:00 AM 25.49 77.882 0.424 7.81 5.02 7.37
9/7/2023 1:00:00 AM 25.44 77.792 0.424 7.81 5.3 7.31
9/7/2023 1:15:00 AM 25.4 77.72 0.425 7.8 5.16 7.23
9/7/2023 1:30:00 AM 25.35 77.63 0.425 7.78 5.09 7.16
9/7/2023 1:45:00 AM 25.31 77.558 0.425 7.77 5.19 7.09
9/7/2023 2:00:00 AM 25.26 77.468 0.426 7.75 5.03 7
9/7/2023 2:15:00 AM 25.21 77.378 0.426 7.73 5.32 6.93
9/7/2023 2:30:00 AM 25.17 77.306 0.426 7.72 4.99 6.85
9/7/2023 2:45:00 AM 25.12 77.216 0.427 7.71 4.83 6.78
9/7/2023 3:00:00 AM 25.08 77.144 0.427 7.69 4.96 6.71
9/7/2023 3:15:00 AM 25.04 77.07201 0.428 7.67 4.57 6.65
9/7/2023 3:30:00 AM 25 77 0.428 7.71 4.79 6.58
9/7/2023 3:45:00 AM 24.95 76.91 0.428 7.7 4.81 6.51
9/7/2023 4:00:00 AM 24.91 76.838 0.428 7.69 5.27 6.44
9/7/2023 4:15:00 AM 24.86 76.748 0.429 7.68 5.27 6.38
9/7/2023 4:30:00 AM 24.83 76.694 0.429 7.7 5.01 6.33
9/7/2023 4:45:00 AM 24.77 76.586 0.429 7.69 4.94 6.27
9/7/2023 5:00:00 AM 24.73 76.514 0.43 7.69 4.94 6.23
9/7/2023 5:15:00 AM 24.7 76.46 0.43 7.69 5.43 6.23
9/7/2023 5:30:00 AM 24.65 76.37 0.43 7.68 5.26 6.19
9/7/2023 5:45:00 AM 24.6 76.28 0.43 7.67 5.5 6.14
9/7/2023 6:00:00 AM 24.55 76.19 0.431 7.67 5.22 6.11
9/7/2023 6:15:00 AM 24.51 76.118 0.431 7.66 5.43 6.09
9/7/2023 6:30:00 AM 24.47 76.046 0.431 7.65 5.16 6.05
9/7/2023 6:45:00 AM 24.43 75.974 0.432 7.65 5.14 6.02
9/7/2023 7:00:00 AM 24.4 75.92 0.432 7.64 5.29 5.96
9/7/2023 7:15:00 AM 24.39 75.902 0.432 7.64 5.09 5.96
9/7/2023 7:30:00 AM 24.37 75.866 0.432 7.63 4.67 5.96
9/7/2023 7:45:00 AM 24.35 75.83 0.433 7.63 5.55 5.94
9/7/2023 8:00:00 AM 24.33 75.794 0.433 7.63 5.58 5.95
9/7/2023 8:15:00 AM 24.34 75.812 0.433 7.63 5.37 6.01
9/7/2023 8:30:00 AM 24.36 75.848 0.433 7.64 4.97 6.06
9/7/2023 8:45:00 AM 24.39 75.902 0.433 7.64 4.75 6.16
9/7/2023 9:00:00 AM 24.43 75.974 0.434 7.65 4.97 6.22
9/7/2023 9:15:00 AM 24.47 76.046 0.434 7.66 4.85 6.27
9/7/2023 9:30:00 AM 24.54 76.172 0.434 7.67 4.98 6.36
9/7/2023 9:45:00 AM 24.64 76.352 0.434 7.69 5.9 6.48
9/7/2023 10:00:00 AM 24.75 76.55 0.434 7.7 4.73 6.6
9/7/2023 10:15:00 AM 24.84 76.712 0.434 7.7 4.54 6.74
9/7/2023 10:30:00 AM 24.89 76.802 0.434 7.71 4.43 6.83
9/7/2023 10:45:00 AM 24.96 76.92799 0.434 7.73 4.52 6.99
9/7/2023 11:00:00 AM 25.05 77.09 0.435 7.74 11.42 7.09
9/7/2023 11:15:00 AM 25.19 77.342 0.435 7.76 19.55 7.31
9/7/2023 11:30:00 AM 25.39 77.702 0.435 7.8 6.68 7.48
9/7/2023 11:45:00 AM 25.57 78.026 0.435 7.84 6.06 7.74
9/7/2023 12:00:00 PM 25.75 78.35 0.435 7.86 7.43 7.84
9/7/2023 12:15:00 PM 25.9 78.62 0.434 7.88 9.6 8
9/7/2023 12:30:00 PM 26.03 78.854 0.434 7.9 5.68 8.15
9/7/2023 12:45:00 PM 26.19 79.142 0.434 7.93 5.46 8.29
9/7/2023 1:00:00 PM 26.29 79.32201 0.434 7.96 4.56 8.45
9/7/2023 1:15:00 PM 26.43 79.574 0.434 7.98 4.29 8.58
9/7/2023 1:30:00 PM 26.53 79.754 0.434 8 4.08 8.67
9/7/2023 1:45:00 PM 26.65 79.97 0.434 8.04 4.58 8.86
9/7/2023 2:00:00 PM 26.75 80.15 0.434 8.05 4.26 8.94
9/7/2023 2:15:00 PM 26.86 80.348 0.434 8.07 4.5 9.03
9/7/2023 2:30:00 PM 26.97 80.546 0.434 8.09 4.88 9.13
9/7/2023 2:45:00 PM 27.05 80.69 0.433 8.11 4.15 9.23
9/7/2023 3:00:00 PM 27.16 80.888 0.433 8.13 3.55 9.33
9/7/2023 3:15:00 PM 27.25 81.05 0.433 8.15 4.06 9.41
9/7/2023 3:30:00 PM 27.31 81.158 0.433 8.16 3.77 9.49
9/7/2023 3:45:00 PM 27.38 81.284 0.433 8.18 3.81 9.57
9/7/2023 4:00:00 PM 27.4 81.32 0.433 8.19 3.61 9.63
9/7/2023 4:15:00 PM 27.35 81.23 0.433 8.22 6.58 9.68
9/7/2023 4:30:00 PM 27.09 80.762 0.426 8.23 13.66 9.51
9/7/2023 4:45:00 PM 27.01 80.618 0.429 8.23 9.33 9.48
9/7/2023 5:00:00 PM 26.96 80.528 0.43 8.22 5.26 9.46
9/7/2023 5:15:00 PM 26.9 80.42 0.429 8.2 5.24 9.41
9/7/2023 5:30:00 PM 26.84 80.312 0.43 8.17 4.57 9.35
9/7/2023 5:45:00 PM 26.79 80.222 0.429 8.17 5.01 9.27
9/7/2023 6:00:00 PM 26.71 80.078 0.429 8.14 4.85 9.16
9/7/2023 6:15:00 PM 26.65 79.97 0.429 8.13 4.81 9.06
9/7/2023 6:30:00 PM 26.58 79.844 0.429 8.12 5.04 8.96
9/7/2023 6:45:00 PM 26.52 79.736 0.429 8.1 5.46 8.87
9/7/2023 7:00:00 PM 26.44 79.592 0.429 8.08 5.52 8.72
9/7/2023 7:15:00 PM 26.37 79.466 0.43 8.06 5.45 8.61
9/7/2023 7:30:00 PM 26.29 79.32201 0.43 8.04 5.28 8.48
9/7/2023 7:45:00 PM 26.21 79.17799 0.43 8 5.16 8.33
9/7/2023 8:00:00 PM 26.12 79.016 0.43 7.97 5.43 8.17
9/7/2023 8:15:00 PM 26.06 78.908 0.43 7.94 5.46 8.06
9/7/2023 8:30:00 PM 25.98 78.764 0.431 7.9 4.91 7.93
9/7/2023 8:45:00 PM 25.91 78.638 0.431 7.9 4.97 7.85
9/7/2023 9:00:00 PM 25.84 78.512 0.431 7.89 5.04 7.76
9/7/2023 9:15:00 PM 25.79 78.422 0.432 7.87 4.58 7.7
9/7/2023 9:30:00 PM 25.74 78.332 0.432 7.86 4.8 7.62
9/7/2023 9:45:00 PM 25.67 78.206 0.432 7.84 4.53 7.54
9/7/2023 10:00:00 PM 25.64 78.152 0.432 7.82 3.97 7.47
9/7/2023 10:15:00 PM 25.58 78.044 0.432 7.81 4.43 7.4
9/7/2023 10:30:00 PM 25.52 77.936 0.433 7.79 5.15 7.29
9/7/2023 10:45:00 PM 25.46 77.828 0.433 7.78 6.12 7.17
9/7/2023 11:00:00 PM 25.4 77.72 0.433 7.76 4.93 7.1
9/7/2023 11:15:00 PM 25.34 77.612 0.433 7.73 4.49 7
9/7/2023 11:30:00 PM 25.27 77.486 0.433 7.71 5.45 6.92
9/7/2023 11:45:00 PM 25.2 77.36 0.434 7.69 4.83 6.83
9/8/2023 12:00:00 AM 25.13 77.234 0.434 7.69 4.61 6.75
9/8/2023 12:15:00 AM 25.08 77.144 0.434 7.66 4.13 6.66
9/8/2023 12:30:00 AM 25.03 77.054 0.435 7.51 4.3 6.6
9/8/2023 12:45:00 AM 24.98 76.964 0.435 7.61 5.51 6.52
9/8/2023 1:00:00 AM 24.93 76.874 0.435 7.62 4.29 6.51
9/8/2023 1:15:00 AM 24.9 76.82 0.435 7.6 5.05 6.45
9/8/2023 1:30:00 AM 24.86 76.748 0.436 7.61 5.03 6.4
9/8/2023 1:45:00 AM 24.83 76.694 0.436 7.59 4.67 6.36
9/8/2023 2:00:00 AM 24.82 76.676 0.436 7.51 3.94 6.32
9/8/2023 2:15:00 AM 24.78 76.604 0.437 7.56 4.83 6.25
9/8/2023 2:30:00 AM 24.76 76.568 0.437 7.46 5.72 6.26
9/8/2023 2:45:00 AM 24.73 76.514 0.437 7.57 4.65 6.21
9/8/2023 3:00:00 AM 24.7 76.46 0.438 7.59 5.94 6.17
9/8/2023 3:15:00 AM 24.65 76.37 0.438 7.58 4.26 6.13
9/8/2023 3:30:00 AM 24.63 76.334 0.438 7.58 4.96 6.1
9/8/2023 3:45:00 AM 24.61 76.298 0.438 7.57 6.52 6.1
9/8/2023 4:00:00 AM 24.56 76.208 0.438 7.56 5.15 6.04
9/8/2023 4:15:00 AM 24.52 76.136 0.439 7.56 4.64 6.02
9/8/2023 4:30:00 AM 24.49 76.082 0.439 7.57 5.05 6.01
9/8/2023 4:45:00 AM 24.45 76.01 0.439 7.5 4.71 5.98
9/8/2023 5:00:00 AM 24.42 75.956 0.439 7.55 5.64 5.93
9/8/2023 5:15:00 AM 24.39 75.902 0.439 7.59 4.97 5.9
9/8/2023 5:30:00 AM 24.36 75.848 0.439 7.59 5.3 5.86
9/8/2023 5:45:00 AM 24.32 75.776 0.44 7.58 4.75 5.83
9/8/2023 6:00:00 AM 24.3 75.74 0.44 7.58 5.2 5.79
9/8/2023 6:15:00 AM 24.26 75.668 0.44 7.57 5.3 5.77
9/8/2023 6:30:00 AM 24.22 75.596 0.44 7.56 5.41 5.74
9/8/2023 6:45:00 AM 24.19 75.542 0.44 7.55 5.04 5.71
9/8/2023 7:00:00 AM 24.16 75.488 0.441 7.56 4.97 5.67
9/8/2023 7:15:00 AM 24.13 75.434 0.441 7.54 4.9 5.66
9/8/2023 7:30:00 AM 24.1 75.38 0.441 7.53 4.63 5.64
9/8/2023 7:45:00 AM 24.11 75.398 0.441 7.51 4.77 5.71
9/8/2023 8:00:00 AM 24.09 75.362 0.441 7.51 4.73 5.69
9/8/2023 8:15:00 AM 24.07 75.326 0.441 7.49 5.15 5.68
9/8/2023 8:30:00 AM 24.06 75.308 0.442 7.42 5.1 5.69
9/8/2023 8:45:00 AM 24.05 75.29 0.442 7.5 5.18 5.72
9/8/2023 9:00:00 AM 24.04 75.272 0.442 7.5 4.86 5.74
9/8/2023 9:15:00 AM 24.04 75.272 0.442 7.53 7.05 5.78
9/8/2023 9:30:00 AM 24.05 75.29 0.443 7.52 4.48 5.83
9/8/2023 9:45:00 AM 24.08 75.344 0.443 7.53 4.72 5.9
9/8/2023 10:00:00 AM 24.11 75.398 0.443 7.52 4.42 5.96
9/8/2023 10:15:00 AM 24.18 75.524 0.443 7.54 4.8 6.16
9/8/2023 10:30:00 AM 24.24 75.632 0.443 7.56 4.53 6.29
9/8/2023 10:45:00 AM 24.29 75.722 0.444 7.56 4.08 6.37
9/8/2023 11:00:00 AM 24.35 75.83 0.444 7.61 19.28 6.49
9/8/2023 11:15:00 AM 24.41 75.938 0.444 7.63 4.76 6.64
9/8/2023 11:30:00 AM 24.47 76.046 0.444 7.65 4.74 6.79
9/8/2023 11:45:00 AM 24.53 76.154 0.444 7.67 4.57 6.93
9/8/2023 12:00:00 PM 24.63 76.334 0.444 7.71 4.64 7.08
9/8/2023 12:15:00 PM 24.73 76.514 0.444 7.73 4.58 7.24
9/8/2023 12:30:00 PM 24.78 76.604 0.444 7.74 9.08 7.32
9/8/2023 12:45:00 PM 24.9 76.82 0.444 7.76 6.4 7.48
9/8/2023 1:00:00 PM 24.97 76.946 0.444 7.78 5.49 7.63
9/8/2023 1:15:00 PM 25.07 77.126 0.444 7.8 4.65 7.79
9/8/2023 1:30:00 PM 25.17 77.306 0.444 7.82 4.17 7.88
9/8/2023 1:45:00 PM 25.26 77.468 0.444 7.83 3.86 8.01
9/8/2023 2:00:00 PM 25.39 77.702 0.444 7.85 3.97 8.12
9/8/2023 2:15:00 PM 25.45 77.81 0.444 7.87 3.8 8.23
9/8/2023 2:30:00 PM 25.5 77.9 0.444 7.89 4.32 8.37
9/8/2023 2:45:00 PM 25.58 78.044 0.444 7.92 3.86 8.52
9/8/2023 3:00:00 PM 25.63 78.134 0.444 7.93 3.95 8.62
9/8/2023 3:15:00 PM 25.71 78.278 0.444 7.97 4.14 8.78
9/8/2023 3:30:00 PM 25.78 78.404 0.444 7.99 4.13 8.88
9/8/2023 3:45:00 PM 25.82 78.476 0.444 8 4.42 8.91
9/8/2023 4:00:00 PM 25.85 78.53 0.443 8.02 4.93 8.99
9/8/2023 4:15:00 PM 25.87 78.566 0.443 8.03 4.87 9.08
9/8/2023 4:30:00 PM 25.81 78.458 0.438 8.05 13.01 9.02
9/8/2023 4:45:00 PM 25.81 78.458 0.438 8.05 7.39 9.03
9/8/2023 5:00:00 PM 25.82 78.476 0.44 8.07 5.52 9.09
9/8/2023 5:15:00 PM 25.84 78.512 0.441 8.09 5.09 9.17
9/8/2023 5:30:00 PM 25.88 78.584 0.441 8.11 5.57 9.21
9/8/2023 5:45:00 PM 25.88 78.584 0.441 8.11 5.38 9.18
9/8/2023 6:00:00 PM 25.85 78.53 0.441 8.11 4.72 9.21
9/8/2023 6:15:00 PM 25.79 78.422 0.441 8.11 4.66 9.14
9/8/2023 6:30:00 PM 25.73 78.314 0.441 8.11 5.55 9.08
9/8/2023 6:45:00 PM 25.68 78.224 0.441 8.1 6.65 9.04
9/8/2023 7:00:00 PM 25.65 78.17 0.441 8.1 7.43 9.01
9/8/2023 7:15:00 PM 25.63 78.134 0.441 8.1 7.22 8.93
9/8/2023 7:30:00 PM 25.59 78.062 0.442 8.09 7.48 8.86
9/8/2023 7:45:00 PM 25.56 78.008 0.442 8.06 6.52 8.78
9/8/2023 8:00:00 PM 25.52 77.936 0.442 8.07 6.83 8.69
9/8/2023 8:15:00 PM 25.48 77.864 0.442 8.05 6.54 8.58
9/8/2023 8:30:00 PM 25.43 77.774 0.442 8.04 5.87 8.48
9/8/2023 8:45:00 PM 25.4 77.72 0.443 8.02 6.28 8.39
9/8/2023 9:00:00 PM 25.34 77.612 0.443 8 5.74 8.3
9/8/2023 9:15:00 PM 25.29 77.522 0.443 7.99 5.29 8.2
9/8/2023 9:30:00 PM 25.24 77.432 0.443 7.97 4.78 8.12
9/8/2023 9:45:00 PM 25.19 77.342 0.443 7.95 5.25 8
9/8/2023 10:00:00 PM 25.14 77.252 0.444 7.93 7.87 7.87
9/8/2023 10:15:00 PM 25.09 77.162 0.444 7.92 5.54 7.8
9/8/2023 10:30:00 PM 25.05 77.09 0.444 7.89 5.76 7.68
9/8/2023 10:45:00 PM 25 77 0.444 7.88 5.34 7.6
9/8/2023 11:00:00 PM 24.96 76.92799 0.444 7.85 4.75 7.49
9/8/2023 11:15:00 PM 24.92 76.856 0.445 7.84 5.05 7.42
9/8/2023 11:30:00 PM 24.86 76.748 0.445 7.83 4.69 7.34
9/8/2023 11:45:00 PM 24.8 76.64 0.445 7.83 4.96 7.28
9/9/2023 12:00:00 AM 24.77 76.586 0.445 7.82 5.28 7.23
9/9/2023 12:15:00 AM 24.71 76.478 0.446 7.8 5.92 7.16
9/9/2023 12:30:00 AM 24.69 76.442 0.446 7.78 7.53 7.09
9/9/2023 12:45:00 AM 24.62 76.316 0.446 7.76 5.63 7.01
9/9/2023 1:00:00 AM 24.56 76.208 0.447 7.75 5.45 6.93
9/9/2023 1:15:00 AM 24.5 76.1 0.447 7.73 6.41 6.88
9/9/2023 1:30:00 AM 24.47 76.046 0.447 7.72 5.46 6.81
9/9/2023 1:45:00 AM 24.42 75.956 0.447 7.71 5.6 6.78
9/9/2023 2:00:00 AM 24.35 75.83 0.447 7.7 5.5 6.72
9/9/2023 2:15:00 AM 24.31 75.758 0.448 7.7 5.61 6.67
9/9/2023 2:30:00 AM 24.26 75.668 0.448 7.7 5.81 6.64
9/9/2023 2:45:00 AM 24.21 75.578 0.448 7.68 5.55 6.57
9/9/2023 3:00:00 AM 24.17 75.506 0.448 7.67 5.53 6.51
9/9/2023 3:15:00 AM 24.12 75.416 0.448 7.67 6.2 6.48
9/9/2023 3:30:00 AM 24.07 75.326 0.448 7.66 5.48 6.46
9/9/2023 3:45:00 AM 24.03 75.254 0.448 7.66 5.2 6.43
9/9/2023 4:00:00 AM 23.97 75.146 0.449 7.65 5.73 6.4
9/9/2023 4:15:00 AM 23.94 75.092 0.449 7.65 5.62 6.36
9/9/2023 4:30:00 AM 23.9 75.02 0.449 7.64 5.81 6.33
9/9/2023 4:45:00 AM 23.86 74.948 0.449 7.64 5.72 6.32
9/9/2023 5:00:00 AM 23.84 74.912 0.449 7.64 6.19 6.29
9/9/2023 5:15:00 AM 23.78 74.804 0.449 7.63 5.99 6.26
9/9/2023 5:30:00 AM 23.75 74.75 0.449 7.6 6.19 6.25
9/9/2023 5:45:00 AM 23.7 74.66 0.449 7.63 5.91 6.24
9/9/2023 6:00:00 AM 23.66 74.588 0.449 7.62 7.58 6.18
9/9/2023 6:15:00 AM 23.62 74.516 0.449 7.61 6.69 6.16
9/9/2023 6:30:00 AM 23.59 74.462 0.449 7.61 6.53 6.19
9/9/2023 6:45:00 AM 23.55 74.39 0.449 7.61 6.63 6.17
9/9/2023 7:00:00 AM 23.49 74.282 0.449 7.6 5.57 6.16
9/9/2023 7:15:00 AM 23.47 74.246 0.449 7.59 5.57 6.13
9/9/2023 7:30:00 AM 23.39 74.102 0.448 7.6 6.02 6.14
9/9/2023 7:45:00 AM 23.35 74.03 0.447 7.59 6.25 6.15
9/9/2023 8:00:00 AM 23.33 73.994 0.448 7.59 6.16 6.11
9/9/2023 8:15:00 AM 23.32 73.976 0.448 7.59 6.22 6.08
9/9/2023 8:30:00 AM 23.28 73.904 0.448 7.58 5.5 6.1
9/9/2023 8:45:00 AM 23.27 73.886 0.448 7.58 4.96 6.11
9/9/2023 9:00:00 AM 23.24 73.832 0.448 7.57 5.01 6.1
9/9/2023 9:15:00 AM 23.23 73.814 0.448 7.56 6.06 6.14
9/9/2023 9:30:00 AM 23.19 73.742 0.448 7.57 5.97 6.14
9/9/2023 9:45:00 AM 23.19 73.742 0.448 7.56 5.35 6.12
9/9/2023 10:00:00 AM 23.18 73.724 0.448 7.57 4.9 6.22
9/9/2023 10:15:00 AM 23.17 73.706 0.448 7.58 5.49 6.3
9/9/2023 10:30:00 AM 23.17 73.706 0.447 7.58 4.82 6.35
9/9/2023 10:45:00 AM 23.15 73.67 0.447 7.59 4.9 6.35
9/9/2023 11:00:00 AM 23.15 73.67 0.447 7.59 4.83 6.45
9/9/2023 11:15:00 AM 23.17 73.706 0.447 7.6 4.11 6.55
9/9/2023 11:30:00 AM 23.18 73.724 0.447 7.61 4.34 6.65
9/9/2023 11:45:00 AM 23.19 73.742 0.447 7.62 4.02 6.77
9/9/2023 12:00:00 PM 23.18 73.724 0.447 7.63 4.21 6.83
9/9/2023 12:15:00 PM 23.2 73.76 0.446 7.63 4.57 6.91
9/9/2023 12:30:00 PM 23.22 73.796 0.446 7.65 4.7 7.04
9/9/2023 12:45:00 PM 23.23 73.814 0.446 7.65 4.79 7.13
9/9/2023 1:00:00 PM 23.26 73.868 0.446 7.68 4.75 7.25
9/9/2023 1:15:00 PM 23.28 73.904 0.446 7.7 4.25 7.4
9/9/2023 1:30:00 PM 23.32 73.976 0.445 7.73 4.76 7.56
9/9/2023 1:45:00 PM 23.34 74.012 0.445 7.76 4.73 7.68
9/9/2023 2:00:00 PM 23.35 74.03 0.445 7.77 4.52 7.76
9/9/2023 2:15:00 PM 23.36 74.048 0.445 7.78 4.71 7.87
9/9/2023 2:30:00 PM 23.37 74.066 0.444 7.81 4.73 7.98
9/9/2023 2:45:00 PM 23.38 74.084 0.444 7.82 4.59 8.08
9/9/2023 3:00:00 PM 23.39 74.102 0.444 7.84 4.73 8.18
9/9/2023 3:15:00 PM 23.4 74.12 0.444 7.85 5.23 8.22
9/9/2023 3:30:00 PM 23.4 74.12 0.444 7.86 5.13 8.3
9/9/2023 3:45:00 PM 23.39 74.102 0.444 7.87 5.68 8.35
9/9/2023 4:00:00 PM 23.38 74.084 0.444 7.88 4.86 8.4
9/9/2023 4:15:00 PM 23.37 74.066 0.443 7.89 5.24 8.43
9/9/2023 4:30:00 PM 23.36 74.048 0.443 7.89 5.02 8.42
9/9/2023 4:45:00 PM 23.35 74.03 0.443 7.9 4.72 8.47
9/9/2023 5:00:00 PM 23.32 73.976 0.443 7.9 5.39 8.45
9/9/2023 5:15:00 PM 23.3 73.94 0.443 7.89 5.36 8.43
9/9/2023 5:30:00 PM 23.26 73.868 0.443 7.89 5.25 8.43
9/9/2023 5:45:00 PM 23.21 73.778 0.442 7.89 6.14 8.39
9/9/2023 6:00:00 PM 23.19 73.742 0.442 7.89 6.43 8.36
9/9/2023 6:15:00 PM 23.16 73.688 0.442 7.88 6.12 8.32
9/9/2023 6:30:00 PM 23.13 73.634 0.442 7.79 7.04 8.27
9/9/2023 6:45:00 PM 23.1 73.58 0.442 7.87 6.63 8.24
9/9/2023 7:00:00 PM 23.07 73.526 0.443 7.86 7.52 8.15
9/9/2023 7:15:00 PM 23.03 73.454 0.443 7.84 7.54 8.11
9/9/2023 7:30:00 PM 22.99 73.382 0.443 7.84 7.03 8.04
9/9/2023 7:45:00 PM 22.95 73.31 0.443 7.83 9.48 7.97
9/9/2023 8:00:00 PM 22.91 73.238 0.443 7.81 10.87 7.91
9/9/2023 8:15:00 PM 22.87 73.166 0.443 7.81 7.61 7.85
9/9/2023 8:30:00 PM 22.84 73.112 0.443 7.75 7.42 7.81
9/9/2023 8:45:00 PM 22.8 73.04 0.443 7.78 9.8 7.77
9/9/2023 9:00:00 PM 22.77 72.986 0.443 7.77 7.47 7.72
9/9/2023 9:15:00 PM 22.74 72.932 0.443 7.76 6.51 7.66
9/9/2023 9:30:00 PM 22.7 72.86 0.443 7.76 7.3 7.58
9/9/2023 9:45:00 PM 22.67 72.806 0.444 7.74 6.99 7.54
9/9/2023 10:00:00 PM 22.64 72.752 0.444 7.74 6.69 7.47
9/9/2023 10:15:00 PM 22.6 72.68 0.444 7.73 7.05 7.42
9/9/2023 10:30:00 PM 22.57 72.626 0.444 7.72 6.35 7.35
9/9/2023 10:45:00 PM 22.55 72.59 0.444 7.7 5.97 7.3
9/9/2023 11:00:00 PM 22.51 72.518 0.445 7.71 6.53 7.23
9/9/2023 11:15:00 PM 22.49 72.482 0.445 7.69 6.35 7.19
9/9/2023 11:30:00 PM 22.45 72.41 0.445 7.68 6.23 7.13
9/9/2023 11:45:00 PM 22.43 72.374 0.445 7.68 8.39 7.09
9/10/2023 12:00:00 AM 22.4 72.32 0.445 7.67 8.9 7.08
9/10/2023 12:15:00 AM 22.38 72.284 0.445 7.67 7.42 7.05
9/10/2023 12:30:00 AM 22.36 72.248 0.445 7.66 7.44 7.02
9/10/2023 12:45:00 AM 22.34 72.212 0.445 7.67 6.8 7
9/10/2023 1:00:00 AM 22.32 72.176 0.445 7.66 7.15 6.98
9/10/2023 1:15:00 AM 22.3 72.14 0.445 7.65 7.4 6.94
9/10/2023 1:30:00 AM 22.28 72.104 0.445 7.65 6.8 6.89
9/10/2023 1:45:00 AM 22.25 72.05 0.445 7.64 7.29 6.88
9/10/2023 2:00:00 AM 22.24 72.032 0.445 7.64 6.41 6.83
9/10/2023 2:15:00 AM 22.21 71.978 0.445 7.64 6.58 6.8
9/10/2023 2:30:00 AM 22.2 71.96 0.445 7.63 6.85 6.76
9/10/2023 2:45:00 AM 22.18 71.924 0.445 7.63 7.52 6.74
9/10/2023 3:00:00 AM 22.16 71.888 0.445 7.63 6.52 6.71
9/10/2023 3:15:00 AM 22.14 71.852 0.444 7.63 7.53 6.7
9/10/2023 3:30:00 AM 22.12 71.816 0.444 7.62 7.68 6.68
9/10/2023 3:45:00 AM 22.1 71.78 0.444 7.57 8.37 6.66
9/10/2023 4:00:00 AM 22.08 71.744 0.444 7.6 7.83 6.64
9/10/2023 4:15:00 AM 22.07 71.726 0.444 7.61 7.78 6.63
9/10/2023 4:30:00 AM 22.05 71.69 0.443 7.61 7.12 6.63
9/10/2023 4:45:00 AM 22.03 71.654 0.443 7.61 7.38 6.59
9/10/2023 5:00:00 AM 22 71.6 0.443 7.61 7.87 6.55
9/10/2023 5:15:00 AM 21.99 71.582 0.443 7.61 7.61 6.53
9/10/2023 5:30:00 AM 21.97 71.546 0.442 7.59 7.43 6.52
9/10/2023 5:45:00 AM 21.95 71.51 0.442 7.58 9.3 6.49
9/10/2023 6:00:00 AM 21.92 71.456 0.442 7.57 11.36 6.44
9/10/2023 6:15:00 AM 21.9 71.42 0.442 7.57 9.99 6.4
9/10/2023 6:30:00 AM 21.87 71.366 0.441 7.58 7.35 6.38
9/10/2023 6:45:00 AM 21.86 71.348 0.441 7.55 7.11 6.37
9/10/2023 7:00:00 AM 21.84 71.312 0.441 7.55 7.66 6.35
9/10/2023 7:15:00 AM 21.82 71.276 0.441 7.55 6.63 6.32
9/10/2023 7:30:00 AM 21.8 71.24 0.44 7.56 6.44 6.29
9/10/2023 7:45:00 AM 21.79 71.222 0.44 7.55 6.92 6.26
9/10/2023 8:00:00 AM 21.78 71.204 0.44 7.54 6.1 6.26
9/10/2023 8:15:00 AM 21.77 71.186 0.44 7.54 6.84 6.26
9/10/2023 8:30:00 AM 21.77 71.186 0.44 7.54 6.02 6.31
9/10/2023 8:45:00 AM 21.77 71.186 0.439 7.54 5.89 6.28
9/10/2023 9:00:00 AM 21.77 71.186 0.439 7.54 5.71 6.33
9/10/2023 9:15:00 AM 21.77 71.186 0.439 7.54 5.83 6.37
9/10/2023 9:30:00 AM 21.77 71.186 0.439 7.54 5.69 6.42
9/10/2023 9:45:00 AM 21.77 71.186 0.439 7.55 5.47 6.47
9/10/2023 10:00:00 AM 21.78 71.204 0.438 7.56 4.88 6.53
9/10/2023 10:15:00 AM 21.78 71.204 0.438 7.52 4.98 6.56
9/10/2023 10:30:00 AM 21.8 71.24 0.438 7.56 5.02 6.65
9/10/2023 10:45:00 AM 21.82 71.276 0.438 7.54 5.65 6.74
9/10/2023 11:00:00 AM 21.84 71.312 0.438 7.59 6.23 6.82
9/10/2023 11:15:00 AM 21.85 71.33 0.438 7.6 5.67 6.9
9/10/2023 11:30:00 AM 21.88 71.384 0.438 7.62 4.72 7.02
9/10/2023 11:45:00 AM 21.9 71.42 0.438 7.63 5.5 7.13
9/10/2023 12:00:00 PM 21.92 71.456 0.438 7.65 4.84 7.21
9/10/2023 12:15:00 PM 21.92 71.456 0.438 7.66 4.67 7.28
9/10/2023 12:30:00 PM 21.93 71.474 0.438 7.66 4.58 7.33
9/10/2023 12:45:00 PM 21.96 71.528 0.438 7.67 4.72 7.43
9/10/2023 1:00:00 PM 22 71.6 0.438 7.69 4.96 7.54
9/10/2023 1:15:00 PM 22.03 71.654 0.438 7.71 4.97 7.67
9/10/2023 1:30:00 PM 22.05 71.69 0.438 7.72 4.84 7.76
9/10/2023 1:45:00 PM 22.07 71.726 0.438 7.72 4.32 7.87
9/10/2023 2:00:00 PM 22.12 71.816 0.438 7.75 4.34 8.01
9/10/2023 2:15:00 PM 22.18 71.924 0.438 7.74 4.95 8.14
9/10/2023 2:30:00 PM 22.2 71.96 0.438 7.76 4.47 8.2
9/10/2023 2:45:00 PM 22.18 71.924 0.435 7.77 9.38 8.24
9/10/2023 3:00:00 PM 22.14 71.852 0.43 7.82 11.56 8.37
9/10/2023 3:15:00 PM 22.12 71.816 0.429 7.83 9.16 8.41
9/10/2023 3:30:00 PM 22.16 71.888 0.432 7.84 5.62 8.5
9/10/2023 3:45:00 PM 22.23 72.014 0.433 7.87 5.17 8.61
9/10/2023 4:00:00 PM 22.27 72.086 0.433 7.88 6.18 8.65
9/10/2023 4:15:00 PM 22.27 72.086 0.432 7.86 41.85 8.62
9/10/2023 4:30:00 PM 22.23 72.014 0.43 7.78 80.6 8.61
9/10/2023 4:45:00 PM 22.2 71.96 0.429 7.84 87.05 8.62
9/10/2023 5:00:00 PM 22.18 71.924 0.428 7.85 52.69 8.6
9/10/2023 5:15:00 PM 22.12 71.816 0.425 7.85 45.99 8.61
9/10/2023 5:30:00 PM 22.01 71.618 0.42 7.83 36.33 8.59
9/10/2023 5:45:00 PM 21.96 71.528 0.418 7.8 31.14 8.58
9/10/2023 6:00:00 PM 21.92 71.456 0.417 7.8 28.88 8.61
9/10/2023 6:15:00 PM 21.91 71.438 0.417 7.79 26.1 8.65
9/10/2023 6:30:00 PM 21.9 71.42 0.417 7.79 19.28 8.65
9/10/2023 6:45:00 PM 21.9 71.42 0.418 7.79 19.68 8.65
9/10/2023 7:00:00 PM 21.9 71.42 0.419 7.77 15.64 8.6
9/10/2023 7:15:00 PM 21.88 71.384 0.42 7.77 15.72 8.54
9/10/2023 7:30:00 PM 21.87 71.366 0.421 7.76 15.7 8.5
9/10/2023 7:45:00 PM 21.86 71.348 0.422 7.76 11.98 8.48
9/10/2023 8:00:00 PM 21.86 71.348 0.423 7.77 12.04 8.47
9/10/2023 8:15:00 PM 21.86 71.348 0.424 7.77 10.57 8.47
9/10/2023 8:30:00 PM 21.86 71.348 0.425 7.78 11.8 8.43
9/10/2023 8:45:00 PM 21.86 71.348 0.425 7.8 9.73 8.44
9/10/2023 9:00:00 PM 21.86 71.348 0.426 7.82 9.12 8.42
9/10/2023 9:15:00 PM 21.86 71.348 0.427 7.83 8.34 8.4
9/10/2023 9:30:00 PM 21.85 71.33 0.428 7.84 9.59 8.38
9/10/2023 9:45:00 PM 21.81 71.258 0.423 7.86 18.1 8.34
9/10/2023 10:00:00 PM 21.81 71.258 0.425 7.85 12.65 8.32
9/10/2023 10:15:00 PM 21.71 71.078 0.412 7.83 41.91 8.29
9/10/2023 10:30:00 PM 21.57 70.826 0.402 7.85 27.26 8.35
9/10/2023 10:45:00 PM 21.46 70.628 0.396 7.83 327.4 8.41
9/10/2023 11:00:00 PM 21.37 70.466 0.384 7.82 592.49 8.44
9/10/2023 11:15:00 PM 21.13 70.034 0.367 7.76 655.89 8.43
9/10/2023 11:30:00 PM 21.07 69.926 0.371 7.74 379.68 8.37
9/10/2023 11:45:00 PM 20.91 69.638 0.364 7.73 257.92 8.31
9/11/2023 12:00:00 AM 20.92 69.656 0.366 7.7 237.65 8.29
9/11/2023 12:15:00 AM 21 69.8 0.373 7.67 141.41 8.24
9/11/2023 12:30:00 AM 21.04 69.872 0.378 7.69 109.98 8.2
9/11/2023 12:45:00 AM 21.09 69.962 0.382 7.69 77.19 8.12
9/11/2023 1:00:00 AM 21.12 70.016 0.384 7.71 62.07 8.11
9/11/2023 1:15:00 AM 21.14 70.052 0.386 7.66 52.49 8.02
9/11/2023 1:30:00 AM 21.15 70.07 0.387 7.66 46.76 7.98
9/11/2023 1:45:00 AM 21.16 70.088 0.387 7.59 37.69 7.97
9/11/2023 2:00:00 AM 21.16 70.088 0.387 7.63 35.68 7.97
9/11/2023 2:15:00 AM 21.16 70.088 0.386 7.63 30.93 7.85
9/11/2023 2:30:00 AM 21.15 70.07 0.385 7.6 29.32 7.82
9/11/2023 2:45:00 AM 21.14 70.052 0.384 7.6 26.41 7.79
9/11/2023 3:00:00 AM 21.13 70.034 0.382 7.59 25.98 7.75
9/11/2023 3:15:00 AM 21.11 69.998 0.38 7.5 24.75 7.72
9/11/2023 3:30:00 AM 21.1 69.98 0.379 7.55 28.14 7.7
9/11/2023 3:45:00 AM 21.08 69.944 0.377 7.58 25.76 7.67
9/11/2023 4:00:00 AM 21.05 69.89 0.375 7.54 21.11 7.63
9/11/2023 4:15:00 AM 21.03 69.854 0.374 7.54 21.38 7.65
9/11/2023 4:30:00 AM 21.02 69.836 0.373 7.55 20.94 7.58
9/11/2023 4:45:00 AM 20.99 69.782 0.372 7.39 21.91 7.55
9/11/2023 5:00:00 AM 20.97 69.746 0.371 7.51 19.06 7.52
9/11/2023 5:15:00 AM 20.95 69.71 0.37 7.53 22 7.51
9/11/2023 5:30:00 AM 20.93 69.674 0.37 7.53 21.94 7.48
9/11/2023 5:45:00 AM 20.91 69.638 0.369 7.53 20.07 7.46
9/11/2023 6:00:00 AM 20.89 69.602 0.369 7.53 18.41 7.47
9/11/2023 6:15:00 AM 20.87 69.566 0.368 7.52 19.57 7.41
9/11/2023 6:30:00 AM 20.86 69.548 0.368 7.52 17.89 7.39
9/11/2023 6:45:00 AM 20.84 69.512 0.367 7.27 18.94 7.39
9/11/2023 7:00:00 AM 20.82 69.476 0.366 7.5 19.19 7.38
9/11/2023 7:15:00 AM 20.8 69.44 0.365 7.5 17.99 7.34
9/11/2023 7:30:00 AM 20.78 69.404 0.364 7.51 24.52 7.32
9/11/2023 7:45:00 AM 20.75 69.35 0.362 7.33 30.72 7.35
9/11/2023 8:00:00 AM 20.71 69.278 0.359 7.5 20.18 7.38
9/11/2023 8:15:00 AM 20.67 69.206 0.357 7.51 27.7 7.38
9/11/2023 8:30:00 AM 20.53 68.954 0.352 7.5 95 7.48
9/11/2023 8:45:00 AM 20.45 68.81 0.347 7.49 130.8 7.51
9/11/2023 9:00:00 AM 20.45 68.81 0.344 7.49 109.99 7.54
9/11/2023 9:15:00 AM 20.49 68.882 0.342 7.27 69.27 7.56
9/11/2023 9:30:00 AM 20.53 68.954 0.341 7.48 59.65 7.64
9/11/2023 9:45:00 AM 20.56 69.008 0.34 7.5 47.6 7.76
9/11/2023 10:00:00 AM 20.61 69.098 0.339 7.52 47.14 7.81
9/11/2023 10:15:00 AM 20.64 69.152 0.339 7.53 41.76 7.9
9/11/2023 10:30:00 AM 20.67 69.206 0.338 7.53 37.15 7.96
9/11/2023 10:45:00 AM 20.7 69.26 0.338 7.28 42.85 7.97
9/11/2023 11:00:00 AM 20.72 69.296 0.337 7.53 41.98 7.97
9/11/2023 11:15:00 AM 20.72 69.296 0.337 7.56 31.32 8.02
9/11/2023 11:30:00 AM 20.74 69.332 0.336 7.58 31.5 8.06
9/11/2023 11:45:00 AM 20.78 69.404 0.336 7.38 25.26 8.11
9/11/2023 12:00:00 PM 20.84 69.512 0.335 7.58 24.37 8.19
9/11/2023 12:15:00 PM 20.9 69.62 0.335 7.62 23.56 8.29
9/11/2023 12:30:00 PM 20.92 69.656 0.334 7.63 23.42 8.33
9/11/2023 12:45:00 PM 20.95 69.71 0.334 7.63 22.03 8.4
9/11/2023 1:00:00 PM 21 69.8 0.333 7.67 21.09 8.47
9/11/2023 1:15:00 PM 21.05 69.89 0.333 7.56 19.55 8.52
9/11/2023 1:30:00 PM 21.09 69.962 0.333 7.69 22.91 8.61
9/11/2023 1:45:00 PM 21.16 70.088 0.333 7.72 17.1 8.68
9/11/2023 2:00:00 PM 21.24 70.232 0.333 7.73 16.16 8.77
9/11/2023 2:15:00 PM 21.3 70.34 0.333 7.76 13.87 8.86
9/11/2023 2:30:00 PM 21.38 70.484 0.332 7.79 14.05 8.96
9/11/2023 2:45:00 PM 21.46 70.628 0.332 7.83 13.26 9.08
9/11/2023 3:00:00 PM 21.52 70.736 0.333 7.85 12.94 9.17
9/11/2023 3:15:00 PM 21.58 70.844 0.333 7.8 12.71 9.25
9/11/2023 3:30:00 PM 21.61 70.898 0.333 7.89 12.3 9.29
9/11/2023 3:45:00 PM 21.64 70.952 0.333 7.92 12.58 9.34
9/11/2023 4:00:00 PM 21.67 71.006 0.334 7.93 13.72 9.36
9/11/2023 4:15:00 PM 21.7 71.06 0.334 7.7 13.4 9.38
9/11/2023 4:30:00 PM 21.7 71.06 0.335 7.93 12.41 9.39
9/11/2023 4:45:00 PM 21.7 71.06 0.336 7.99 13.07 9.4
9/11/2023 5:00:00 PM 21.68 71.024 0.337 7.99 12.68 9.37
9/11/2023 5:15:00 PM 21.67 71.006 0.337 7.98 13.37 9.34
9/11/2023 5:30:00 PM 21.64 70.952 0.338 7.99 13.2 9.31
9/11/2023 5:45:00 PM 21.6 70.88 0.34 7.87 12.12 9.27
9/11/2023 6:00:00 PM 21.57 70.826 0.34 7.97 11.88 9.22
9/11/2023 6:15:00 PM 21.54 70.772 0.341 7.96 13.17 9.16
9/11/2023 6:30:00 PM 21.49 70.682 0.342 7.95 14.18 9.1
9/11/2023 6:45:00 PM 21.45 70.61 0.343 7.85 12.83 9.05
9/11/2023 7:00:00 PM 21.41 70.538 0.344 7.91 14.36 8.98

These are provisional data and have not been subject to a quality assurance process, but rather are the raw data reported by the instrument.
H: value is above sensor operating range
L: value is below sensor operating range
Offline: station is not reporting data
NC: parameter is not collected at site

Data Availability & Limitations

Uncertainty and potential for error can be associated with environmental monitoring data. Provisional data have not been subject to a quality assurance process, but rather are the raw data reported by the instrument. Data users are cautioned to consider carefully the provisional nature of the information before using it for decisions that concern personal or public safety or the conduct of business that involves substantial monetary or operational consequences.

Approved data are currently available by request by emailing: [email protected]. Approved data have been subject to a quality assurance process to correct for equipment or fouling drift. Data recorded during equipment malfunctions have been removed.

View Historical Stations that have been discontinued.